Provisional Data: Swatara Creek near Annville, PA


Please select a monitoring station.
Please select start date.
Please select start date.

Toggle Unit: C/F Toggle Unit: C/F
Sample Time Temperature (C) Temperature (F) Specific Conductivity (mS/cm) pH   Turbidity (NTU+) DO (mg/L)
8/11/2023 12:00:00 AM 22.64 72.752 0.199 7.03 6.74 6.92
8/11/2023 12:15:00 AM 22.6 72.68 0.199 7.03 6.33 6.88
8/11/2023 12:30:00 AM 22.55 72.59 0.199 7.02 5.64 6.85
8/11/2023 12:45:00 AM 22.51 72.518 0.199 7.03 6.46 6.83
8/11/2023 1:00:00 AM 22.44 72.392 0.199 7.01 8.24 6.82
8/11/2023 1:15:00 AM 22.39 72.302 0.199 7.01 7.23 6.81
8/11/2023 1:30:00 AM 22.34 72.212 0.199 7.01 6.45 6.8
8/11/2023 1:45:00 AM 22.34 72.212 0.2 7.01 6.11 6.78
8/11/2023 2:00:00 AM 22.26 72.068 0.2 7.01 5.37 6.78
8/11/2023 2:15:00 AM 22.21 71.978 0.2 6.98 6.3 6.74
8/11/2023 2:30:00 AM 22.19 71.942 0.2 6.98 6 6.72
8/11/2023 2:45:00 AM 22.16 71.888 0.2 6.97 6.24 6.74
8/11/2023 3:00:00 AM 22.16 71.888 0.2 6.97 6.31 6.76
8/11/2023 3:15:00 AM 22.08 71.744 0.2 6.97 7.39 6.74
8/11/2023 3:30:00 AM 22.05 71.69 0.2 6.95 6.99 6.73
8/11/2023 3:45:00 AM 21.99 71.582 0.2 6.94 6.29 6.7
8/11/2023 4:00:00 AM 21.96 71.528 0.2 6.95 15.85 6.7
8/11/2023 4:15:00 AM 21.95 71.51 0.201 6.95 6.92 6.73
8/11/2023 4:30:00 AM 21.91 71.438 0.201 6.95 6.95 6.73
8/11/2023 4:45:00 AM 21.87 71.366 0.201 6.93 9.29 6.7
8/11/2023 5:00:00 AM 21.8 71.24 0.201 6.9 7.12 6.69
8/11/2023 5:15:00 AM 21.8 71.24 0.201 6.92 7.52 6.72
8/11/2023 5:30:00 AM 21.77 71.186 0.201 6.9 7.23 6.71
8/11/2023 5:45:00 AM 21.7 71.06 0.201 6.9 7.84 6.69
8/11/2023 6:00:00 AM 21.68 71.024 0.201 6.91 8.83 6.74
8/11/2023 6:15:00 AM 21.65 70.97 0.201 6.91 9.11 6.69
8/11/2023 6:30:00 AM 21.6 70.88 0.202 6.91 8.37 6.72
8/11/2023 6:45:00 AM 21.59 70.862 0.202 6.9 9.13 6.73
8/11/2023 7:00:00 AM 21.55 70.79 0.202 6.91 12.96 6.75
8/11/2023 7:15:00 AM 21.54 70.772 0.202 6.91 10.04 6.74
8/11/2023 7:30:00 AM 21.53 70.754 0.202 6.89 9.96 6.79
8/11/2023 7:45:00 AM 21.5 70.7 0.202 6.91 12.85 6.78
8/11/2023 8:00:00 AM 21.5 70.7 0.202 6.9 9.65 6.8
8/11/2023 8:15:00 AM 21.51 70.718 0.202 6.88 11.78 6.85
8/11/2023 8:30:00 AM 21.5 70.7 0.202 6.88 13.24 6.87
8/11/2023 8:45:00 AM 21.49 70.682 0.202 6.87 10.85 6.89
8/11/2023 9:00:00 AM 21.5 70.7 0.202 6.86 10.19 6.92
8/11/2023 9:15:00 AM 21.52 70.736 0.203 6.85 10.25 6.99
8/11/2023 9:30:00 AM 21.54 70.772 0.203 6.84 11.89 7.04
8/11/2023 9:45:00 AM 21.57 70.826 0.253 6.85 12.59 7.16
8/11/2023 10:00:00 AM 21.58 70.844 0.203 6.83 11.16 7.27
8/11/2023 10:15:00 AM 21.61 70.898 0.203 6.83 11.08 7.38
8/11/2023 10:30:00 AM 21.72 71.096 0.203 6.79 11.93 7.51
8/11/2023 10:45:00 AM 21.77 71.186 0.203 6.79 10.74 7.62
8/11/2023 11:00:00 AM 21.89 71.402 0.203 6.78 10.54 7.79
8/11/2023 11:15:00 AM 22.06 71.708 0.203 6.79 11.1 7.96
8/11/2023 11:30:00 AM 22.31 72.158 0.203 6.8 11.75 8.16
8/11/2023 11:45:00 AM 22.56 72.608 0.203 6.81 12.89 8.34
8/11/2023 12:00:00 PM 22.81 73.058 0.203 6.87 12.88 8.55
8/11/2023 12:15:00 PM 23.06 73.508 0.203 6.87 13.26 8.72
8/11/2023 12:30:00 PM 23.4 74.12 0.204 6.9 14.28 8.84
8/11/2023 12:45:00 PM 23.72 74.696 0.204 6.93 15.17 9.07
8/11/2023 1:00:00 PM 24.05 75.29 0.204 6.99 15.51 9.24
8/11/2023 1:15:00 PM 24.39 75.902 0.204 7.05 15.61 9.42
8/11/2023 1:30:00 PM 24.67 76.406 0.204 7.15 16.46 9.54
8/11/2023 1:45:00 PM 24.84 76.712 0.204 7.21 15.84 9.65
8/11/2023 2:00:00 PM 25.02 77.036 0.205 7.28 17.58 9.66
8/11/2023 2:15:00 PM 25.2 77.36 0.205 7.3 19.11 9.74
8/11/2023 2:30:00 PM 25.49 77.882 0.205 7.38 18.56 9.92
8/11/2023 2:45:00 PM 25.72 78.296 0.205 7.42 17.96 10.06
8/11/2023 3:00:00 PM 25.98 78.764 0.205 7.45 20.66 10.17
8/11/2023 3:15:00 PM 26.14 79.052 0.205 7.51 21 10.23
8/11/2023 3:30:00 PM 26.28 79.304 0.206 7.55 22.17 10.27
8/11/2023 3:45:00 PM 26.45 79.61 0.206 7.56 24.17 10.25
8/11/2023 4:00:00 PM 26.63 79.934 0.206 7.62 16.2 10.34
8/11/2023 4:15:00 PM 26.67 80.006 0.206 7.65 19.7 10.29
8/11/2023 4:30:00 PM 26.64 79.952 0.207 7.67 15.77 10.23
8/11/2023 4:45:00 PM 26.64 79.952 0.207 7.69 17.49 10.17
8/11/2023 5:00:00 PM 26.48 79.664 0.207 7.71 18.14 10.02
8/11/2023 5:15:00 PM 26.45 79.61 0.207 7.71 16.45 9.91
8/11/2023 5:30:00 PM 26.34 79.412 0.208 7.69 16.69 9.79
8/11/2023 5:45:00 PM 26.25 79.25 0.208 7.69 17.2 9.71
8/11/2023 6:00:00 PM 26.06 78.908 0.208 7.63 16.65 9.55
8/11/2023 6:15:00 PM 26.03 78.854 0.208 7.61 18.06 9.39
8/11/2023 6:30:00 PM 25.9 78.62 0.208 7.59 19.2 9.28
8/11/2023 6:45:00 PM 25.81 78.458 0.208 7.59 17.39 9.11
8/11/2023 7:00:00 PM 25.73 78.314 0.208 7.59 18.63 8.94
8/11/2023 7:15:00 PM 25.65 78.17 0.209 7.58 18.32 8.79
8/11/2023 7:30:00 PM 25.54 77.972 0.209 7.57 19.04 8.68
8/11/2023 7:45:00 PM 25.43 77.774 0.209 7.55 20.97 8.56
8/11/2023 8:00:00 PM 25.33 77.594 0.209 7.53 20.97 8.44
8/11/2023 8:15:00 PM 25.22 77.396 0.209 7.54 20.26 8.29
8/11/2023 8:30:00 PM 25.11 77.198 0.209 7.52 21.12 8.18
8/11/2023 8:45:00 PM 24.99 76.982 0.209 7.5 21.09 8.03
8/11/2023 9:00:00 PM 24.88 76.784 0.209 7.47 22.84 7.93
8/11/2023 9:15:00 PM 24.77 76.586 0.209 7.46 23.44 7.83
8/11/2023 9:30:00 PM 24.68 76.424 0.209 7.43 25.12 7.71
8/11/2023 9:45:00 PM 24.59 76.262 0.209 7.42 25.43 7.61
8/11/2023 10:00:00 PM 24.49 76.082 0.209 7.39 25.8 7.53
8/11/2023 10:15:00 PM 24.39 75.902 0.21 7.37 24.89 7.45
8/11/2023 10:30:00 PM 24.3 75.74 0.209 7.34 27.47 7.36
8/11/2023 10:45:00 PM 24.2 75.56 0.21 7.33 25.37 7.31
8/11/2023 11:00:00 PM 24.12 75.416 0.21 7.32 27.65 7.21
8/11/2023 11:15:00 PM 24.03 75.254 0.21 7.28 27.88 7.17
8/11/2023 11:30:00 PM 23.97 75.146 0.21 7.28 29.14 7.12
8/11/2023 11:45:00 PM 23.89 75.002 0.21 7.25 30.66 7.09
8/12/2023 12:00:00 AM 23.79 74.82201 0.21 7.23 31.08 7.03
8/12/2023 12:15:00 AM 23.7 74.66 0.21 7.22 32.74 7
8/12/2023 12:30:00 AM 23.6 74.48 0.21 7.2 31.13 6.94
8/12/2023 12:45:00 AM 23.57 74.426 0.21 7.19 32.56 6.89
8/12/2023 1:00:00 AM 23.46 74.228 0.21 7.17 33.52 6.88
8/12/2023 1:15:00 AM 23.39 74.102 0.21 7.16 34.29 6.87
8/12/2023 1:30:00 AM 23.33 73.994 0.21 7.15 32.01 6.84
8/12/2023 1:45:00 AM 23.32 73.976 0.211 7.14 35.29 6.82
8/12/2023 2:00:00 AM 23.19 73.742 0.211 7.13 38.72 6.79
8/12/2023 2:15:00 AM 23.17 73.706 0.211 7.13 41.19 6.78
8/12/2023 2:30:00 AM 23.09 73.562 0.211 7.12 41.08 6.76
8/12/2023 2:45:00 AM 23.09 73.562 0.211 7.1 43.69 6.75
8/12/2023 3:00:00 AM 23.05 73.49 0.211 7.1 48.7 6.76
8/12/2023 3:15:00 AM 22.96 73.328 0.212 7.1 47.25 6.74
8/12/2023 3:30:00 AM 22.93 73.274 0.212 7.1 48 6.74
8/12/2023 3:45:00 AM 22.9 73.22 0.212 7.09 52.53 6.71
8/12/2023 4:00:00 AM 22.87 73.166 0.212 7.08 56.26 6.71
8/12/2023 4:15:00 AM 22.84 73.112 0.213 7.07 61.24 6.69
8/12/2023 4:30:00 AM 22.84 73.112 0.213 7.07 63.76 6.7
8/12/2023 4:45:00 AM 22.79 73.022 0.213 7.06 66.97 6.67
8/12/2023 5:00:00 AM 22.75 72.95 0.214 7.07 69.46 6.68
8/12/2023 5:15:00 AM 22.72 72.896 0.214 7.05 78.58 6.7
8/12/2023 5:30:00 AM 22.65 72.77 0.214 7.06 81.91 6.66
8/12/2023 5:45:00 AM 22.65 72.77 0.214 7.05 83.52 6.68
8/12/2023 6:00:00 AM 22.6 72.68 0.215 7.03 86.05 6.64
8/12/2023 6:15:00 AM 22.57 72.626 0.215 7.03 87.84 6.64
8/12/2023 6:30:00 AM 22.54 72.57201 0.215 7.03 92.22 6.63
8/12/2023 6:45:00 AM 22.5 72.5 0.215 7.03 97.07 6.61
8/12/2023 7:00:00 AM 22.48 72.464 0.216 7.03 96.08 6.59
8/12/2023 7:15:00 AM 22.44 72.392 0.216 7.01 102.4 6.62
8/12/2023 7:30:00 AM 22.41 72.338 0.216 7 103 6.62
8/12/2023 7:45:00 AM 22.38 72.284 0.216 7 109.1 6.63
8/12/2023 8:00:00 AM 22.37 72.266 0.217 6.99 118.9 6.67
8/12/2023 8:15:00 AM 22.37 72.266 0.217 6.99 91.85 6.72
8/12/2023 8:30:00 AM 22.37 72.266 0.217 6.99 110.8 6.72
8/12/2023 8:45:00 AM 22.36 72.248 0.217 7.01 112.1 6.78
8/12/2023 9:00:00 AM 22.38 72.284 0.218 7.01 107.5 6.87
8/12/2023 9:15:00 AM 22.39 72.302 0.218 7 107.6 6.92
8/12/2023 9:30:00 AM 22.42 72.356 0.218 7 101.5 7.07
8/12/2023 9:45:00 AM 22.45 72.41 0.218 7 110.3 7.12
8/12/2023 10:00:00 AM 22.48 72.464 0.218 7 113.2 7.22
8/12/2023 10:15:00 AM 22.55 72.59 0.218 6.99 111.7 7.36
8/12/2023 10:30:00 AM 22.57 72.626 0.218 6.99 113.8 7.44
8/12/2023 10:45:00 AM 22.62 72.716 0.218 7 109.3 7.57
8/12/2023 11:00:00 AM 22.76 72.968 0.219 6.9 119.7 7.7
8/12/2023 11:15:00 AM 22.89 73.202 0.219 7 122 7.89
8/12/2023 11:30:00 AM 23.08 73.544 0.219 6.92 122.5 8.05
8/12/2023 11:45:00 AM 23.31 73.958 0.219 6.96 122.3 8.21
8/12/2023 12:00:00 PM 23.56 74.408 0.219 6.9 104.1 8.43
8/12/2023 12:15:00 PM 23.91 75.038 0.22 6.95 110.7 8.6
8/12/2023 12:30:00 PM 24.24 75.632 0.22 6.95 134.2 8.79
8/12/2023 12:45:00 PM 24.53 76.154 0.22 7 137.9 8.95
8/12/2023 1:00:00 PM 24.92 76.856 0.22 7.02 131.5 9.13
8/12/2023 1:15:00 PM 25.27 77.486 0.22 7.06 118.1 9.32
8/12/2023 1:30:00 PM 25.58 78.044 0.22 7.11 119.7 9.46
8/12/2023 1:45:00 PM 25.79 78.422 0.22 7.15 117.5 9.56
8/12/2023 2:00:00 PM 26.05 78.89 0.22 7.16 143.5 9.67
8/12/2023 2:15:00 PM 26.04 78.872 0.221 7.13 107.2 9.64
8/12/2023 2:30:00 PM 26.17 79.106 0.221 7.15 139 9.6
8/12/2023 2:45:00 PM 26.07 78.926 0.221 7.23 134.5 9.54
8/12/2023 3:00:00 PM 26.31 79.358 0.221 7.28 124.1 9.66
8/12/2023 3:15:00 PM 26.22 79.196 0.221 7.38 146.2 9.54
8/12/2023 3:30:00 PM 26.42 79.556 0.221 7.3 156.5 9.68
8/12/2023 3:45:00 PM 26.47 79.646 0.222 7.33 154.1 9.72
8/12/2023 4:00:00 PM 26.43 79.574 0.222 7.34 182.3 9.62
8/12/2023 4:15:00 PM 26.34 79.412 0.222 7.47 180.5 9.51
8/12/2023 4:30:00 PM 26.26 79.268 0.222 7.44 187.6 9.39
8/12/2023 4:45:00 PM 26.22 79.196 0.222 7.47 205.2 9.3
8/12/2023 5:00:00 PM 26.22 79.196 0.222 7.46 202.2 9.33
8/12/2023 5:15:00 PM 26.23 79.214 0.223 7.45 216 9.3
8/12/2023 5:30:00 PM 26.24 79.232 0.223 7.49 195.2 9.28
8/12/2023 5:45:00 PM 26.24 79.232 0.223 7.41 206.7 9.24
8/12/2023 6:00:00 PM 26.22 79.196 0.223 7.43 217.2 9.12
8/12/2023 6:15:00 PM 26.2 79.16 0.223 7.48 211.5 9.06
8/12/2023 6:30:00 PM 26.15 79.07 0.223 7.44 207.3 8.97
8/12/2023 6:45:00 PM 26.1 78.98 0.224 7.48 236.5 8.82
8/12/2023 7:00:00 PM 26.05 78.89 0.24 7.5 213 8.73
8/12/2023 7:15:00 PM 25.97 78.746 0.224 7.51 213.6 8.63
8/12/2023 7:30:00 PM 25.9 78.62 0.224 7.51 258.4 8.48
8/12/2023 7:45:00 PM 25.83 78.494 0.225 7.49 274.3 8.32
8/12/2023 8:00:00 PM 25.74 78.332 0.225 7.5 283.7 8.26
8/12/2023 8:15:00 PM 25.67 78.206 0.225 7.47 271.3 8.14
8/12/2023 8:30:00 PM 25.6 78.08 0.225 7.47 295.7 8.06
8/12/2023 8:45:00 PM 25.52 77.936 0.225 7.44 284.7 7.93
8/12/2023 9:00:00 PM 25.44 77.792 0.225 7.44 271.9 7.85
8/12/2023 9:15:00 PM 25.38 77.684 0.225 7.42 307.2 7.78
8/12/2023 9:30:00 PM 25.31 77.558 0.226 7.41 363.1 7.66
8/12/2023 9:45:00 PM 25.26 77.468 0.226 7.39 264.1 7.6
8/12/2023 10:00:00 PM 25.21 77.378 0.226 7.38 335.3 7.5
8/12/2023 10:15:00 PM 25.17 77.306 0.222 7.38 341.1 7.44
8/12/2023 10:30:00 PM 25.07 77.126 0.224 7.36 380.2 7.36
8/12/2023 10:45:00 PM 25.04 77.07201 0.225 7.37 304.9 7.3
8/12/2023 11:00:00 PM 24.97 76.946 0.225 7.34 373.3 7.18
8/12/2023 11:15:00 PM 24.94 76.892 0.225 7.33 426.4 7.11
8/12/2023 11:30:00 PM 24.64 76.352 0.213 7.3 398.4 7.31
8/12/2023 11:45:00 PM 24.61 76.298 0.213 7.25 416 7.21
8/13/2023 12:00:00 AM 24.49 76.082 0.21 7.24 577.3 7.1
8/13/2023 12:15:00 AM 24.52 76.136 0.214 7.23 579.8 7
8/13/2023 12:30:00 AM 24.5 76.1 0.216 7.21 560.2 6.91
8/13/2023 12:45:00 AM 24.42 75.956 0.216 7.18 523 6.84
8/13/2023 1:00:00 AM 24.43 75.974 0.219 7.17 492.2 6.78
8/13/2023 1:15:00 AM 24.36 75.848 0.219 7.15 538.3 6.73
8/13/2023 1:30:00 AM 24.29 75.722 0.219 7.13 589.7 6.68
8/13/2023 1:45:00 AM 24.16 75.488 0.218 7.11 552.7 6.6
8/13/2023 2:00:00 AM 24.11 75.398 0.218 7.09 611.8 6.53
8/13/2023 2:15:00 AM 24 75.2 0.217 7.04 604.7 6.44
8/13/2023 2:30:00 AM 23.87 74.966 0.217 7.02 511.4 6.51
8/13/2023 2:45:00 AM 23.97 75.146 0.218 7.02 622.9 6.62
8/13/2023 3:00:00 AM 23.88 74.984 0.217 7 494.1 6.67
8/13/2023 3:15:00 AM 23.81 74.858 0.215 6.99 616.5 6.69
8/13/2023 3:30:00 AM 23.8 74.84 0.215 6.97 409.7 6.7
8/13/2023 3:45:00 AM 23.8 74.84 0.215 6.96 527.4 6.7
8/13/2023 4:00:00 AM 23.8 74.84 0.215 6.97 935.5 6.7
8/13/2023 4:15:00 AM 23.78 74.804 0.216 6.94 1568 6.73
8/13/2023 4:30:00 AM 23.76 74.768 0.216 6.93 156.8 6.73
8/13/2023 4:45:00 AM 23.71 74.67799 0.215 6.93 252.9 6.71
8/13/2023 5:00:00 AM 23.65 74.57 0.214 6.99 283.4 6.7
8/13/2023 5:15:00 AM 23.56 74.408 0.211 6.99 189 6.71
8/13/2023 5:30:00 AM 23.47 74.246 0.207 6.98 219.1 6.7
8/13/2023 5:45:00 AM 23.37 74.066 0.205 6.98 213 6.68
8/13/2023 6:00:00 AM 23.28 73.904 0.203 6.98 260.1 6.69
8/13/2023 6:15:00 AM 23.21 73.778 0.202 6.98 282.1 6.68
8/13/2023 6:30:00 AM 23.15 73.67 0.201 6.97 270 6.66
8/13/2023 6:45:00 AM 23.11 73.598 0.201 6.97 260 6.65
8/13/2023 7:00:00 AM 23.07 73.526 0.202 6.93 311.5 6.67
8/13/2023 7:15:00 AM 23.03 73.454 0.203 6.92 391.8 6.65
8/13/2023 7:30:00 AM 22.98 73.364 0.204 6.92 560 6.63
8/13/2023 7:45:00 AM 22.93 73.274 0.205 6.97 442.9 6.61
8/13/2023 8:00:00 AM 22.87 73.166 0.205 6.97 298.8 6.61
8/13/2023 8:15:00 AM 22.84 73.112 0.204 6.97 414.7 6.59
8/13/2023 8:30:00 AM 22.81 73.058 0.203 6.98 561.7 6.58
8/13/2023 8:45:00 AM 22.79 73.022 0.202 6.94 411.7 6.59
8/13/2023 9:00:00 AM 22.79 73.022 0.202 6.96 689.8 6.61
8/13/2023 9:15:00 AM 22.82 73.076 0.201 6.96 420.2 6.63
8/13/2023 9:30:00 AM 22.85 73.13 0.201 6.98 753.2 6.66
8/13/2023 9:45:00 AM 22.91 73.238 0.202 6.93 681.9 6.7
8/13/2023 10:00:00 AM 22.98 73.364 0.203 6.98 708.8 6.73
8/13/2023 10:15:00 AM 23.06 73.508 0.204 6.94 507.5 6.76
8/13/2023 10:30:00 AM 23.14 73.652 0.206 7 457.8 6.79
8/13/2023 10:45:00 AM 23.25 73.85 0.208 6.94 501.6 6.81
8/13/2023 11:00:00 AM 23.36 74.048 0.21 6.96 496.8 6.82
8/13/2023 11:15:00 AM 23.47 74.246 0.211 6.97 456.2 6.83
8/13/2023 11:30:00 AM 23.59 74.462 0.212 6.96 558.5 6.84
8/13/2023 11:45:00 AM 23.73 74.714 0.213 7.02 285 6.84
8/13/2023 12:00:00 PM 23.84 74.912 0.261 7.02 477.1 6.88
8/13/2023 12:15:00 PM 23.97 75.146 0.216 6.98 489.9 6.94
8/13/2023 12:30:00 PM 24.07 75.326 0.215 6.98 1210 6.98
8/13/2023 12:45:00 PM 24.22 75.596 0.216 7 980.1 7.04
8/13/2023 1:00:00 PM 24.35 75.83 0.277 7.06 1414 7.09
8/13/2023 1:15:00 PM 24.48 76.064 0.216 7.08 544.4 7.13
8/13/2023 1:30:00 PM 24.58 76.244 0.259 7.08 766.7 7.19
8/13/2023 1:45:00 PM 24.7 76.46 0.217 7.1 306.6 7.27
8/13/2023 2:00:00 PM 24.77 76.586 0.222 7.1 583.1 7.31
8/13/2023 2:15:00 PM 24.71 76.478 0.217 7.11 936.4 7.32
8/13/2023 2:30:00 PM 24.8 76.64 0.227 7.14 825.4 7.39
8/13/2023 2:45:00 PM 24.79 76.622 0.271 7.11 388.6 7.38
8/13/2023 3:00:00 PM 24.78 76.604 0.238 7.12 795.5 7.41
8/13/2023 3:15:00 PM 24.82 76.676 0.212 7.13 519.4 7.43
8/13/2023 3:30:00 PM 24.85 76.73 0.223 7.14 421.6 7.46
8/13/2023 3:45:00 PM 24.84 76.712 0.211 7.14 401.9 7.46
8/13/2023 4:00:00 PM 24.85 76.73 0.21 7.14 454.6 7.48
8/13/2023 4:15:00 PM 24.84 76.712 0.21 7.14 470.3 7.49
8/13/2023 4:30:00 PM 24.83 76.694 0.21 7.16 415.7 7.52
8/13/2023 4:45:00 PM 24.77 76.586 0.226 7.13 496.8 7.51
8/13/2023 5:00:00 PM 24.75 76.55 0.217 7.14 558.4 7.52
8/13/2023 5:15:00 PM 24.68 76.424 0.22 7.15 529.2 7.51
8/13/2023 5:30:00 PM 24.63 76.334 0.215 7.13 514.9 7.5
8/13/2023 5:45:00 PM 24.52 76.136 0.232 7.13 365.1 7.47
8/13/2023 6:00:00 PM 24.46 76.028 0.209 7.11 390 7.43
8/13/2023 6:15:00 PM 24.41 75.938 0.208 7.11 329.6 7.4
8/13/2023 6:30:00 PM 24.36 75.848 0.246 7.11 413.8 7.38
8/13/2023 6:45:00 PM 24.32 75.776 0.207 7.11 529.9 7.35
8/13/2023 7:00:00 PM 24.29 75.722 0.206 7.09 583.2 7.32
8/13/2023 7:15:00 PM 24.27 75.686 0.208 7.09 376.4 7.28
8/13/2023 7:30:00 PM 24.24 75.632 0.204 7.09 386.8 7.24
8/13/2023 7:45:00 PM 24.21 75.578 0.203 7.08 406.9 7.21
8/13/2023 8:00:00 PM 24.18 75.524 0.202 7.07 380.2 7.15
8/13/2023 8:15:00 PM 24.15 75.47 0.201 7.07 529.9 7.13
8/13/2023 8:30:00 PM 24.12 75.416 0.2 7.07 406.1 7.1
8/13/2023 8:45:00 PM 24.09 75.362 0.199 7.07 955.5 7.06
8/13/2023 9:00:00 PM 24.05 75.29 0.198 7.06 653.4 7.03
8/13/2023 9:15:00 PM 24.01 75.218 0.197 7.05 766.8 7.01
8/13/2023 9:30:00 PM 23.98 75.164 0.196 7.04 935.8 6.99
8/13/2023 9:45:00 PM 23.94 75.092 0.195 7.04 800 6.97
8/13/2023 10:00:00 PM 23.9 75.02 0.194 7.04 1261 6.94
8/13/2023 10:15:00 PM 23.85 74.93 0.193 7.02 704 6.88
8/13/2023 10:30:00 PM 23.8 74.84 0.192 7.02 987.9 6.9
8/13/2023 10:45:00 PM 23.76 74.768 0.191 7.01 1140 6.88
8/13/2023 11:00:00 PM 23.72 74.696 0.191 7.01 1289 6.86
8/13/2023 11:15:00 PM 23.67 74.606 0.19 7 1557 6.86
8/13/2023 11:30:00 PM 23.63 74.534 0.189 7 1335 6.85
8/13/2023 11:45:00 PM 23.59 74.462 0.188 6.99 1139 6.84
8/14/2023 12:00:00 AM 23.55 74.39 0.187 6.99 1702 6.83
8/14/2023 12:15:00 AM 23.5 74.3 0.186 6.98 1722 6.81
8/14/2023 12:30:00 AM 23.46 74.228 0.185 6.98 943.1 6.8
8/14/2023 12:45:00 AM 23.41 74.138 0.185 6.97 1692 6.79
8/14/2023 1:00:00 AM 23.37 74.066 0.184 6.95 1709 6.79
8/14/2023 1:15:00 AM 23.33 73.994 0.183 6.96 1425 6.75
8/14/2023 1:30:00 AM 23.29 73.922 0.182 6.9 1569 6.74
8/14/2023 1:45:00 AM 23.24 73.832 0.182 6.89 1981 6.74
8/14/2023 2:00:00 AM 23.21 73.778 0.181 6.88 1152 6.73
8/14/2023 2:15:00 AM 23.17 73.706 0.181 6.87 1248 6.72
8/14/2023 2:30:00 AM 23.13 73.634 0.18 6.87 1411 6.74
8/14/2023 2:45:00 AM 23.09 73.562 0.18 6.86 232 6.73
8/14/2023 3:00:00 AM 23.05 73.49 0.179 6.86 257.9 6.73
8/14/2023 3:15:00 AM 23.01 73.418 0.179 6.85 93.02 6.74
8/14/2023 3:30:00 AM 22.98 73.364 0.178 6.85 838.5 6.74
8/14/2023 3:45:00 AM 22.94 73.292 0.178 6.88 1658 6.74
8/14/2023 4:00:00 AM 22.9 73.22 0.178 6.87 2194 6.74
8/14/2023 4:15:00 AM 22.86 73.148 0.178 6.88 2160 6.75
8/14/2023 4:30:00 AM 22.82 73.076 0.177 6.87 2176 6.75
8/14/2023 4:45:00 AM 22.79 73.022 0.177 6.86 2402 6.75
8/14/2023 5:00:00 AM 22.75 72.95 0.177 6.85 2063 6.73
8/14/2023 5:15:00 AM 22.71 72.878 0.176 6.86 1514 6.71
8/14/2023 5:30:00 AM 22.68 72.824 0.176 6.86 4101 6.72
8/14/2023 5:45:00 AM 22.64 72.752 0.176 6.83 2801 6.73
8/14/2023 6:00:00 AM 22.6 72.68 0.175 6.83 1941 6.74
8/14/2023 6:15:00 AM 22.57 72.626 0.175 6.83 1672 6.72
8/14/2023 6:30:00 AM 22.53 72.554 0.175 6.83 2143 6.73
8/14/2023 6:45:00 AM 22.51 72.518 0.174 6.83 1250 6.73
8/14/2023 7:00:00 AM 22.47 72.446 0.174 6.81 2152 6.73
8/14/2023 7:15:00 AM 22.44 72.392 0.174 6.81 2056 6.74
8/14/2023 7:30:00 AM 22.42 72.356 0.173 6.81 2499 6.74
8/14/2023 7:45:00 AM 22.39 72.302 0.173 6.8 2322 6.73
8/14/2023 8:00:00 AM 22.37 72.266 0.172 6.79 2548 6.75
8/14/2023 8:15:00 AM 22.35 72.23 0.172 6.8 1933 6.75
8/14/2023 8:30:00 AM 22.33 72.194 0.172 6.8 1958 6.75
8/14/2023 8:45:00 AM 22.32 72.176 0.172 6.75 2427 6.76
8/14/2023 9:00:00 AM 22.31 72.158 0.171 6.74 2209 6.77
8/14/2023 9:15:00 AM 22.31 72.158 0.171 6.77 2357 6.79
8/14/2023 9:30:00 AM 22.3 72.14 0.171 6.75 1925 6.81
8/14/2023 9:45:00 AM 22.29 72.122 0.17 6.75 2551 6.83
8/14/2023 10:00:00 AM 22.29 72.122 0.17 6.74 3065 6.85
8/14/2023 10:15:00 AM 22.28 72.104 0.17 6.74 2623 6.88
8/14/2023 10:30:00 AM 22.3 72.14 0.17 6.74 2957 6.91
8/14/2023 10:45:00 AM 22.33 72.194 0.169 6.76 2977 6.97
8/14/2023 11:00:00 AM 22.37 72.266 0.169 6.76 2642 7.01
8/14/2023 11:15:00 AM 22.41 72.338 0.169 6.75 2701 7.03
8/14/2023 11:30:00 AM 22.47 72.446 0.169 6.78 2508 7.1
8/14/2023 11:45:00 AM 22.54 72.57201 0.169 6.76 2549 7.17
8/14/2023 12:00:00 PM 22.67 72.806 0.169 6.78 2947 7.26
8/14/2023 12:15:00 PM 22.73 72.914 0.169 6.83 2632 7.31
8/14/2023 12:30:00 PM 22.79 73.022 0.169 6.82 3109 7.39
8/14/2023 12:45:00 PM 22.89 73.202 0.169 6.84 3169 7.46
8/14/2023 1:00:00 PM 23.03 73.454 0.169 6.86 2737 7.56
8/14/2023 1:15:00 PM 23.12 73.616 0.169 6.87 2941 7.66
8/14/2023 1:30:00 PM 23.19 73.742 0.169 6.88 2933 7.69
8/14/2023 1:45:00 PM 23.21 73.778 0.169 6.88 2789 7.72
8/14/2023 2:00:00 PM 23.26 73.868 0.169 6.9 2232 7.76
8/14/2023 2:15:00 PM 23.29 73.922 0.169 6.91 2830 7.78
8/14/2023 2:30:00 PM 23.3 73.94 0.169 6.91 3108 7.8
8/14/2023 2:45:00 PM 23.31 73.958 0.169 6.92 2387 7.81
8/14/2023 3:00:00 PM 23.32 73.976 0.169 6.93 1643 7.82
8/14/2023 3:15:00 PM 23.33 73.994 0.169 6.93 1472 7.83
8/14/2023 3:30:00 PM 23.34 74.012 0.169 6.9 1583 7.82
8/14/2023 3:45:00 PM 23.37 74.066 0.169 6.88 1858 7.83
8/14/2023 4:00:00 PM 23.41 74.138 0.169 6.88 1869 7.86
8/14/2023 4:15:00 PM 23.41 74.138 0.169 6.9 1743 7.85
8/14/2023 4:30:00 PM 23.42 74.156 0.169 6.93 1501 7.85
8/14/2023 4:45:00 PM 23.43 74.174 0.17 6.92 1794 7.83
8/14/2023 5:00:00 PM 23.43 74.174 0.17 6.93 2475 7.83
8/14/2023 5:15:00 PM 23.43 74.174 0.17 6.93 1761 7.83
8/14/2023 5:30:00 PM 23.43 74.174 0.17 6.94 1579 7.84
8/14/2023 5:45:00 PM 23.42 74.156 0.169 6.94 1973 7.82
8/14/2023 6:00:00 PM 23.42 74.156 0.169 6.93 1930 7.81
8/14/2023 6:15:00 PM 23.42 74.156 0.171 6.94 2102 7.8
8/14/2023 6:30:00 PM 23.41 74.138 0.169 6.95 2100 7.77
8/14/2023 6:45:00 PM 23.4 74.12 0.169 6.95 1817 7.77
8/14/2023 7:00:00 PM 23.39 74.102 0.169 6.94 1984 7.77
8/14/2023 7:15:00 PM 23.39 74.102 0.169 6.94 1886 7.74
8/14/2023 7:30:00 PM 23.38 74.084 0.169 6.94 1726 7.71
8/14/2023 7:45:00 PM 23.37 74.066 0.169 6.95 2218 7.68
8/14/2023 8:00:00 PM 23.35 74.03 0.168 6.94 2444 7.65
8/14/2023 8:15:00 PM 23.34 74.012 0.168 6.93 3062 7.63
8/14/2023 8:30:00 PM 23.3 73.94 0.168 6.93 2997 7.58
8/14/2023 8:45:00 PM 23.28 73.904 0.168 6.93 2626 7.55
8/14/2023 9:00:00 PM 23.24 73.832 0.168 6.92 1633 7.5
8/14/2023 9:15:00 PM 23.22 73.796 0.168 6.9 3070 7.5
8/14/2023 9:30:00 PM 23.19 73.742 0.168 6.91 2286 7.45
8/14/2023 9:45:00 PM 23.17 73.706 0.168 6.89 2597 7.42
8/14/2023 10:00:00 PM 23.15 73.67 0.168 6.89 1988 7.38
8/14/2023 10:15:00 PM 23.13 73.634 0.168 6.89 2010 7.35
8/14/2023 10:30:00 PM 23.11 73.598 0.169 6.88 1763 7.34
8/14/2023 10:45:00 PM 23.1 73.58 0.169 6.88 1711 7.31
8/14/2023 11:00:00 PM 23.08 73.544 0.169 6.87 1533 7.28
8/14/2023 11:15:00 PM 23.07 73.526 0.169 6.87 1721 7.27
8/14/2023 11:30:00 PM 23.05 73.49 0.169 6.87 1881 7.25
8/14/2023 11:45:00 PM 23.04 73.472 0.169 6.85 1840 7.23
8/15/2023 12:00:00 AM 23.03 73.454 0.169 6.86 1432 7.22
8/15/2023 12:15:00 AM 23.02 73.436 0.169 6.85 1332 7.19
8/15/2023 12:30:00 AM 23.01 73.418 0.168 6.85 1483 7.19
8/15/2023 12:45:00 AM 23 73.4 0.168 6.83 1221 7.17
8/15/2023 1:00:00 AM 22.98 73.364 0.167 6.85 1112 7.19
8/15/2023 1:15:00 AM 22.98 73.364 0.167 6.85 1227 7.18
8/15/2023 1:30:00 AM 22.95 73.31 0.162 6.86 1149 7.33
8/15/2023 1:45:00 AM 22.93 73.274 0.163 6.84 1303 7.28
8/15/2023 2:00:00 AM 22.93 73.274 0.164 6.84 1607 7.23
8/15/2023 2:15:00 AM 22.92 73.256 0.165 6.84 1521 7.23
8/15/2023 2:30:00 AM 22.9 73.22 0.166 6.83 1396 7.2
8/15/2023 2:45:00 AM 22.87 73.166 0.167 6.83 2069 7.18
8/15/2023 3:00:00 AM 22.84 73.112 0.168 6.83 1842 7.15
8/15/2023 3:15:00 AM 22.8 73.04 0.169 6.82 1527 7.15
8/15/2023 3:30:00 AM 22.78 73.004 0.169 6.83 1315 7.15
8/15/2023 3:45:00 AM 22.74 72.932 0.169 6.84 1365 7.16
8/15/2023 4:00:00 AM 22.71 72.878 0.168 6.84 1219 7.16
8/15/2023 4:15:00 AM 22.69 72.842 0.168 6.83 1942 7.16
8/15/2023 4:30:00 AM 22.68 72.824 0.168 6.84 1379 7.16
8/15/2023 4:45:00 AM 22.65 72.77 0.168 6.83 1551 7.17
8/15/2023 5:00:00 AM 22.61 72.698 0.168 6.85 1911 7.15
8/15/2023 5:15:00 AM 22.58 72.644 0.168 6.83 1335 7.16
8/15/2023 5:30:00 AM 22.56 72.608 0.168 6.84 1345 7.14
8/15/2023 5:45:00 AM 22.55 72.59 0.167 6.84 1886 7.14
8/15/2023 6:00:00 AM 22.54 72.57201 0.168 6.85 802.8 7.14
8/15/2023 6:15:00 AM 22.53 72.554 0.168 6.84 1292 7.11
8/15/2023 6:30:00 AM 22.51 72.518 0.168 6.84 1544 7.1
8/15/2023 6:45:00 AM 22.51 72.518 0.168 6.85 1154 7.09
8/15/2023 7:00:00 AM 22.51 72.518 0.168 6.84 1519 7.08
8/15/2023 7:15:00 AM 22.51 72.518 0.168 6.84 1413 7.07
8/15/2023 7:30:00 AM 22.51 72.518 0.169 6.84 1445 7.05
8/15/2023 7:45:00 AM 22.52 72.536 0.169 6.86 1753 7.05
8/15/2023 8:00:00 AM 22.52 72.536 0.17 6.87 1259 7.07
8/15/2023 8:15:00 AM 22.51 72.518 0.17 6.86 1879 7.06
8/15/2023 8:30:00 AM 22.51 72.518 0.171 6.86 1505 7.06
8/15/2023 8:45:00 AM 22.52 72.536 0.171 6.87 1401 7.05
8/15/2023 9:00:00 AM 22.52 72.536 0.173 6.88 1441 7.05
8/15/2023 9:15:00 AM 22.52 72.536 0.175 6.88 1160 7.06
8/15/2023 9:30:00 AM 22.51 72.518 0.177 6.88 1646 7.07
8/15/2023 9:45:00 AM 22.51 72.518 0.179 6.87 1833 7.08
8/15/2023 10:00:00 AM 22.52 72.536 0.179 6.89 1781 7.09
8/15/2023 10:15:00 AM 22.59 72.662 0.179 6.9 1224 7.14
8/15/2023 10:30:00 AM 22.65 72.77 0.179 6.91 2232 7.18
8/15/2023 10:45:00 AM 22.72 72.896 0.178 6.86 1714 7.21
8/15/2023 11:00:00 AM 22.82 73.076 0.176 6.87 2293 7.28
8/15/2023 11:15:00 AM 22.91 73.238 0.175 6.88 1462 7.31
8/15/2023 11:30:00 AM 23.01 73.418 0.174 6.89 1252 7.36
8/15/2023 11:45:00 AM 23.13 73.634 0.172 6.9 831.6 7.4
8/15/2023 12:00:00 PM 23.27 73.886 0.171 6.91 1284 7.45
8/15/2023 12:15:00 PM 23.39 74.102 0.171 6.92 1391 7.52
8/15/2023 12:30:00 PM 23.52 74.336 0.17 6.94 1348 7.58
8/15/2023 12:45:00 PM 23.76 74.768 0.169 6.97 1422 7.65
8/15/2023 1:00:00 PM 23.97 75.146 0.17 6.97 754.3 7.71
8/15/2023 1:15:00 PM 24.16 75.488 0.169 7 1046 7.79
8/15/2023 1:30:00 PM 24.27 75.686 0.17 7.02 975.6 7.82
8/15/2023 1:45:00 PM 24.42 75.956 0.17 7.01 1189 7.85
8/15/2023 2:00:00 PM 24.57 76.226 0.171 7.02 1031 7.91
8/15/2023 2:15:00 PM 24.69 76.442 0.171 7.03 1256 7.92
8/15/2023 2:30:00 PM 24.86 76.748 0.172 7.06 1716 7.99
8/15/2023 2:45:00 PM 24.94 76.892 0.173 7.07 1185 8.03
8/15/2023 3:00:00 PM 24.99 76.982 0.174 7.11 2300 8.03
8/15/2023 3:15:00 PM 24.89 76.802 0.174 7.1 1307 8.02
8/15/2023 3:30:00 PM 24.87 76.766 0.175 7.1 1032 8.01
8/15/2023 3:45:00 PM 24.87 76.766 0.175 7.12 1664 8.02
8/15/2023 4:00:00 PM 24.95 76.91 0.176 7.12 1552 8.05
8/15/2023 4:15:00 PM 24.99 76.982 0.177 7.14 1516 8.03
8/15/2023 4:30:00 PM 25.01 77.018 0.178 7.15 1198 8.01
8/15/2023 4:45:00 PM 24.96 76.92799 0.178 7.16 1374 8
8/15/2023 5:00:00 PM 24.9 76.82 0.179 7.16 1220 7.98
8/15/2023 5:15:00 PM 24.86 76.748 0.179 7.16 2016 7.95
8/15/2023 5:30:00 PM 24.8 76.64 0.179 7.16 1673 7.92
8/15/2023 5:45:00 PM 24.74 76.532 0.179 7.14 1476 7.9
8/15/2023 6:00:00 PM 24.69 76.442 0.179 7.15 1443 7.88
8/15/2023 6:15:00 PM 24.63 76.334 0.179 7.15 2440 7.86
8/15/2023 6:30:00 PM 24.58 76.244 0.178 7.16 1239 7.81
8/15/2023 6:45:00 PM 24.53 76.154 0.178 7.15 1412 7.77
8/15/2023 7:00:00 PM 24.48 76.064 0.178 7.16 1098 7.73
8/15/2023 7:15:00 PM 24.44 75.992 0.179 7.15 1660 7.7
8/15/2023 7:30:00 PM 24.39 75.902 0.179 7.15 1187 7.66
8/15/2023 7:45:00 PM 24.36 75.848 0.179 7.13 2336 7.63
8/15/2023 8:00:00 PM 24.32 75.776 0.18 7.11 1036 7.61
8/15/2023 8:15:00 PM 24.29 75.722 0.18 7.11 1092 7.59
8/15/2023 8:30:00 PM 24.27 75.686 0.18 7.06 909.6 7.58
8/15/2023 8:45:00 PM 24.26 75.668 0.18 7.06 845.5 7.58
8/15/2023 9:00:00 PM 24.25 75.65 0.181 7.1 1836 7.58
8/15/2023 9:15:00 PM 24.23 75.614 0.181 7.1 1359 7.57
8/15/2023 9:30:00 PM 24.22 75.596 0.182 7.09 1191 7.59
8/15/2023 9:45:00 PM 24.19 75.542 0.183 7.1 601.4 7.56
8/15/2023 10:00:00 PM 24.15 75.47 0.184 7.1 1205 7.54
8/15/2023 10:15:00 PM 24.11 75.398 0.185 7.09 1499 7.54
8/15/2023 10:30:00 PM 24.06 75.308 0.186 7.09 2065 7.49
8/15/2023 10:45:00 PM 24 75.2 0.183 7.09 1993 7.48
8/15/2023 11:00:00 PM 23.93 75.074 0.185 7.09 1372 7.46
8/15/2023 11:15:00 PM 23.87 74.966 0.184 7.08 2345 7.43
8/15/2023 11:30:00 PM 23.79 74.82201 0.183 7.08 2105 7.4
8/15/2023 11:45:00 PM 23.72 74.696 0.181 7.06 2423 7.38
8/16/2023 12:00:00 AM 23.65 74.57 0.18 7.06 1945 7.37
8/16/2023 12:15:00 AM 23.58 74.444 0.178 7.05 2161 7.33
8/16/2023 12:30:00 AM 23.53 74.354 0.178 7.03 1756 7.32
8/16/2023 12:45:00 AM 23.47 74.246 0.177 7.03 1536 7.31
8/16/2023 1:00:00 AM 23.42 74.156 0.176 7.02 1809 7.29
8/16/2023 1:15:00 AM 23.37 74.066 0.175 7 1544 7.27
8/16/2023 1:30:00 AM 23.32 73.976 0.175 6.99 2745 7.26
8/16/2023 1:45:00 AM 23.28 73.904 0.175 6.99 2810 7.25
8/16/2023 2:00:00 AM 23.23 73.814 0.175 6.99 1829 7.25
8/16/2023 2:15:00 AM 23.18 73.724 0.174 6.98 1595 7.23
8/16/2023 2:30:00 AM 23.14 73.652 0.175 6.95 2064 7.23
8/16/2023 2:45:00 AM 23.1 73.58 0.175 6.96 2720 7.22
8/16/2023 3:00:00 AM 23.06 73.508 0.174 6.94 1502 7.22
8/16/2023 3:15:00 AM 23.02 73.436 0.174 6.93 2710 7.2
8/16/2023 3:30:00 AM 22.97 73.346 0.174 6.93 1848 7.21
8/16/2023 3:45:00 AM 22.93 73.274 0.174 6.92 1226 7.13
8/16/2023 4:00:00 AM 22.89 73.202 0.174 6.93 582.4 7.19
8/16/2023 4:15:00 AM 22.84 73.112 0.173 6.9 2438 7.18
8/16/2023 4:30:00 AM 22.8 73.04 0.173 6.9 1668 7.17
8/16/2023 4:45:00 AM 22.75 72.95 0.173 6.9 3120 7.17
8/16/2023 5:00:00 AM 22.71 72.878 0.173 6.88 3272 7.15
8/16/2023 5:15:00 AM 22.66 72.788 0.173 6.89 1701 7.16
8/16/2023 5:30:00 AM 22.62 72.716 0.173 6.88 1987 7.13
8/16/2023 5:45:00 AM 22.57 72.626 0.172 6.87 2365 7.14
8/16/2023 6:00:00 AM 22.53 72.554 0.172 6.88 2408 7.12
8/16/2023 6:15:00 AM 22.48 72.464 0.172 6.87 1706 7.11
8/16/2023 6:30:00 AM 22.44 72.392 0.172 6.87 1604 7.12
8/16/2023 6:45:00 AM 22.4 72.32 0.172 6.85 2004 7.08
8/16/2023 7:00:00 AM 22.36 72.248 0.172 6.84 2568 7.1
8/16/2023 7:15:00 AM 22.33 72.194 0.172 6.83 2075 7.09
8/16/2023 7:30:00 AM 22.3 72.14 0.171 6.83 2485 7.07
8/16/2023 7:45:00 AM 22.27 72.086 0.172 6.83 1973 7.08
8/16/2023 8:00:00 AM 22.25 72.05 0.172 6.84 2101 7.07
8/16/2023 8:15:00 AM 22.23 72.014 0.172 6.82 1794 7.09
8/16/2023 8:30:00 AM 22.21 71.978 0.171 6.82 858.4 7.09
8/16/2023 8:45:00 AM 22.2 71.96 0.17 6.8 2003 7.08
8/16/2023 9:00:00 AM 22.19 71.942 0.17 6.8 1248 7.08
8/16/2023 9:15:00 AM 22.19 71.942 0.173 6.8 1080 7.1
8/16/2023 9:30:00 AM 22.19 71.942 0.17 6.79 1976 7.11
8/16/2023 9:45:00 AM 22.2 71.96 0.17 6.8 2656 7.12
8/16/2023 10:00:00 AM 22.22 71.996 0.169 6.8 1629 7.13
8/16/2023 10:15:00 AM 22.25 72.05 0.17 6.81 1512 7.14
8/16/2023 10:30:00 AM 22.28 72.104 0.174 6.8 1659 7.15
8/16/2023 10:45:00 AM 22.34 72.212 0.169 6.81 1501 7.16
8/16/2023 11:00:00 AM 22.42 72.356 0.169 6.81 1658 7.19
8/16/2023 11:15:00 AM 22.49 72.482 0.168 6.82 1982 7.2
8/16/2023 11:30:00 AM 22.55 72.59 0.168 6.82 1852 7.2
8/16/2023 11:45:00 AM 22.63 72.734 0.17 6.82 1769 7.22
8/16/2023 12:00:00 PM 22.69 72.842 0.168 6.83 1846 7.24
8/16/2023 12:15:00 PM 22.78 73.004 0.168 6.84 2248 7.25
8/16/2023 12:30:00 PM 22.87 73.166 0.167 6.84 2482 7.25
8/16/2023 12:45:00 PM 22.95 73.31 0.167 6.84 2383 7.26
8/16/2023 1:00:00 PM 23.11 73.598 0.167 6.85 1530 7.27
8/16/2023 1:15:00 PM 23.16 73.688 0.185 6.85 1358 7.27
8/16/2023 1:30:00 PM 23.2 73.76 0.167 6.85 1570 7.28
8/16/2023 1:45:00 PM 23.26 73.868 0.183 6.84 1248 7.29
8/16/2023 2:00:00 PM 23.36 74.048 0.178 6.85 1816 7.31
8/16/2023 2:15:00 PM 23.56 74.408 0.168 6.87 1367 7.34
8/16/2023 2:30:00 PM 23.66 74.588 0.168 6.88 1321 7.34
8/16/2023 2:45:00 PM 23.6 74.48 0.167 6.89 1637 7.34
8/16/2023 3:00:00 PM 23.63 74.534 0.168 6.89 1660 7.34
8/16/2023 3:15:00 PM 23.75 74.75 0.168 6.88 1832 7.39
8/16/2023 3:30:00 PM 23.71 74.67799 0.168 6.9 2616 7.39
8/16/2023 3:45:00 PM 23.66 74.588 0.168 6.89 2354 7.37
8/16/2023 4:00:00 PM 23.63 74.534 0.168 6.88 2422 7.37
8/16/2023 4:15:00 PM 23.62 74.516 0.168 6.88 1246 7.4
8/16/2023 4:30:00 PM 23.62 74.516 0.168 6.89 1823 7.41
8/16/2023 4:45:00 PM 23.63 74.534 0.168 6.9 1867 7.41
8/16/2023 5:00:00 PM 23.63 74.534 0.168 6.9 1863 7.41
8/16/2023 5:15:00 PM 23.63 74.534 0.178 6.91 1350 7.41
8/16/2023 5:30:00 PM 23.63 74.534 0.167 6.92 1882 7.42
8/16/2023 5:45:00 PM 23.63 74.534 0.17 6.93 1873 7.44
8/16/2023 6:00:00 PM 23.63 74.534 0.173 6.93 1237 7.44
8/16/2023 6:15:00 PM 23.63 74.534 0.167 6.94 1498 7.44
8/16/2023 6:30:00 PM 23.64 74.552 0.166 6.93 1938 7.44
8/16/2023 6:45:00 PM 23.64 74.552 0.166 6.93 1089 7.44
8/16/2023 7:00:00 PM 23.64 74.552 0.166 6.94 2216 7.44
8/16/2023 7:15:00 PM 23.64 74.552 0.165 6.93 1598 7.45
8/16/2023 7:30:00 PM 23.63 74.534 0.165 6.93 1312 7.45
8/16/2023 7:45:00 PM 23.62 74.516 0.165 6.92 1850 7.43
8/16/2023 8:00:00 PM 23.61 74.498 0.164 6.92 1719 7.43
8/16/2023 8:15:00 PM 23.59 74.462 0.164 6.92 2081 7.43
8/16/2023 8:30:00 PM 23.58 74.444 0.164 6.92 1929 7.41
8/16/2023 8:45:00 PM 23.57 74.426 0.163 6.92 1603 7.42
8/16/2023 9:00:00 PM 23.55 74.39 0.163 6.91 1963 7.41
8/16/2023 9:15:00 PM 23.53 74.354 0.162 6.91 2064 7.4
8/16/2023 9:30:00 PM 23.49 74.282 0.162 6.9 1829 7.4
8/16/2023 9:45:00 PM 23.46 74.228 0.162 6.9 1848 7.39
8/16/2023 10:00:00 PM 23.43 74.174 0.162 6.9 1535 7.38
8/16/2023 10:15:00 PM 23.4 74.12 0.161 6.89 1381 7.37
8/16/2023 10:30:00 PM 23.36 74.048 0.161 6.9 1568 7.39
8/16/2023 10:45:00 PM 23.32 73.976 0.161 6.88 1620 7.37
8/16/2023 11:00:00 PM 23.29 73.922 0.16 6.9 1329 7.37
8/16/2023 11:15:00 PM 23.25 73.85 0.161 6.89 2230 7.36
8/16/2023 11:30:00 PM 23.21 73.778 0.159 6.88 1320 7.36
8/16/2023 11:45:00 PM 23.17 73.706 0.16 6.88 1451 7.35
8/17/2023 12:00:00 AM 23.14 73.652 0.159 6.87 1411 7.34
8/17/2023 12:15:00 AM 23.1 73.58 0.159 6.86 2640 7.34
8/17/2023 12:30:00 AM 23.07 73.526 0.159 6.86 1018 7.34
8/17/2023 12:45:00 AM 23.04 73.472 0.159 6.86 1975 7.34
8/17/2023 1:00:00 AM 23.01 73.418 0.158 6.86 2196 7.32
8/17/2023 1:15:00 AM 22.97 73.346 0.158 6.86 2335 7.32
8/17/2023 1:30:00 AM 22.93 73.274 0.158 6.85 1796 7.3
8/17/2023 1:45:00 AM 22.9 73.22 0.158 6.85 1981 7.29
8/17/2023 2:00:00 AM 22.87 73.166 0.158 6.84 2208 7.29
8/17/2023 2:15:00 AM 22.83 73.094 0.157 6.85 1703 7.28
8/17/2023 2:30:00 AM 22.79 73.022 0.158 6.85 2043 7.26
8/17/2023 2:45:00 AM 22.75 72.95 0.157 6.84 1990 7.26
8/17/2023 3:00:00 AM 22.71 72.878 0.157 6.84 2239 7.25
8/17/2023 3:15:00 AM 22.68 72.824 0.157 6.83 2333 7.24
8/17/2023 3:30:00 AM 22.63 72.734 0.156 6.83 2147 7.23
8/17/2023 3:45:00 AM 22.59 72.662 0.156 6.77 1934 7.25
8/17/2023 4:00:00 AM 22.54 72.57201 0.156 6.76 2483 7.23
8/17/2023 4:15:00 AM 22.5 72.5 0.156 6.76 1708 7.23
8/17/2023 4:30:00 AM 22.45 72.41 0.156 6.76 2208 7.22
8/17/2023 4:45:00 AM 22.41 72.338 0.156 6.76 2539 7.2
8/17/2023 5:00:00 AM 22.36 72.248 0.156 6.75 2690 7.21
8/17/2023 5:15:00 AM 22.3 72.14 0.156 6.75 2023 7.2
8/17/2023 5:30:00 AM 22.26 72.068 0.155 6.74 2107 7.2
8/17/2023 5:45:00 AM 22.21 71.978 0.155 6.75 2340 7.2
8/17/2023 6:00:00 AM 22.17 71.906 0.155 6.75 2427 7.21
8/17/2023 6:15:00 AM 22.12 71.816 0.155 6.73 2025 7.19
8/17/2023 6:30:00 AM 22.07 71.726 0.155 6.74 2296 7.22
8/17/2023 6:45:00 AM 22.04 71.672 0.155 6.74 2071 7.23
8/17/2023 7:00:00 AM 22 71.6 0.155 6.73 1999 7.21
8/17/2023 7:15:00 AM 21.97 71.546 0.155 6.72 1954 7.22
8/17/2023 7:30:00 AM 21.94 71.492 0.155 6.7 2030 7.08
8/17/2023 7:45:00 AM 21.92 71.456 0.155 6.68 2522 7.2
8/17/2023 8:00:00 AM 21.9 71.42 0.155 6.71 2523 7.21
8/17/2023 8:15:00 AM 21.88 71.384 0.155 6.69 2318 7.23
8/17/2023 8:30:00 AM 21.87 71.366 0.155 6.69 2201 7.24
8/17/2023 8:45:00 AM 21.86 71.348 0.155 6.74 2323 7.26
8/17/2023 9:00:00 AM 21.86 71.348 0.155 6.75 2376 7.28
8/17/2023 9:15:00 AM 21.85 71.33 0.155 6.74 2676 7.3
8/17/2023 9:30:00 AM 21.85 71.33 0.155 6.75 2279 7.3
8/17/2023 9:45:00 AM 21.86 71.348 0.155 6.74 2210 7.32
8/17/2023 10:00:00 AM 21.88 71.384 0.155 6.74 2418 7.36
8/17/2023 10:15:00 AM 21.94 71.492 0.155 6.74 2203 7.39
8/17/2023 10:30:00 AM 22.01 71.618 0.155 6.75 2266 7.45
8/17/2023 10:45:00 AM 22.1 71.78 0.155 6.75 2509 7.49
8/17/2023 11:00:00 AM 22.17 71.906 0.155 6.77 2661 7.54
8/17/2023 11:15:00 AM 22.25 72.05 0.155 6.77 2374 7.6
8/17/2023 11:30:00 AM 22.35 72.23 0.156 6.77 2272 7.65
8/17/2023 11:45:00 AM 22.42 72.356 0.156 6.78 2449 7.69
8/17/2023 12:00:00 PM 22.53 72.554 0.156 6.74 2661 7.74
8/17/2023 12:15:00 PM 22.59 72.662 0.156 6.75 2616 7.79
8/17/2023 12:30:00 PM 22.67 72.806 0.156 6.82 2400 7.83
8/17/2023 12:45:00 PM 22.86 73.148 0.156 6.83 2608 7.92
8/17/2023 1:00:00 PM 23.05 73.49 0.156 6.82 2482 7.98
8/17/2023 1:15:00 PM 23.24 73.832 0.157 6.8 2826 8.04
8/17/2023 1:30:00 PM 23.43 74.174 0.157 6.84 2355 8.07
8/17/2023 1:45:00 PM 23.44 74.192 0.157 6.86 2685 8.1
8/17/2023 2:00:00 PM 23.67 74.606 0.157 6.88 2718 8.16
8/17/2023 2:15:00 PM 23.84 74.912 0.157 6.89 2841 8.22
8/17/2023 2:30:00 PM 23.89 75.002 0.157 6.91 2571 8.19
8/17/2023 2:45:00 PM 23.98 75.164 0.157 6.9 2689 8.28
8/17/2023 3:00:00 PM 23.99 75.182 0.157 6.93 1975 8.29
8/17/2023 3:15:00 PM 23.98 75.164 0.157 6.94 2042 8.24
8/17/2023 3:30:00 PM 24.12 75.416 0.157 6.94 2115 8.31
8/17/2023 3:45:00 PM 24.11 75.398 0.157 6.95 2100 8.27
8/17/2023 4:00:00 PM 24.2 75.56 0.158 6.99 2241 8.3
8/17/2023 4:15:00 PM 24.24 75.632 0.158 7 2409 8.32
8/17/2023 4:30:00 PM 24.25 75.65 0.158 7.02 2397 8.32
8/17/2023 4:45:00 PM 24.24 75.632 0.158 7.03 2425 8.31
8/17/2023 5:00:00 PM 24.24 75.632 0.158 7 2362 8.3
8/17/2023 5:15:00 PM 24.18 75.524 0.158 7.02 2495 8.29
8/17/2023 5:30:00 PM 24.11 75.398 0.159 7.03 1704 8.23
8/17/2023 5:45:00 PM 24.08 75.344 0.159 7.02 2948 8.23
8/17/2023 6:00:00 PM 24.03 75.254 0.159 7.04 2944 8.19
8/17/2023 6:15:00 PM 24.01 75.218 0.159 7.05 2932 8.2
8/17/2023 6:30:00 PM 23.96 75.128 0.159 7.02 2997 8.17
8/17/2023 6:45:00 PM 23.94 75.092 0.16 7.04 3029 8.16
8/17/2023 7:00:00 PM 23.92 75.056 0.16 7.03 3029 8.13
8/17/2023 7:15:00 PM 23.91 75.038 0.16 7.03 3012 8.11
8/17/2023 7:30:00 PM 23.89 75.002 0.16 7.03 3061 8.06
8/17/2023 7:45:00 PM 23.87 74.966 0.16 7.02 3057 8.03
8/17/2023 8:00:00 PM 23.85 74.93 0.16 7.03 3015 7.98
8/17/2023 8:15:00 PM 23.84 74.912 0.161 7.01 3060 7.95
8/17/2023 8:30:00 PM 23.82 74.876 0.161 7 2985 7.93
8/17/2023 8:45:00 PM 23.81 74.858 0.161 6.99 3025 7.87
8/17/2023 9:00:00 PM 23.8 74.84 0.16 6.99 3018 7.83
8/17/2023 9:15:00 PM 23.78 74.804 0.161 6.98 2957 7.81
8/17/2023 9:30:00 PM 23.76 74.768 0.161 6.98 3021 7.77
8/17/2023 9:45:00 PM 23.75 74.75 0.161 6.97 3008 7.73
8/17/2023 10:00:00 PM 23.75 74.75 0.161 6.97 3019 7.71
8/17/2023 10:15:00 PM 23.73 74.714 0.161 6.96 3034 7.68
8/17/2023 10:30:00 PM 23.74 74.732 0.161 6.97 3007 7.66
8/17/2023 10:45:00 PM 23.72 74.696 0.161 6.96 2990 7.63
8/17/2023 11:00:00 PM 23.73 74.714 0.161 6.94 2999 7.61
8/17/2023 11:15:00 PM 23.72 74.696 0.161 6.94 2927 7.57
8/17/2023 11:30:00 PM 23.72 74.696 0.161 6.94 3014 7.54
8/17/2023 11:45:00 PM 23.71 74.67799 0.161 6.95 3012 7.51
8/18/2023 12:00:00 AM 23.7 74.66 0.162 6.94 2938 7.5
8/18/2023 12:15:00 AM 23.7 74.66 0.162 6.94 2883 7.47
8/18/2023 12:30:00 AM 23.69 74.642 0.162 6.93 2933 7.47
8/18/2023 12:45:00 AM 23.68 74.624 0.162 6.92 2924 7.45
8/18/2023 1:00:00 AM 23.66 74.588 0.162 6.91 2866 7.44
8/18/2023 1:15:00 AM 23.65 74.57 0.163 6.91 2897 7.4
8/18/2023 1:30:00 AM 23.64 74.552 0.163 6.92 2919 7.39
8/18/2023 1:45:00 AM 23.62 74.516 0.163 6.92 2897 7.36
8/18/2023 2:00:00 AM 23.59 74.462 0.163 6.89 2884 7.36
8/18/2023 2:15:00 AM 23.57 74.426 0.163 6.88 2891 7.33
8/18/2023 2:30:00 AM 23.54 74.372 0.164 6.89 2835 7.3
8/18/2023 2:45:00 AM 23.52 74.336 0.163 6.89 2761 7.31
8/18/2023 3:00:00 AM 23.5 74.3 0.164 6.87 2832 7.28
8/18/2023 3:15:00 AM 23.48 74.264 0.164 6.87 2834 7.26
8/18/2023 3:30:00 AM 23.46 74.228 0.164 6.87 2776 7.27
8/18/2023 3:45:00 AM 23.38 74.084 0.162 6.87 2650 7.32
8/18/2023 4:00:00 AM 23.3 73.94 0.162 6.87 2708 7.31
8/18/2023 4:15:00 AM 23.27 73.886 0.163 6.87 2695 7.27
8/18/2023 4:30:00 AM 23.25 73.85 0.163 6.87 2590 7.25
8/18/2023 4:45:00 AM 23.2 73.76 0.163 6.85 1900 7.22
8/18/2023 5:00:00 AM 23.15 73.67 0.164 6.87 1959 7.21
8/18/2023 5:15:00 AM 23.11 73.598 0.164 6.85 1824 7.2
8/18/2023 5:30:00 AM 23.05 73.49 0.164 6.84 1930 7.17
8/18/2023 5:45:00 AM 23 73.4 0.164 6.85 1995 7.16
8/18/2023 6:00:00 AM 22.94 73.292 0.165 6.83 1934 7.15
8/18/2023 6:15:00 AM 22.89 73.202 0.165 6.83 1861 7.13
8/18/2023 6:30:00 AM 22.82 73.076 0.166 6.83 1827 7.14
8/18/2023 6:45:00 AM 22.76 72.968 0.167 6.84 1818 7.14
8/18/2023 7:00:00 AM 22.72 72.896 0.167 6.84 1820 7.16
8/18/2023 7:15:00 AM 22.66 72.788 0.167 6.83 1829 7.16
8/18/2023 7:30:00 AM 22.61 72.698 0.168 6.83 1635 7.17
8/18/2023 7:45:00 AM 22.57 72.626 0.168 6.84 1711 7.19
8/18/2023 8:00:00 AM 22.52 72.536 0.168 6.87 1683 7.19
8/18/2023 8:15:00 AM 22.5 72.5 0.168 6.85 1708 7.2
8/18/2023 8:30:00 AM 22.49 72.482 0.168 6.86 1735 7.24
8/18/2023 8:45:00 AM 22.48 72.464 0.167 6.86 1678 7.22
8/18/2023 9:00:00 AM 22.47 72.446 0.167 6.87 1643 7.25
8/18/2023 9:15:00 AM 22.46 72.42799 0.167 6.87 1703 7.26
8/18/2023 9:30:00 AM 22.44 72.392 0.167 6.87 1530 7.29
8/18/2023 9:45:00 AM 22.46 72.42799 0.166 6.87 1503 7.32
8/18/2023 10:00:00 AM 22.5 72.5 0.166 6.86 1452 7.36
8/18/2023 10:15:00 AM 22.55 72.59 0.167 6.87 1936 7.36
8/18/2023 10:30:00 AM 22.6 72.68 0.168 6.88 1475 7.42
8/18/2023 10:45:00 AM 22.7 72.86 0.168 6.88 1471 7.52
8/18/2023 11:00:00 AM 22.82 73.076 0.169 6.89 1279 7.58
8/18/2023 11:15:00 AM 22.89 73.202 0.168 6.9 1242 7.64
8/18/2023 11:30:00 AM 22.98 73.364 0.169 6.9 1228 7.69
8/18/2023 11:45:00 AM 23.04 73.472 0.17 6.91 1222 7.74
8/18/2023 12:00:00 PM 23.21 73.778 0.171 6.94 1231 7.82
8/18/2023 12:15:00 PM 23.31 73.958 0.172 6.94 1237 7.88
8/18/2023 12:30:00 PM 23.49 74.282 0.172 6.95 1231 7.96
8/18/2023 12:45:00 PM 23.69 74.642 0.172 6.98 1229 8.05
8/18/2023 1:00:00 PM 23.75 74.75 0.174 7 1144 8.11
8/18/2023 1:15:00 PM 23.96 75.128 0.174 7.02 1233 8.22
8/18/2023 1:30:00 PM 24.16 75.488 0.175 7.03 1199 8.28
8/18/2023 1:45:00 PM 24.3 75.74 0.176 7.05 1259 8.36
8/18/2023 2:00:00 PM 24.49 76.082 0.176 7.06 1179 8.41
8/18/2023 2:15:00 PM 24.59 76.262 0.176 7.08 1183 8.44
8/18/2023 2:30:00 PM 24.66 76.388 0.176 7.09 1197 8.5
8/18/2023 2:45:00 PM 24.81 76.658 0.176 7.11 1190 8.57
8/18/2023 3:00:00 PM 24.91 76.838 0.176 7.12 1280 8.62
8/18/2023 3:15:00 PM 25.05 77.09 0.176 7.15 1248 8.67
8/18/2023 3:30:00 PM 25.05 77.09 0.176 7.16 1151 8.68
8/18/2023 3:45:00 PM 25 77 0.176 7.16 1135 8.66
8/18/2023 4:00:00 PM 25.02 77.036 0.176 7.18 1120 8.67
8/18/2023 4:15:00 PM 25 77 0.176 7.2 1162 8.69
8/18/2023 4:30:00 PM 24.94 76.892 0.176 7.21 1094 8.66
8/18/2023 4:45:00 PM 24.86 76.748 0.175 7.19 1153 8.64
8/18/2023 5:00:00 PM 24.81 76.658 0.176 7.2 1151 8.62
8/18/2023 5:15:00 PM 24.74 76.532 0.176 7.18 1122 8.6
8/18/2023 5:30:00 PM 24.67 76.406 0.176 7.2 1183 8.57
8/18/2023 5:45:00 PM 24.54 76.172 0.176 7.18 1224 8.53
8/18/2023 6:00:00 PM 24.42 75.956 0.176 7.18 996.4 8.48
8/18/2023 6:15:00 PM 24.26 75.668 0.176 7.18 1034 8.43
8/18/2023 6:30:00 PM 24.13 75.434 0.177 7.18 983.9 8.38
8/18/2023 6:45:00 PM 24.02 75.236 0.177 7.16 969.7 8.34
8/18/2023 7:00:00 PM 23.92 75.056 0.177 7.17 1028 8.31
8/18/2023 7:15:00 PM 23.82 74.876 0.177 7.16 1040 8.27
8/18/2023 7:30:00 PM 23.74 74.732 0.178 7.17 983.7 8.22
8/18/2023 7:45:00 PM 23.69 74.642 0.178 7.14 1007 8.19
8/18/2023 8:00:00 PM 23.63 74.534 0.178 7.15 1097 8.16
8/18/2023 8:15:00 PM 23.59 74.462 0.178 7.13 1147 8.12
8/18/2023 8:30:00 PM 23.54 74.372 0.178 7.12 1000 8.08
8/18/2023 8:45:00 PM 23.51 74.318 0.178 7.12 1005 8.05
8/18/2023 9:00:00 PM 23.48 74.264 0.179 7.11 980.8 8.03
8/18/2023 9:15:00 PM 23.46 74.228 0.179 7.1 1019 8
8/18/2023 9:30:00 PM 23.42 74.156 0.18 7.09 1089 7.99
8/18/2023 9:45:00 PM 23.41 74.138 0.181 7.07 1128 7.95
8/18/2023 10:00:00 PM 23.35 74.03 0.182 7.07 1063 7.92
8/18/2023 10:15:00 PM 23.3 73.94 0.184 7.07 1295 7.9
8/18/2023 10:30:00 PM 23.26 73.868 0.186 7.07 1272 7.87
8/18/2023 10:45:00 PM 23.19 73.742 0.188 7.09 1356 7.87
8/18/2023 11:00:00 PM 23.12 73.616 0.19 7.05 1289 7.84
8/18/2023 11:15:00 PM 23.05 73.49 0.193 7.06 1324 7.8
8/18/2023 11:30:00 PM 22.98 73.364 0.197 7.06 1198 7.78
8/18/2023 11:45:00 PM 22.9 73.22 0.2 7.05 1240 7.72
8/19/2023 12:00:00 AM 22.83 73.094 0.204 7.07 1212 7.71
8/19/2023 12:15:00 AM 22.75 72.95 0.208 7.06 1137 7.68
8/19/2023 12:30:00 AM 22.67 72.806 0.212 7.06 1198 7.66
8/19/2023 12:45:00 AM 22.6 72.68 0.215 7.07 1200 7.64
8/19/2023 1:00:00 AM 22.52 72.536 0.218 7.07 1047 7.62
8/19/2023 1:15:00 AM 22.46 72.42799 0.22 7.08 1042 7.6
8/19/2023 1:30:00 AM 22.41 72.338 0.222 7.09 1091 7.59
8/19/2023 1:45:00 AM 22.35 72.23 0.223 7.09 1154 7.56
8/19/2023 2:00:00 AM 22.28 72.104 0.223 7.07 1146 7.55
8/19/2023 2:15:00 AM 22.21 71.978 0.223 7.07 1016 7.54
8/19/2023 2:30:00 AM 22.16 71.888 0.222 7.06 1352 7.52
8/19/2023 2:45:00 AM 22.1 71.78 0.221 7.08 1317 7.5
8/19/2023 3:00:00 AM 22.04 71.672 0.22 7.07 1307 7.49
8/19/2023 3:15:00 AM 21.97 71.546 0.218 7.06 1266 7.48
8/19/2023 3:30:00 AM 21.9 71.42 0.216 7.07 1256 7.46
8/19/2023 3:45:00 AM 21.84 71.312 0.214 7.06 1402 7.45
8/19/2023 4:00:00 AM 21.78 71.204 0.212 7.05 1510 7.44
8/19/2023 4:15:00 AM 21.71 71.078 0.209 7.04 1378 7.44
8/19/2023 4:30:00 AM 21.65 70.97 0.207 7.03 1582 7.42
8/19/2023 4:45:00 AM 21.59 70.862 0.205 7.03 1570 7.41
8/19/2023 5:00:00 AM 21.52 70.736 0.202 7.01 1594 7.4
8/19/2023 5:15:00 AM 21.46 70.628 0.2 7.01 1516 7.4
8/19/2023 5:30:00 AM 21.39 70.502 0.198 6.98 1489 7.39
8/19/2023 5:45:00 AM 21.32 70.376 0.196 6.98 1451 7.38
8/19/2023 6:00:00 AM 21.25 70.25 0.194 6.97 1403 7.37
8/19/2023 6:15:00 AM 21.19 70.142 0.191 6.94 1343 7.37
8/19/2023 6:30:00 AM 21.13 70.034 0.19 6.96 1531 7.38
8/19/2023 6:45:00 AM 21.06 69.908 0.188 6.93 1467 7.38
8/19/2023 7:00:00 AM 21 69.8 0.186 6.92 1466 7.38
8/19/2023 7:15:00 AM 20.94 69.692 0.185 6.91 1364 7.38
8/19/2023 7:30:00 AM 20.88 69.584 0.183 6.89 1373 7.37
8/19/2023 7:45:00 AM 20.83 69.494 0.182 6.88 1454 7.36
8/19/2023 8:00:00 AM 20.78 69.404 0.181 6.87 1525 7.38
8/19/2023 8:15:00 AM 20.73 69.314 0.181 6.87 1525 7.37
8/19/2023 8:30:00 AM 20.69 69.242 0.18 6.85 1502 7.38
8/19/2023 8:45:00 AM 20.65 69.17 0.179 6.84 1524 7.39
8/19/2023 9:00:00 AM 20.62 69.116 0.178 6.83 1564 7.41
8/19/2023 9:15:00 AM 20.59 69.062 0.178 6.82 1613 7.46
8/19/2023 9:30:00 AM 20.57 69.026 0.177 6.82 1425 7.47
8/19/2023 9:45:00 AM 20.56 69.008 0.176 6.8 1468 7.48
8/19/2023 10:00:00 AM 20.55 68.99 0.176 6.81 1458 7.53
8/19/2023 10:15:00 AM 20.56 69.008 0.176 6.8 1620 7.58
8/19/2023 10:30:00 AM 20.59 69.062 0.176 6.8 1593 7.62
8/19/2023 10:45:00 AM 20.64 69.152 0.176 6.81 1540 7.66
8/19/2023 11:00:00 AM 20.71 69.278 0.175 6.8 1502 7.71
8/19/2023 11:15:00 AM 20.81 69.458 0.176 6.81 1493 7.76
8/19/2023 11:30:00 AM 20.9 69.62 0.176 6.83 1569 7.86
8/19/2023 11:45:00 AM 21.04 69.872 0.176 6.83 1480 7.91
8/19/2023 12:00:00 PM 21.2 70.16 0.176 6.84 1515 8.02
8/19/2023 12:15:00 PM 21.37 70.466 0.176 6.86 1489 8.09
8/19/2023 12:30:00 PM 21.56 70.808 0.176 6.89 1454 8.17
8/19/2023 12:45:00 PM 21.77 71.186 0.176 6.91 1366 8.29
8/19/2023 1:00:00 PM 21.99 71.582 0.177 6.94 1236 8.39
8/19/2023 1:15:00 PM 22.19 71.942 0.177 6.99 1155 8.5
8/19/2023 1:30:00 PM 22.38 72.284 0.177 7.04 1242 8.58
8/19/2023 1:45:00 PM 22.57 72.626 0.177 7.06 1143 8.66
8/19/2023 2:00:00 PM 22.73 72.914 0.178 7.08 1163 8.73
8/19/2023 2:15:00 PM 22.9 73.22 0.178 7.11 1138 8.8
8/19/2023 2:30:00 PM 23.07 73.526 0.178 7.13 1136 8.86
8/19/2023 2:45:00 PM 23.17 73.706 0.178 7.12 1093 8.91
8/19/2023 3:00:00 PM 23.32 73.976 0.178 7.16 1110 8.97
8/19/2023 3:15:00 PM 23.41 74.138 0.178 7.18 1108 9.04
8/19/2023 3:30:00 PM 23.48 74.264 0.178 7.2 1076 9.06
8/19/2023 3:45:00 PM 23.52 74.336 0.178 7.2 1086 9.09
8/19/2023 4:00:00 PM 23.54 74.372 0.178 7.21 1122 9.1
8/19/2023 4:15:00 PM 23.56 74.408 0.177 7.22 1091 9.11
8/19/2023 4:30:00 PM 23.53 74.354 0.177 7.22 1085 9.07
8/19/2023 4:45:00 PM 23.47 74.246 0.177 7.23 1082 9.05
8/19/2023 5:00:00 PM 23.41 74.138 0.177 7.26 1064 9.03
8/19/2023 5:15:00 PM 23.35 74.03 0.177 7.26 1079 9
8/19/2023 5:30:00 PM 23.29 73.922 0.177 7.27 1089 8.96
8/19/2023 5:45:00 PM 23.23 73.814 0.176 7.26 1101 8.9
8/19/2023 6:00:00 PM 23.13 73.634 0.176 7.24 1085 8.85
8/19/2023 6:15:00 PM 23.05 73.49 0.176 7.24 1090 8.8
8/19/2023 6:30:00 PM 22.97 73.346 0.176 7.23 1076 8.75
8/19/2023 6:45:00 PM 22.89 73.202 0.175 7.22 1079 8.7
8/19/2023 7:00:00 PM 22.8 73.04 0.175 7.21 1085 8.63
8/19/2023 7:15:00 PM 22.73 72.914 0.175 7.2 1077 8.58
8/19/2023 7:30:00 PM 22.66 72.788 0.175 7.19 1190 8.51
8/19/2023 7:45:00 PM 22.59 72.662 0.174 7.17 1112 8.47
8/19/2023 8:00:00 PM 22.53 72.554 0.174 7.18 1133 8.4
8/19/2023 8:15:00 PM 22.47 72.446 0.174 7.15 1186 8.36
8/19/2023 8:30:00 PM 22.41 72.338 0.174 7.13 1088 8.3
8/19/2023 8:45:00 PM 22.36 72.248 0.173 7.14 1119 8.29
8/19/2023 9:00:00 PM 22.32 72.176 0.173 7.12 1121 8.22
8/19/2023 9:15:00 PM 22.28 72.104 0.172 7.14 1124 8.18
8/19/2023 9:30:00 PM 22.23 72.014 0.172 7.15 139.8 8.16
8/19/2023 9:45:00 PM 22.19 71.942 0.172 7.15 133.4 8.11
8/19/2023 10:00:00 PM 22.15 71.87 0.171 7.15 161.4 8.06
8/19/2023 10:15:00 PM 22.12 71.816 0.171 7.15 152 8.05
8/19/2023 10:30:00 PM 22.08 71.744 0.171 7.12 270.8 8.02
8/19/2023 10:45:00 PM 22.05 71.69 0.17 7.1 258.5 7.99
8/19/2023 11:00:00 PM 21.99 71.582 0.17 7.1 92.3 7.97
8/19/2023 11:15:00 PM 21.96 71.528 0.17 7.1 330.4 7.94
8/19/2023 11:30:00 PM 21.92 71.456 0.17 7.09 241.8 7.92
8/19/2023 11:45:00 PM 21.88 71.384 0.169 7.08 194.3 7.88
8/20/2023 12:00:00 AM 21.86 71.348 0.169 7.07 119.3 7.87
8/20/2023 12:15:00 AM 21.82 71.276 0.169 7.07 234.1 7.85
8/20/2023 12:30:00 AM 21.78 71.204 0.169 7.05 281.5 7.84
8/20/2023 12:45:00 AM 21.73 71.114 0.169 7.06 307.9 7.82
8/20/2023 1:00:00 AM 21.69 71.042 0.169 7.04 224.5 7.8
8/20/2023 1:15:00 AM 21.65 70.97 0.168 7.03 341 7.79
8/20/2023 1:30:00 AM 21.6 70.88 0.168 7.03 273 7.76
8/20/2023 1:45:00 AM 21.56 70.808 0.168 7.02 264 7.74
8/20/2023 2:00:00 AM 21.51 70.718 0.168 7.02 272.5 7.73
8/20/2023 2:15:00 AM 21.45 70.61 0.169 7.01 268.9 7.72
8/20/2023 2:30:00 AM 21.39 70.502 0.168 6.98 121.3 7.68
8/20/2023 2:45:00 AM 21.35 70.43 0.168 6.97 97.88 7.69
8/20/2023 3:00:00 AM 21.29 70.32201 0.168 6.96 147.8 7.67
8/20/2023 3:15:00 AM 21.23 70.214 0.168 6.95 148.9 7.67
8/20/2023 3:30:00 AM 21.17 70.106 0.169 6.93 103 7.65
8/20/2023 3:45:00 AM 21.11 69.998 0.169 6.93 137.7 7.65
8/20/2023 4:00:00 AM 21.06 69.908 0.169 6.92 144.3 7.64
8/20/2023 4:15:00 AM 20.99 69.782 0.169 6.93 141.7 7.62
8/20/2023 4:30:00 AM 20.95 69.71 0.169 6.91 130.5 7.63
8/20/2023 4:45:00 AM 20.89 69.602 0.169 6.91 146 7.61
8/20/2023 5:00:00 AM 20.83 69.494 0.169 6.91 288.7 7.6
8/20/2023 5:15:00 AM 20.78 69.404 0.169 6.9 276.2 7.59
8/20/2023 5:30:00 AM 20.72 69.296 0.169 6.92 193.1 7.59
8/20/2023 5:45:00 AM 20.68 69.224 0.169 6.93 219.8 7.58
8/20/2023 6:00:00 AM 20.61 69.098 0.17 6.92 341.3 7.58
8/20/2023 6:15:00 AM 20.56 69.008 0.17 6.91 390.6 7.59
8/20/2023 6:30:00 AM 20.51 68.918 0.17 6.89 428.2 7.58
8/20/2023 6:45:00 AM 20.46 68.828 0.17 6.89 330.7 7.58
8/20/2023 7:00:00 AM 20.42 68.756 0.17 6.89 365.9 7.57
8/20/2023 7:15:00 AM 20.36 68.648 0.171 6.85 360.9 7.58
8/20/2023 7:30:00 AM 20.33 68.594 0.171 6.84 299.7 7.57
8/20/2023 7:45:00 AM 20.3 68.54 0.171 6.84 327.7 7.58
8/20/2023 8:00:00 AM 20.27 68.486 0.172 6.82 330.6 7.58
8/20/2023 8:15:00 AM 20.26 68.468 0.172 6.82 360.8 7.6
8/20/2023 8:30:00 AM 20.25 68.45 0.172 6.82 270.9 7.6
8/20/2023 8:45:00 AM 20.24 68.432 0.172 6.82 318.6 7.62
8/20/2023 9:00:00 AM 20.24 68.432 0.173 6.81 518.8 7.64
8/20/2023 9:15:00 AM 20.25 68.45 0.173 6.82 392.6 7.67
8/20/2023 9:30:00 AM 20.27 68.486 0.173 6.82 394.5 7.71
8/20/2023 9:45:00 AM 20.3 68.54 0.173 6.83 294.4 7.73
8/20/2023 10:00:00 AM 20.35 68.63 0.174 6.83 345.4 7.78
8/20/2023 10:15:00 AM 20.4 68.72 0.174 6.84 366.4 7.84
8/20/2023 10:30:00 AM 20.49 68.882 0.174 6.84 316.9 7.9
8/20/2023 10:45:00 AM 20.56 69.008 0.174 6.86 391.6 7.99
8/20/2023 11:00:00 AM 20.7 69.26 0.174 6.87 320.6 8.08
8/20/2023 11:15:00 AM 20.82 69.476 0.175 6.88 475.4 8.15
8/20/2023 11:30:00 AM 20.97 69.746 0.175 6.91 397.7 8.24
8/20/2023 11:45:00 AM 21.16 70.088 0.175 6.93 346.4 8.32
8/20/2023 12:00:00 PM 21.39 70.502 0.175 6.99 341 8.41
8/20/2023 12:15:00 PM 21.61 70.898 0.176 7 449.5 8.54
8/20/2023 12:30:00 PM 21.87 71.366 0.176 7.08 309.2 8.62
8/20/2023 12:45:00 PM 22.12 71.816 0.176 7.12 335.8 8.74
8/20/2023 1:00:00 PM 22.35 72.23 0.177 7.19 336.8 8.82
8/20/2023 1:15:00 PM 22.59 72.662 0.177 7.23 306.8 8.91
8/20/2023 1:30:00 PM 22.82 73.076 0.177 7.25 344.3 8.99
8/20/2023 1:45:00 PM 23.03 73.454 0.178 7.24 364.1 9.07
8/20/2023 2:00:00 PM 23.24 73.832 0.178 7.3 354.5 9.16
8/20/2023 2:15:00 PM 23.48 74.264 0.178 7.35 323.8 9.22
8/20/2023 2:30:00 PM 23.68 74.624 0.178 7.37 357.5 9.29
8/20/2023 2:45:00 PM 23.82 74.876 0.179 7.4 353.4 9.32
8/20/2023 3:00:00 PM 23.99 75.182 0.179 7.43 319.7 9.39
8/20/2023 3:15:00 PM 24.16 75.488 0.179 7.47 421.9 9.44
8/20/2023 3:30:00 PM 24.25 75.65 0.18 7.47 345.7 9.47
8/20/2023 3:45:00 PM 24.34 75.812 0.18 7.49 303.8 9.51
8/20/2023 4:00:00 PM 24.35 75.83 0.18 7.5 444.4 9.52
8/20/2023 4:15:00 PM 24.31 75.758 0.181 7.51 262.5 9.43
8/20/2023 4:30:00 PM 24.3 75.74 0.181 7.53 215.5 9.45
8/20/2023 4:45:00 PM 24.29 75.722 0.181 7.54 273 9.41
8/20/2023 5:00:00 PM 24.29 75.722 0.182 7.54 242.8 9.36
8/20/2023 5:15:00 PM 24.23 75.614 0.182 7.56 209.4 9.33
8/20/2023 5:30:00 PM 24.18 75.524 0.182 7.56 222.8 9.3
8/20/2023 5:45:00 PM 24.13 75.434 0.183 7.55 223.3 9.23
8/20/2023 6:00:00 PM 24.04 75.272 0.183 7.56 219.6 9.17
8/20/2023 6:15:00 PM 23.97 75.146 0.183 7.55 243.2 9.14
8/20/2023 6:30:00 PM 23.89 75.002 0.183 7.54 246.3 9.04
8/20/2023 6:45:00 PM 23.82 74.876 0.184 7.52 286.2 8.99
8/20/2023 7:00:00 PM 23.74 74.732 0.184 7.5 267.2 8.91
8/20/2023 7:15:00 PM 23.66 74.588 0.184 7.5 272.4 8.87
8/20/2023 7:30:00 PM 23.58 74.444 0.185 7.47 306.2 8.82
8/20/2023 7:45:00 PM 23.49 74.282 0.185 7.47 382.3 8.7
8/20/2023 8:00:00 PM 23.41 74.138 0.186 7.45 389.6 8.65
8/20/2023 8:15:00 PM 23.33 73.994 0.186 7.43 549 8.59
8/20/2023 8:30:00 PM 23.25 73.85 0.186 7.42 498.1 8.49
8/20/2023 8:45:00 PM 23.19 73.742 0.186 7.39 450.5 8.46
8/20/2023 9:00:00 PM 23.13 73.634 0.186 7.38 433.8 8.38
8/20/2023 9:15:00 PM 23.06 73.508 0.187 7.35 371.2 8.36
8/20/2023 9:30:00 PM 23.02 73.436 0.187 7.34 434.9 8.31
8/20/2023 9:45:00 PM 22.96 73.328 0.187 7.33 345.8 8.25
8/20/2023 10:00:00 PM 22.92 73.256 0.187 7.3 374.2 8.21
8/20/2023 10:15:00 PM 22.89 73.202 0.187 7.3 524 8.16
8/20/2023 10:30:00 PM 22.85 73.13 0.187 7.28 426.4 8.1
8/20/2023 10:45:00 PM 22.82 73.076 0.187 7.26 464.4 8.07
8/20/2023 11:00:00 PM 22.78 73.004 0.188 7.25 459.7 8.03
8/20/2023 11:15:00 PM 22.76 72.968 0.188 7.24 474.5 8
8/20/2023 11:30:00 PM 22.72 72.896 0.188 7.23 635 7.95
8/20/2023 11:45:00 PM 22.69 72.842 0.188 7.22 530.7 7.92
8/21/2023 12:00:00 AM 22.66 72.788 0.188 7.2 444.8 7.89
8/21/2023 12:15:00 AM 22.62 72.716 0.188 7.2 481.3 7.84
8/21/2023 12:30:00 AM 22.6 72.68 0.188 7.19 473.1 7.82
8/21/2023 12:45:00 AM 22.58 72.644 0.188 7.18 587.4 7.8
8/21/2023 1:00:00 AM 22.55 72.59 0.188 7.16 473.7 7.77
8/21/2023 1:15:00 AM 22.52 72.536 0.188 7.16 572.4 7.75
8/21/2023 1:30:00 AM 22.48 72.464 0.189 7.15 570.8 7.73
8/21/2023 1:45:00 AM 22.46 72.42799 0.189 7.15 604.5 7.71
8/21/2023 2:00:00 AM 22.41 72.338 0.189 7.14 557 7.7
8/21/2023 2:15:00 AM 22.38 72.284 0.189 7.14 597 7.68
8/21/2023 2:30:00 AM 22.36 72.248 0.189 7.11 581.6 7.66
8/21/2023 2:45:00 AM 22.32 72.176 0.189 7.12 600.6 7.63
8/21/2023 3:00:00 AM 22.28 72.104 0.189 7.11 547.3 7.62
8/21/2023 3:15:00 AM 22.23 72.014 0.189 7.1 549.1 7.61
8/21/2023 3:30:00 AM 22.19 71.942 0.189 7.09 730.5 7.58
8/21/2023 3:45:00 AM 22.15 71.87 0.189 7.08 682.6 7.57
8/21/2023 4:00:00 AM 22.1 71.78 0.189 7.06 602.7 7.55
8/21/2023 4:15:00 AM 22.07 71.726 0.189 7.02 526.8 7.53
8/21/2023 4:30:00 AM 22.03 71.654 0.189 7.01 548.9 7.52
8/21/2023 4:45:00 AM 21.98 71.564 0.19 7.01 494.3 7.52
8/21/2023 5:00:00 AM 21.95 71.51 0.19 7.01 659.8 7.5
8/21/2023 5:15:00 AM 21.9 71.42 0.19 7 567 7.48
8/21/2023 5:30:00 AM 21.86 71.348 0.19 6.98 548.4 7.46
8/21/2023 5:45:00 AM 21.82 71.276 0.19 6.98 591.3 7.43
8/21/2023 6:00:00 AM 21.78 71.204 0.19 6.98 587.5 7.42
8/21/2023 6:15:00 AM 21.74 71.132 0.19 6.96 533.4 7.4
8/21/2023 6:30:00 AM 21.69 71.042 0.191 6.97 561.4 7.38
8/21/2023 6:45:00 AM 21.68 71.024 0.191 6.97 571.1 7.37
8/21/2023 7:00:00 AM 21.64 70.952 0.191 6.96 607.7 7.39
8/21/2023 7:15:00 AM 21.62 70.916 0.191 6.96 610.1 7.36
8/21/2023 7:30:00 AM 21.6 70.88 0.191 6.95 702.9 7.37
8/21/2023 7:45:00 AM 21.59 70.862 0.191 6.93 623.7 7.38
8/21/2023 8:00:00 AM 21.58 70.844 0.191 6.95 623 7.39
8/21/2023 8:15:00 AM 21.57 70.826 0.191 6.94 650.5 7.42
8/21/2023 8:30:00 AM 21.57 70.826 0.191 6.94 367.5 7.45
8/21/2023 8:45:00 AM 21.57 70.826 0.192 6.95 410.2 7.46
8/21/2023 9:00:00 AM 21.58 70.844 0.192 6.94 408.5 7.48
8/21/2023 9:15:00 AM 21.6 70.88 0.192 6.95 411 7.48
8/21/2023 9:30:00 AM 21.63 70.934 0.192 6.94 403.5 7.54
8/21/2023 9:45:00 AM 21.66 70.988 0.192 6.96 396.5 7.58
8/21/2023 10:00:00 AM 21.72 71.096 0.192 6.97 473.3 7.65
8/21/2023 10:15:00 AM 21.8 71.24 0.192 6.98 429.4 7.76
8/21/2023 10:30:00 AM 21.89 71.402 0.192 7 428.2 7.87
8/21/2023 10:45:00 AM 22.02 71.636 0.192 7 440.1 8.01
8/21/2023 11:00:00 AM 22.15 71.87 0.193 7.03 422.5 8.11
8/21/2023 11:15:00 AM 22.29 72.122 0.193 7.04 428.5 8.22
8/21/2023 11:30:00 AM 22.4 72.32 0.193 7.07 441.2 8.32
8/21/2023 11:45:00 AM 22.54 72.57201 0.193 7.08 357.6 8.43
8/21/2023 12:00:00 PM 22.71 72.878 0.193 7.13 344 8.57
8/21/2023 12:15:00 PM 22.92 73.256 0.193 7.16 369.7 8.72
8/21/2023 12:30:00 PM 23.08 73.544 0.193 7.22 383.8 8.82
8/21/2023 12:45:00 PM 23.24 73.832 0.194 7.24 366.9 8.93
8/21/2023 1:00:00 PM 23.36 74.048 0.194 7.28 392.5 9.02
8/21/2023 1:15:00 PM 23.44 74.192 0.194 7.31 391.8 9.07
8/21/2023 1:30:00 PM 23.59 74.462 0.194 7.34 382.1 9.16
8/21/2023 1:45:00 PM 23.78 74.804 0.195 7.37 246.8 9.27
8/21/2023 2:00:00 PM 23.88 74.984 0.195 7.41 231.2 9.34
8/21/2023 2:15:00 PM 23.98 75.164 0.195 7.43 222.1 9.43
8/21/2023 2:30:00 PM 24.19 75.542 0.195 7.43 228.6 9.52
8/21/2023 2:45:00 PM 24.33 75.794 0.195 7.49 231 9.59
8/21/2023 3:00:00 PM 24.43 75.974 0.196 7.52 223.3 9.63
8/21/2023 3:15:00 PM 24.6 76.28 0.196 7.54 220.4 9.7
8/21/2023 3:30:00 PM 24.81 76.658 0.196 7.6 217.4 9.74
8/21/2023 3:45:00 PM 24.86 76.748 0.196 7.61 216 9.75
8/21/2023 4:00:00 PM 24.95 76.91 0.197 7.64 220.9 9.74
8/21/2023 4:15:00 PM 25.03 77.054 0.197 7.67 221.3 9.78
8/21/2023 4:30:00 PM 25.08 77.144 0.197 7.7 223.6 9.72
8/21/2023 4:45:00 PM 25.06 77.108 0.197 7.71 229 9.72
8/21/2023 5:00:00 PM 25.04 77.07201 0.197 7.74 222.9 9.68
8/21/2023 5:15:00 PM 25.03 77.054 0.198 7.73 234.6 9.62
8/21/2023 5:30:00 PM 24.96 76.92799 0.198 7.73 236.6 9.57
8/21/2023 5:45:00 PM 24.94 76.892 0.198 7.74 227.5 9.5
8/21/2023 6:00:00 PM 24.89 76.802 0.198 7.74 220.5 9.43
8/21/2023 6:15:00 PM 24.85 76.73 0.198 7.72 216.4 9.36
8/21/2023 6:30:00 PM 24.8 76.64 0.199 7.71 210.4 9.25
8/21/2023 6:45:00 PM 24.74 76.532 0.199 7.71 218.2 9.13
8/21/2023 7:00:00 PM 24.69 76.442 0.199 7.67 202.3 9.07
8/21/2023 7:15:00 PM 24.65 76.37 0.199 7.66 202.6 8.98
8/21/2023 7:30:00 PM 24.58 76.244 0.199 7.64 203.9 8.89
8/21/2023 7:45:00 PM 24.52 76.136 0.2 7.62 201.6 8.78
8/21/2023 8:00:00 PM 24.45 76.01 0.2 7.6 200.1 8.69
8/21/2023 8:15:00 PM 24.39 75.902 0.2 7.57 202.5 8.59
8/21/2023 8:30:00 PM 24.32 75.776 0.2 7.55 204 8.52
8/21/2023 8:45:00 PM 24.26 75.668 0.2 7.51 204.4 8.41
8/21/2023 9:00:00 PM 24.22 75.596 0.2 7.5 204.6 8.34
8/21/2023 9:15:00 PM 24.15 75.47 0.201 7.48 206.2 8.26
8/21/2023 9:30:00 PM 24.11 75.398 0.201 7.46 204.4 8.19
8/21/2023 9:45:00 PM 24.05 75.29 0.201 7.43 208.1 8.12
8/21/2023 10:00:00 PM 24.01 75.218 0.201 7.42 210.3 8.04
8/21/2023 10:15:00 PM 23.96 75.128 0.201 7.38 208.8 7.99
8/21/2023 10:30:00 PM 23.92 75.056 0.201 7.36 208.1 7.92
8/21/2023 10:45:00 PM 23.88 74.984 0.201 7.36 207.5 7.86
8/21/2023 11:00:00 PM 23.84 74.912 0.201 7.33 209.3 7.79
8/21/2023 11:15:00 PM 23.8 74.84 0.201 7.31 207.6 7.75
8/21/2023 11:30:00 PM 23.77 74.786 0.202 7.29 208.8 7.67
8/21/2023 11:45:00 PM 23.74 74.732 0.202 7.27 221.9 7.64
8/22/2023 12:00:00 AM 23.71 74.67799 0.202 7.27 221.2 7.6
8/22/2023 12:15:00 AM 23.69 74.642 0.202 7.24 219.2 7.56
8/22/2023 12:30:00 AM 23.66 74.588 0.202 7.24 221.4 7.53
8/22/2023 12:45:00 AM 23.65 74.57 0.202 7.22 223.3 7.5
8/22/2023 1:00:00 AM 23.63 74.534 0.202 7.22 224.4 7.47
8/22/2023 1:15:00 AM 23.6 74.48 0.202 7.21 233.6 7.43
8/22/2023 1:30:00 AM 23.59 74.462 0.202 7.18 235.3 7.4
8/22/2023 1:45:00 AM 23.56 74.408 0.202 7.19 236.8 7.39
8/22/2023 2:00:00 AM 23.55 74.39 0.202 7.18 237.2 7.37
8/22/2023 2:15:00 AM 23.52 74.336 0.202 7.17 236.4 7.35
8/22/2023 2:30:00 AM 23.48 74.264 0.202 7.16 241 7.33
8/22/2023 2:45:00 AM 23.45 74.21 0.202 7.15 239.7 7.31
8/22/2023 3:00:00 AM 23.42 74.156 0.202 7.15 242.6 7.3
8/22/2023 3:15:00 AM 23.38 74.084 0.202 7.14 242.5 7.27
8/22/2023 3:30:00 AM 23.32 73.976 0.202 7.13 239.9 7.26
8/22/2023 3:45:00 AM 23.28 73.904 0.202 7.12 251.5 7.23
8/22/2023 4:00:00 AM 23.24 73.832 0.202 7.11 248.3 7.21
8/22/2023 4:15:00 AM 23.19 73.742 0.202 7.11 249.6 7.21
8/22/2023 4:30:00 AM 23.16 73.688 0.202 7.11 250.5 7.19
8/22/2023 4:45:00 AM 23.13 73.634 0.203 7.1 259.5 7.17
8/22/2023 5:00:00 AM 23.05 73.49 0.202 7.09 257.2 7.16
8/22/2023 5:15:00 AM 23 73.4 0.202 7.1 258.6 7.15
8/22/2023 5:30:00 AM 22.94 73.292 0.203 7.08 259.8 7.15
8/22/2023 5:45:00 AM 22.88 73.184 0.202 6.96 264 7.14
8/22/2023 6:00:00 AM 22.82 73.076 0.202 6.96 264.8 7.13
8/22/2023 6:15:00 AM 22.77 72.986 0.203 6.94 269.1 7.11
8/22/2023 6:30:00 AM 22.71 72.878 0.203 6.94 388.4 7.11
8/22/2023 6:45:00 AM 22.65 72.77 0.203 6.93 378.8 7.1
8/22/2023 7:00:00 AM 22.61 72.698 0.203 6.91 320.1 7.11
8/22/2023 7:15:00 AM 22.54 72.57201 0.203 6.93 327.4 7.11
8/22/2023 7:30:00 AM 22.51 72.518 0.203 6.92 374.7 7.12
8/22/2023 7:45:00 AM 22.47 72.446 0.202 6.93 275.7 7.14
8/22/2023 8:00:00 AM 22.43 72.374 0.202 6.92 229.9 7.12
8/22/2023 8:15:00 AM 22.38 72.284 0.202 6.92 147.4 7.13
8/22/2023 8:30:00 AM 22.36 72.248 0.202 6.92 135.2 7.19
8/22/2023 8:45:00 AM 22.32 72.176 0.202 6.92 133.7 7.21
8/22/2023 9:00:00 AM 22.26 72.068 0.202 6.92 137.4 7.24
8/22/2023 9:15:00 AM 22.26 72.068 0.202 6.92 146.8 7.3
8/22/2023 9:30:00 AM 22.25 72.05 0.202 6.92 139.1 7.34
8/22/2023 9:45:00 AM 22.22 71.996 0.202 6.93 144.4 7.39
8/22/2023 10:00:00 AM 22.22 71.996 0.202 6.93 160 7.47
8/22/2023 10:15:00 AM 22.19 71.942 0.201 6.95 159.2 7.54
8/22/2023 10:30:00 AM 22.18 71.924 0.201 6.95 168.4 7.61
8/22/2023 10:45:00 AM 22.2 71.96 0.201 6.96 166.6 7.69
8/22/2023 11:00:00 AM 22.29 72.122 0.201 6.98 173.6 7.82
8/22/2023 11:15:00 AM 22.43 72.374 0.201 6.98 181.7 7.92
8/22/2023 11:30:00 AM 22.57 72.626 0.201 7 24.32 8.03
8/22/2023 11:45:00 AM 22.73 72.914 0.201 7.22 47.81 8.17
8/22/2023 12:00:00 PM 23 73.4 0.201 7.26 18.95 8.35
8/22/2023 12:15:00 PM 23.23 73.814 0.201 7.29 208.7 8.52
8/22/2023 12:30:00 PM 23.49 74.282 0.201 7.32 245 8.65
8/22/2023 12:45:00 PM 23.82 74.876 0.201 7.35 220.5 8.86
8/22/2023 1:00:00 PM 24.1 75.38 0.201 7.38 270.9 8.99
8/22/2023 1:15:00 PM 24.38 75.884 0.201 7.31 251.2 9.13
8/22/2023 1:30:00 PM 24.62 76.316 0.201 7.49 346.7 9.26
8/22/2023 1:45:00 PM 24.87 76.766 0.201 7.53 246.3 9.35
8/22/2023 2:00:00 PM 25.06 77.108 0.201 7.58 247.2 9.41
8/22/2023 2:15:00 PM 25.29 77.522 0.201 7.63 330.3 9.49
8/22/2023 2:30:00 PM 25.45 77.81 0.201 7.66 323.5 9.59
8/22/2023 2:45:00 PM 25.65 78.17 0.201 7.7 305.1 9.68
8/22/2023 3:00:00 PM 25.82 78.476 0.201 7.74 301.6 9.72
8/22/2023 3:15:00 PM 25.99 78.782 0.201 7.78 463.6 9.78
8/22/2023 3:30:00 PM 26.11 78.998 0.201 7.82 223.8 9.81
8/22/2023 3:45:00 PM 26.19 79.142 0.201 7.85 227.2 9.82
8/22/2023 4:00:00 PM 26.24 79.232 0.201 7.89 224.6 9.86
8/22/2023 4:15:00 PM 26.25 79.25 0.202 7.9 228.8 9.85
8/22/2023 4:30:00 PM 26.19 79.142 0.202 7.93 227.1 9.79
8/22/2023 4:45:00 PM 26.1 78.98 0.202 7.97 222.6 9.72
8/22/2023 5:00:00 PM 25.98 78.764 0.202 7.97 223 9.61
8/22/2023 5:15:00 PM 25.89 78.602 0.202 7.98 14.18 9.54
8/22/2023 5:30:00 PM 25.8 78.44 0.202 7.96 15.52 9.46
8/22/2023 5:45:00 PM 25.67 78.206 0.202 7.94 14.26 9.37
8/22/2023 6:00:00 PM 25.53 77.954 0.202 7.94 9.5 9.25
8/22/2023 6:15:00 PM 25.42 77.756 0.202 7.93 14.75 9.12
8/22/2023 6:30:00 PM 25.31 77.558 0.202 7.9 15.99 8.99
8/22/2023 6:45:00 PM 25.18 77.324 0.202 7.88 17.67 8.89
8/22/2023 7:00:00 PM 25.04 77.07201 0.202 7.85 19.68 8.74
8/22/2023 7:15:00 PM 24.89 76.802 0.202 7.81 18.82 8.64
8/22/2023 7:30:00 PM 24.79 76.622 0.203 7.79 14.59 8.54
8/22/2023 7:45:00 PM 24.63 76.334 0.203 7.75 23.35 8.46
8/22/2023 8:00:00 PM 24.51 76.118 0.203 7.72 117.7 8.37
8/22/2023 8:15:00 PM 24.39 75.902 0.203 7.7 38.91 8.29
8/22/2023 8:30:00 PM 24.24 75.632 0.203 7.66 31.73 8.18
8/22/2023 8:45:00 PM 24.13 75.434 0.203 7.63 31.97 8.14
8/22/2023 9:00:00 PM 24.02 75.236 0.203 7.62 27.93 8.1
8/22/2023 9:15:00 PM 23.88 74.984 0.203 7.58 29.06 7.99
8/22/2023 9:30:00 PM 23.83 74.894 0.203 7.56 27.6 7.93
8/22/2023 9:45:00 PM 23.7 74.66 0.203 7.54 25.6 7.9
8/22/2023 10:00:00 PM 23.6 74.48 0.204 7.52 25.77 7.82
8/22/2023 10:15:00 PM 23.51 74.318 0.204 7.51 38.57 7.78
8/22/2023 10:30:00 PM 23.4 74.12 0.204 7.51 51.57 7.76
8/22/2023 10:45:00 PM 23.31 73.958 0.204 7.5 32.7 7.71
8/22/2023 11:00:00 PM 23.26 73.868 0.204 7.47 381.6 7.68
8/22/2023 11:15:00 PM 23.18 73.724 0.204 7.45 164.5 7.63
8/22/2023 11:30:00 PM 23 73.4 0.204 7.42 211.3 7.55
8/22/2023 11:45:00 PM 22.93 73.274 0.204 7.4 196.6 7.52
8/23/2023 12:00:00 AM 22.8 73.04 0.204 7.38 252.5 7.49
8/23/2023 12:15:00 AM 22.74 72.932 0.205 7.38 257.1 7.51
8/23/2023 12:30:00 AM 22.66 72.788 0.205 7.35 270.6 7.48
8/23/2023 12:45:00 AM 22.59 72.662 0.205 7.34 276.9 7.46
8/23/2023 1:00:00 AM 22.55 72.59 0.205 7.33 262.7 7.46
8/23/2023 1:15:00 AM 22.43 72.374 0.205 7.32 242.4 7.46
8/23/2023 1:30:00 AM 22.38 72.284 0.206 7.31 300.5 7.42
8/23/2023 1:45:00 AM 22.29 72.122 0.206 7.29 324.7 7.43
8/23/2023 2:00:00 AM 22.23 72.014 0.206 7.29 336.6 7.43
8/23/2023 2:15:00 AM 22.15 71.87 0.206 7.28 366.5 7.41
8/23/2023 2:30:00 AM 22.23 72.014 0.206 7.3 399.1 7.4
8/23/2023 2:45:00 AM 22.07 71.726 0.206 7.28 387.2 7.41
8/23/2023 3:00:00 AM 22.01 71.618 0.206 7.27 403.8 7.37
8/23/2023 3:15:00 AM 21.93 71.474 0.207 7.26 416.7 7.39
8/23/2023 3:30:00 AM 21.85 71.33 0.207 6.94 501.7 7.4
8/23/2023 3:45:00 AM 21.84 71.312 0.207 6.94 550.1 7.38
8/23/2023 4:00:00 AM 21.8 71.24 0.207 6.95 598.9 7.41
8/23/2023 4:15:00 AM 21.76 71.168 0.207 6.94 667.6 7.39
8/23/2023 4:30:00 AM 21.67 71.006 0.207 6.93 757.9 7.35
8/23/2023 4:45:00 AM 21.67 71.006 0.208 6.93 845.3 7.36
8/23/2023 5:00:00 AM 21.56 70.808 0.208 6.91 915.3 7.38
8/23/2023 5:15:00 AM 21.56 70.808 0.208 6.9 811.5 7.37
8/23/2023 5:30:00 AM 21.42 70.556 0.208 6.89 934.2 7.34
8/23/2023 5:45:00 AM 21.4 70.52 0.208 6.89 1059 7.34
8/23/2023 6:00:00 AM 21.28 70.304 0.208 6.86 1030 7.33
8/23/2023 6:15:00 AM 21.17 70.106 0.208 6.84 956.6 7.28
8/23/2023 6:30:00 AM 21.1 69.98 0.208 6.83 109.7 7.28
8/23/2023 6:45:00 AM 21.05 69.89 0.208 6.83 389.3 7.28
8/23/2023 7:00:00 AM 21.08 69.944 0.208 6.84 432.3 7.32
8/23/2023 7:15:00 AM 20.96 69.728 0.208 6.81 544.2 7.28
8/23/2023 7:30:00 AM 20.86 69.548 0.208 6.79 60.75 7.34
8/23/2023 7:45:00 AM 20.83 69.494 0.208 6.78 105.9 7.35
8/23/2023 8:00:00 AM 20.83 69.494 0.208 6.78 80.47 7.36
8/23/2023 8:15:00 AM 20.83 69.494 0.208 6.77 546.3 7.43
8/23/2023 8:30:00 AM 20.87 69.566 0.208 6.76 438.8 7.49
8/23/2023 8:45:00 AM 20.85 69.53 0.207 6.76 7.49 7.51
8/23/2023 9:00:00 AM 20.93 69.674 0.207 6.75 4.27 7.64
8/23/2023 9:15:00 AM 20.87 69.566 0.207 6.75 4.84 7.69
8/23/2023 9:30:00 AM 21.02 69.836 0.207 6.78 4.62 7.8
8/23/2023 9:45:00 AM 21.02 69.836 0.207 6.78 6.28 7.93
8/23/2023 10:00:00 AM 21.06 69.908 0.207 6.78 4.66 8.02
8/23/2023 10:15:00 AM 21.15 70.07 0.207 6.78 4.49 8.02
8/23/2023 10:30:00 AM 21.16 70.088 0.207 6.81 4.58 8.14
8/23/2023 10:45:00 AM 21.25 70.25 0.207 6.83 4.7 8.32
8/23/2023 11:00:00 AM 21.27 70.286 0.206 6.83 5.95 8.37
8/23/2023 11:15:00 AM 21.49 70.682 0.207 6.86 4.87 8.64
8/23/2023 11:30:00 AM 21.58 70.844 0.206 6.88 4.83 8.86
8/23/2023 11:45:00 AM 21.64 70.952 0.206 6.9 6.06 8.97
8/23/2023 12:00:00 PM 21.75 71.15 0.206 6.93 6.31 9.11
8/23/2023 12:15:00 PM 21.99 71.582 0.206 6.97 4.44 9.23
8/23/2023 12:30:00 PM 22.19 71.942 0.206 7.01 4.09 9.39
8/23/2023 12:45:00 PM 22.31 72.158 0.206 7.04 4.62 9.48
8/23/2023 1:00:00 PM 22.37 72.266 0.206 7.32 5.7 9.58
8/23/2023 1:15:00 PM 22.38 72.284 0.206 7.36 4.72 9.58
8/23/2023 1:30:00 PM 22.43 72.374 0.206 7.41 4.58 9.64
8/23/2023 1:45:00 PM 22.51 72.518 0.206 7.44 6.48 9.7
8/23/2023 2:00:00 PM 22.59 72.662 0.206 7.45 6.57 9.84
8/23/2023 2:15:00 PM 22.65 72.77 0.206 7.46 7.43 9.91
8/23/2023 2:30:00 PM 22.69 72.842 0.206 7.47 6.8 9.92
8/23/2023 2:45:00 PM 22.7 72.86 0.207 7.49 6.7 9.87
8/23/2023 3:00:00 PM 22.7 72.86 0.207 7.51 8 9.92
8/23/2023 3:15:00 PM 22.71 72.878 0.207 7.55 8.06 9.93
8/23/2023 3:30:00 PM 22.7 72.86 0.207 7.57 7.21 9.87
8/23/2023 3:45:00 PM 22.72 72.896 0.207 7.58 7.21 9.87
8/23/2023 4:00:00 PM 22.72 72.896 0.207 7.62 8.95 9.81
8/23/2023 4:15:00 PM 22.71 72.878 0.207 7.63 7.66 9.87
8/23/2023 4:30:00 PM 22.74 72.932 0.207 7.65 7.34 9.84
8/23/2023 4:45:00 PM 22.77 72.986 0.207 7.66 7.35 9.91
8/23/2023 5:00:00 PM 22.81 73.058 0.207 7.68 7.04 9.9
8/23/2023 5:15:00 PM 22.77 72.986 0.207 7.69 8.42 9.83
8/23/2023 5:30:00 PM 22.81 73.058 0.208 7.73 7.6 9.81
8/23/2023 5:45:00 PM 22.79 73.022 0.208 7.73 6.86 9.8
8/23/2023 6:00:00 PM 22.78 73.004 0.208 7.73 6.02 9.71
8/23/2023 6:15:00 PM 22.79 73.022 0.208 7.76 6.33 9.71
8/23/2023 6:30:00 PM 22.71 72.878 0.208 7.74 7.08 9.6
8/23/2023 6:45:00 PM 22.72 72.896 0.208 7.74 7.08 9.57
8/23/2023 7:00:00 PM 22.68 72.824 0.208 7.74 5.86 9.43
8/23/2023 7:15:00 PM 22.62 72.716 0.208 7.74 8.07 9.33
8/23/2023 7:30:00 PM 22.6 72.68 0.209 7.73 8.96 9.24
8/23/2023 7:45:00 PM 22.55 72.59 0.209 7.7 9.42 9.13
8/23/2023 8:00:00 PM 22.52 72.536 0.209 7.69 14.65 9.07
8/23/2023 8:15:00 PM 22.49 72.482 0.209 7.68 11.35 8.98
8/23/2023 8:30:00 PM 22.44 72.392 0.21 7.65 14.28 8.92
8/23/2023 8:45:00 PM 22.41 72.338 0.21 7.64 17.27 8.88
8/23/2023 9:00:00 PM 22.37 72.266 0.21 7.61 17.52 8.77
8/23/2023 9:15:00 PM 22.34 72.212 0.21 7.59 18.63 8.71
8/23/2023 9:30:00 PM 22.26 72.068 0.21 7.58 18.15 8.63
8/23/2023 9:45:00 PM 22.25 72.05 0.21 7.56 18.13 8.55
8/23/2023 10:00:00 PM 22.21 71.978 0.211 7.53 18.76 8.49
8/23/2023 10:15:00 PM 22.19 71.942 0.211 7.51 21.44 8.46
8/23/2023 10:30:00 PM 22.13 71.834 0.211 7.49 18.69 8.39
8/23/2023 10:45:00 PM 22.1 71.78 0.211 7.46 15.09 8.32
8/23/2023 11:00:00 PM 22.07 71.726 0.211 7.46 17.94 8.27
8/23/2023 11:15:00 PM 22.01 71.618 0.211 7.42 13.19 8.18
8/23/2023 11:30:00 PM 21.99 71.582 0.212 7.4 14.96 8.13
8/23/2023 11:45:00 PM 21.95 71.51 0.212 7.38 16.77 8.07
8/24/2023 12:00:00 AM 21.91 71.438 0.212 7.37 16.26 8
8/24/2023 12:15:00 AM 21.9 71.42 0.212 7.35 22.08 7.98
8/24/2023 12:30:00 AM 21.84 71.312 0.212 7.34 17.43 7.95
8/24/2023 12:45:00 AM 21.82 71.276 0.213 7.32 21.19 7.92
8/24/2023 1:00:00 AM 21.8 71.24 0.213 7.31 19.29 7.89
8/24/2023 1:15:00 AM 21.74 71.132 0.213 7.29 21.15 7.84
8/24/2023 1:30:00 AM 21.71 71.078 0.213 7.28 20.31 7.81
8/24/2023 1:45:00 AM 21.7 71.06 0.214 6.95 16.22 7.79
8/24/2023 2:00:00 AM 21.68 71.024 0.214 6.96 22.63 7.77
8/24/2023 2:15:00 AM 21.62 70.916 0.214 6.95 23.31 7.76
8/24/2023 2:30:00 AM 21.6 70.88 0.214 6.95 22.51 7.74
8/24/2023 2:45:00 AM 21.58 70.844 0.215 6.94 19.47 7.72
8/24/2023 3:00:00 AM 21.53 70.754 0.215 6.92 23.43 7.71
8/24/2023 3:15:00 AM 21.51 70.718 0.215 6.92 22.1 7.69
8/24/2023 3:30:00 AM 21.48 70.664 0.215 6.9 20.79 7.67
8/24/2023 3:45:00 AM 21.47 70.646 0.215 6.91 26.51 7.67
8/24/2023 4:00:00 AM 21.46 70.628 0.216 6.91 27.49 7.68
8/24/2023 4:15:00 AM 21.42 70.556 0.216 6.9 28.08 7.63
8/24/2023 4:30:00 AM 21.38 70.484 0.216 6.9 35.6 7.64
8/24/2023 4:45:00 AM 21.36 70.448 0.216 6.87 20.38 7.62
8/24/2023 5:00:00 AM 21.34 70.412 0.217 6.87 28.13 7.6
8/24/2023 5:15:00 AM 21.3 70.34 0.217 6.86 30.37 7.57
8/24/2023 5:30:00 AM 21.28 70.304 0.217 6.86 32.44 7.57
8/24/2023 5:45:00 AM 21.27 70.286 0.217 6.85 47.44 7.56
8/24/2023 6:00:00 AM 21.24 70.232 0.217 6.84 8.41 7.57
8/24/2023 6:15:00 AM 21.2 70.16 0.217 6.83 16.09 7.53
8/24/2023 6:30:00 AM 21.2 70.16 0.217 6.84 17.22 7.55
8/24/2023 6:45:00 AM 21.15 70.07 0.217 6.82 18.61 7.53
8/24/2023 7:00:00 AM 21.14 70.052 0.218 6.82 13.17 7.51
8/24/2023 7:15:00 AM 21.12 70.016 0.218 6.81 15.5 7.5
8/24/2023 7:30:00 AM 21.12 70.016 0.218 6.79 16.66 7.48
8/24/2023 7:45:00 AM 21.08 69.944 0.218 6.78 13.65 7.5
8/24/2023 8:00:00 AM 21.06 69.908 0.218 6.78 18.47 7.49
8/24/2023 8:15:00 AM 21.04 69.872 0.218 6.78 13.96 7.5
8/24/2023 8:30:00 AM 21.04 69.872 0.218 6.77 16.83 7.52
8/24/2023 8:45:00 AM 21.06 69.908 0.218 6.78 10.57 7.57
8/24/2023 9:00:00 AM 21.05 69.89 0.218 6.76 18.49 7.57
8/24/2023 9:15:00 AM 21.05 69.89 0.218 6.77 20.88 7.64
8/24/2023 9:30:00 AM 21.05 69.89 0.218 6.77 18.62 7.66
8/24/2023 9:45:00 AM 21.08 69.944 0.218 6.77 11.31 7.72
8/24/2023 10:00:00 AM 21.1 69.98 0.218 6.77 12.58 7.81
8/24/2023 10:15:00 AM 21.12 70.016 0.218 6.78 12.82 7.85
8/24/2023 10:30:00 AM 21.11 69.998 0.218 6.78 42.29 7.85
8/24/2023 10:45:00 AM 21.13 70.034 0.218 6.79 10.02 7.91
8/24/2023 11:00:00 AM 21.16 70.088 0.218 6.79 12.25 8.01
8/24/2023 11:15:00 AM 21.15 70.07 0.218 6.8 12.02 8.01
8/24/2023 11:30:00 AM 21.15 70.07 0.218 6.81 16.77 8.01
8/24/2023 11:45:00 AM 21.16 70.088 0.218 6.8 10.11 8.08
8/24/2023 12:00:00 PM 21.17 70.106 0.218 6.8 10.17 8.15
8/24/2023 12:15:00 PM 21.2 70.16 0.218 6.81 12.48 8.25
8/24/2023 12:30:00 PM 21.21 70.17799 0.218 6.8 13.68 8.29
8/24/2023 12:45:00 PM 21.23 70.214 0.218 6.81 13.38 8.36
8/24/2023 1:00:00 PM 21.27 70.286 0.218 6.8 25.11 8.48
8/24/2023 1:15:00 PM 21.29 70.32201 0.218 6.83 6.47 8.54
8/24/2023 1:30:00 PM 21.37 70.466 0.218 6.84 11.67 8.73
8/24/2023 1:45:00 PM 21.4 70.52 0.218 6.85 13.65 8.78
8/24/2023 2:00:00 PM 21.47 70.646 0.218 6.86 22.38 8.91
8/24/2023 2:15:00 PM 21.58 70.844 0.218 6.88 20.98 9.08
8/24/2023 2:30:00 PM 21.69 71.042 0.218 6.89 14.02 9.22
8/24/2023 2:45:00 PM 21.81 71.258 0.218 6.92 41.32 9.35
8/24/2023 3:00:00 PM 22.02 71.636 0.218 6.93 65.86 9.5
8/24/2023 3:15:00 PM 22.14 71.852 0.218 6.96 36.91 9.58
8/24/2023 3:30:00 PM 22.13 71.834 0.218 7.02 29.55 9.63
8/24/2023 3:45:00 PM 22.19 71.942 0.218 7.05 45.29 9.75
8/24/2023 4:00:00 PM 22.15 71.87 0.219 7.09 37.93 9.72
8/24/2023 4:15:00 PM 22.14 71.852 0.219 7.11 151.3 9.66
8/24/2023 4:30:00 PM 22.13 71.834 0.219 7.12 10.32 9.68
8/24/2023 4:45:00 PM 22.12 71.816 0.219 7.13 10.02 9.71
8/24/2023 5:00:00 PM 22.12 71.816 0.219 7.16 7.07 9.69
8/24/2023 5:15:00 PM 22.1 71.78 0.219 7.15 6.79 9.62
8/24/2023 5:30:00 PM 22.08 71.744 0.219 7.17 8.75 9.55
8/24/2023 5:45:00 PM 22.07 71.726 0.219 7.19 8.65 9.51
8/24/2023 6:00:00 PM 22.06 71.708 0.219 7.19 8.55 9.49
8/24/2023 6:15:00 PM 22.03 71.654 0.219 7.21 8.61 9.42
8/24/2023 6:30:00 PM 22.01 71.618 0.219 7.21 8.52 9.34
8/24/2023 6:45:00 PM 22 71.6 0.219 7.22 9 9.28
8/24/2023 7:00:00 PM 21.97 71.546 0.219 7.21 9.6 9.22
8/24/2023 7:15:00 PM 21.96 71.528 0.219 7.21 10 9.16
8/24/2023 7:30:00 PM 21.93 71.474 0.219 7.2 9.42 9.11
8/24/2023 7:45:00 PM 21.9 71.42 0.219 7.18 11.86 8.99
8/24/2023 8:00:00 PM 21.88 71.384 0.219 7.16 11.92 8.94
8/24/2023 8:15:00 PM 21.86 71.348 0.22 7.16 9.15 8.86
8/24/2023 8:30:00 PM 21.83 71.294 0.22 7.15 12.2 8.74
8/24/2023 8:45:00 PM 21.8 71.24 0.22 7.11 11.4 8.67
8/24/2023 9:00:00 PM 21.76 71.168 0.217 7.12 12.48 8.63
8/24/2023 9:15:00 PM 21.73 71.114 0.22 7.08 15.12 8.56
8/24/2023 9:30:00 PM 21.69 71.042 0.22 7.08 14.93 8.47
8/24/2023 9:45:00 PM 21.66 70.988 0.22 7.08 16.01 8.4
8/24/2023 10:00:00 PM 21.62 70.916 0.22 7.06 15.44 8.32
8/24/2023 10:15:00 PM 21.6 70.88 0.22 7.04 16.53 8.26
8/24/2023 10:30:00 PM 21.56 70.808 0.22 7.04 15.46 8.2
8/24/2023 10:45:00 PM 21.53 70.754 0.22 7.01 16.36 8.16
8/24/2023 11:00:00 PM 21.51 70.718 0.22 6.98 15.95 8.1
8/24/2023 11:15:00 PM 21.48 70.664 0.22 6.97 16.48 8.06
8/24/2023 11:30:00 PM 21.45 70.61 0.22 6.94 17.58 8.01
8/24/2023 11:45:00 PM 21.43 70.574 0.22 6.93 16.97 7.97
8/25/2023 12:00:00 AM 21.4 70.52 0.22 6.93 18.59 7.94
8/25/2023 12:15:00 AM 21.38 70.484 0.22 6.91 19.62 7.91
8/25/2023 12:30:00 AM 21.36 70.448 0.22 6.9 19.57 7.86
8/25/2023 12:45:00 AM 21.33 70.394 0.22 6.88 24.73 7.83
8/25/2023 1:00:00 AM 21.31 70.358 0.22 6.87 23.23 7.81
8/25/2023 1:15:00 AM 21.26 70.268 0.22 6.88 21.14 7.75
8/25/2023 1:30:00 AM 21.23 70.214 0.22 7.12 33.76 7.74
8/25/2023 1:45:00 AM 21.22 70.196 0.22 7.13 29.4 7.72
8/25/2023 2:00:00 AM 21.17 70.106 0.22 7.12 26.5 7.7
8/25/2023 2:15:00 AM 21.15 70.07 0.22 7.11 28.55 7.7
8/25/2023 2:30:00 AM 21.1 69.98 0.22 7.09 32.37 7.68
8/25/2023 2:45:00 AM 21.09 69.962 0.22 7.09 30.33 7.67
8/25/2023 3:00:00 AM 21.07 69.926 0.221 7.09 33.15 7.65
8/25/2023 3:15:00 AM 21.04 69.872 0.221 7.09 34.68 7.65
8/25/2023 3:30:00 AM 21.02 69.836 0.221 7.08 35.23 7.62
8/25/2023 3:45:00 AM 20.99 69.782 0.221 7.07 37.28 7.62
8/25/2023 4:00:00 AM 20.97 69.746 0.221 7.07 35.75 7.62
8/25/2023 4:15:00 AM 20.93 69.674 0.219 7.06 43.3 7.64
8/25/2023 4:30:00 AM 20.88 69.584 0.217 7.06 46.26 7.68
8/25/2023 4:45:00 AM 20.84 69.512 0.217 7.05 40.99 7.66
8/25/2023 5:00:00 AM 20.84 69.512 0.217 7.06 43.23 7.65
8/25/2023 5:15:00 AM 20.84 69.512 0.218 7.05 38.85 7.62
8/25/2023 5:30:00 AM 20.81 69.458 0.218 7.05 42.22 7.6
8/25/2023 5:45:00 AM 20.8 69.44 0.219 7.04 42.35 7.58
8/25/2023 6:00:00 AM 20.78 69.404 0.218 7 47.23 7.52
8/25/2023 6:15:00 AM 20.77 69.386 0.219 7.01 39.38 7.53
8/25/2023 6:30:00 AM 20.75 69.35 0.219 7 42.3 7.49
8/25/2023 6:45:00 AM 20.73 69.314 0.219 6.98 49.71 7.44
8/25/2023 7:00:00 AM 20.74 69.332 0.22 6.98 42.04 7.33
8/25/2023 7:15:00 AM 20.69 69.242 0.219 6.98 41.98 7.35
8/25/2023 7:30:00 AM 20.69 69.242 0.219 6.99 46.54 7.36
8/25/2023 7:45:00 AM 20.71 69.278 0.22 6.98 44.29 7.41
8/25/2023 8:00:00 AM 20.72 69.296 0.22 6.97 32.76 7.47
8/25/2023 8:15:00 AM 20.72 69.296 0.22 6.96 27.22 7.46
8/25/2023 8:30:00 AM 20.72 69.296 0.22 6.96 27.01 7.54
8/25/2023 8:45:00 AM 20.75 69.35 0.22 6.95 22.53 7.6
8/25/2023 9:00:00 AM 20.78 69.404 0.22 6.94 23.53 7.72
8/25/2023 9:15:00 AM 20.83 69.494 0.219 6.94 23.95 7.8
8/25/2023 9:30:00 AM 20.86 69.548 0.219 6.96 24.2 7.87
8/25/2023 9:45:00 AM 20.9 69.62 0.219 6.97 25.55 7.95
8/25/2023 10:00:00 AM 20.96 69.728 0.219 6.97 25.83 8.09
8/25/2023 10:15:00 AM 21.02 69.836 0.219 6.99 27.01 8.21
8/25/2023 10:30:00 AM 21.04 69.872 0.219 7.01 24.7 8.24
8/25/2023 10:45:00 AM 21.07 69.926 0.219 7.02 21.15 8.27
8/25/2023 11:00:00 AM 21.13 70.034 0.219 7.04 21.63 8.38
8/25/2023 11:15:00 AM 21.18 70.124 0.219 7.06 23.05 8.49
8/25/2023 11:30:00 AM 21.21 70.17799 0.219 7.07 30.41 8.52
8/25/2023 11:45:00 AM 21.29 70.32201 0.218 7.1 26.26 8.68
8/25/2023 12:00:00 PM 21.35 70.43 0.218 7.11 28.35 8.74
8/25/2023 12:15:00 PM 21.49 70.682 0.218 7.13 44.49 8.88
8/25/2023 12:30:00 PM 21.86 71.348 0.218 7.15 27.9 9.05
8/25/2023 12:45:00 PM 22.01 71.618 0.217 7.18 27.53 9.2
8/25/2023 1:00:00 PM 22.03 71.654 0.217 7.22 30.85 9.25
8/25/2023 1:15:00 PM 22.26 72.068 0.217 7.25 33.1 9.4
8/25/2023 1:30:00 PM 22.26 72.068 0.217 7.29 42.21 9.47
8/25/2023 1:45:00 PM 22.4 72.32 0.217 7.32 52.06 9.6
8/25/2023 2:00:00 PM 22.54 72.57201 0.217 7.36 35.79 9.69
8/25/2023 2:15:00 PM 22.88 73.184 0.217 7.4 315.2 9.84
8/25/2023 2:30:00 PM 23.07 73.526 0.217 7.44 31.17 9.92
8/25/2023 2:45:00 PM 23.14 73.652 0.217 7.48 68.71 9.98
8/25/2023 3:00:00 PM 23.2 73.76 0.217 7.53 31.41 10.05
8/25/2023 3:15:00 PM 23.35 74.03 0.218 7.57 31.65 10.12
8/25/2023 3:30:00 PM 23.33 73.994 0.219 7.6 56.18 10.08
8/25/2023 3:45:00 PM 23.37 74.066 0.219 7.63 35.61 10.13
8/25/2023 4:00:00 PM 23.57 74.426 0.22 7.67 36.78 10.18
8/25/2023 4:15:00 PM 23.7 74.66 0.221 7.69 37.64 10.18
8/25/2023 4:30:00 PM 23.78 74.804 0.222 7.72 36.08 10.21
8/25/2023 4:45:00 PM 23.81 74.858 0.223 7.76 36.08 10.16
8/25/2023 5:00:00 PM 23.77 74.786 0.223 7.77 35.74 10.04
8/25/2023 5:15:00 PM 23.76 74.768 0.224 7.76 42.25 10
8/25/2023 5:30:00 PM 23.72 74.696 0.224 7.78 57.57 9.93
8/25/2023 5:45:00 PM 23.69 74.642 0.225 7.78 37.19 9.87
8/25/2023 6:00:00 PM 23.66 74.588 0.225 7.78 51.51 9.78
8/25/2023 6:15:00 PM 23.62 74.516 0.226 7.75 49.15 9.66
8/25/2023 6:30:00 PM 23.58 74.444 0.226 7.76 27.22 9.57
8/25/2023 6:45:00 PM 23.54 74.372 0.226 7.74 37.94 9.49
8/25/2023 7:00:00 PM 23.48 74.264 0.226 7.72 35.57 9.36
8/25/2023 7:15:00 PM 23.42 74.156 0.227 7.68 38.02 9.3
8/25/2023 7:30:00 PM 23.35 74.03 0.227 7.66 117 9.21
8/25/2023 7:45:00 PM 23.29 73.922 0.227 7.64 31.26 9.1
8/25/2023 8:00:00 PM 23.24 73.832 0.228 7.61 19.76 9.01
8/25/2023 8:15:00 PM 23.19 73.742 0.228 7.59 19.47 8.92
8/25/2023 8:30:00 PM 23.15 73.67 0.228 7.56 56.29 8.84
8/25/2023 8:45:00 PM 23.1 73.58 0.228 7.53 98.27 8.76
8/25/2023 9:00:00 PM 23.06 73.508 0.228 7.5 58.05 8.65
8/25/2023 9:15:00 PM 23.01 73.418 0.229 7.48 62.85 8.58
8/25/2023 9:30:00 PM 22.98 73.364 0.229 7.45 159.8 8.5
8/25/2023 9:45:00 PM 22.94 73.292 0.229 7.43 56.96 8.44
8/25/2023 10:00:00 PM 22.92 73.256 0.229 7.39 35.84 8.36
8/25/2023 10:15:00 PM 22.88 73.184 0.229 7.37 405.7 8.29
8/25/2023 10:30:00 PM 22.85 73.13 0.23 7.36 116.3 8.23
8/25/2023 10:45:00 PM 22.82 73.076 0.23 7.33 91.42 8.17
8/25/2023 11:00:00 PM 22.8 73.04 0.23 7.31 303.9 8.12
8/25/2023 11:15:00 PM 22.77 72.986 0.23 7.29 182.2 8.05
8/25/2023 11:30:00 PM 22.75 72.95 0.23 7.28 413.5 8.01
8/25/2023 11:45:00 PM 22.72 72.896 0.231 7.26 487.6 7.96
8/26/2023 12:00:00 AM 22.7 72.86 0.231 7.24 203.6 7.94
8/26/2023 12:15:00 AM 22.68 72.824 0.231 7.22 418.1 7.9
8/26/2023 12:30:00 AM 22.67 72.806 0.231 7.21 30.4 7.86
8/26/2023 12:45:00 AM 22.65 72.77 0.231 7.2 426.2 7.83
8/26/2023 1:00:00 AM 22.64 72.752 0.232 7.19 49.32 7.8
8/26/2023 1:15:00 AM 22.62 72.716 0.232 7.18 39.3 7.75
8/26/2023 1:30:00 AM 22.61 72.698 0.232 7.2 59.49 7.74
8/26/2023 1:45:00 AM 22.59 72.662 0.232 7.19 53.89 7.72
8/26/2023 2:00:00 AM 22.57 72.626 0.232 7.18 63.53 7.7
8/26/2023 2:15:00 AM 22.55 72.59 0.232 7.18 52.71 7.67
8/26/2023 2:30:00 AM 22.54 72.57201 0.232 7.17 54.27 7.66
8/26/2023 2:45:00 AM 22.52 72.536 0.232 7.16 63.29 7.64
8/26/2023 3:00:00 AM 22.49 72.482 0.232 7.16 61.98 7.62
8/26/2023 3:15:00 AM 22.48 72.464 0.231 7.14 68.5 7.59
8/26/2023 3:30:00 AM 22.45 72.41 0.231 7.14 67.86 7.56
8/26/2023 3:45:00 AM 22.43 72.374 0.231 7.13 54.36 7.56
8/26/2023 4:00:00 AM 22.41 72.338 0.231 7.13 52.11 7.52
8/26/2023 4:15:00 AM 22.38 72.284 0.231 7.13 57.27 7.49
8/26/2023 4:30:00 AM 22.35 72.23 0.23 7.13 60.35 7.5
8/26/2023 4:45:00 AM 22.33 72.194 0.23 7.11 71.75 7.47
8/26/2023 5:00:00 AM 22.3 72.14 0.23 7.1 64.32 7.45
8/26/2023 5:15:00 AM 22.27 72.086 0.229 7.1 61.5 7.43
8/26/2023 5:30:00 AM 22.25 72.05 0.229 7.09 70.35 7.42
8/26/2023 5:45:00 AM 22.22 71.996 0.229 7.09 68.97 7.41
8/26/2023 6:00:00 AM 22.21 71.978 0.229 7.08 63.55 7.39
8/26/2023 6:15:00 AM 22.19 71.942 0.229 7.08 69.13 7.38
8/26/2023 6:30:00 AM 22.18 71.924 0.229 7.06 58.87 7.35
8/26/2023 6:45:00 AM 22.16 71.888 0.229 7.06 62.3 7.33
8/26/2023 7:00:00 AM 22.16 71.888 0.229 7.06 68.26 7.33
8/26/2023 7:15:00 AM 22.15 71.87 0.229 7.04 66.63 7.31
8/26/2023 7:30:00 AM 22.16 71.888 0.23 7.05 63.74 7.32
8/26/2023 7:45:00 AM 22.15 71.87 0.23 7.05 62.82 7.31
8/26/2023 8:00:00 AM 22.16 71.888 0.231 7.05 109 7.31
8/26/2023 8:15:00 AM 22.17 71.906 0.231 7.01 75.64 7.31
8/26/2023 8:30:00 AM 22.19 71.942 0.232 7.01 61.67 7.32
8/26/2023 8:45:00 AM 22.2 71.96 0.232 7.01 42.45 7.34
8/26/2023 9:00:00 AM 22.24 72.032 0.233 7 48.96 7.4
8/26/2023 9:15:00 AM 22.27 72.086 0.233 7.01 50.42 7.42
8/26/2023 9:30:00 AM 22.3 72.14 0.234 7.02 51.28 7.47
8/26/2023 9:45:00 AM 22.33 72.194 0.234 7.04 50.89 7.49
8/26/2023 10:00:00 AM 22.39 72.302 0.235 7.06 51.07 7.6
8/26/2023 10:15:00 AM 22.43 72.374 0.235 7.08 51.71 7.67
8/26/2023 10:30:00 AM 22.5 72.5 0.235 7.09 54.13 7.77
8/26/2023 10:45:00 AM 22.55 72.59 0.236 7.09 58.22 7.84
8/26/2023 11:00:00 AM 22.63 72.734 0.236 7.12 57.77 7.99
8/26/2023 11:15:00 AM 22.72 72.896 0.236 7.14 67.46 8.1
8/26/2023 11:30:00 AM 22.85 73.13 0.236 7.14 57.47 8.23
8/26/2023 11:45:00 AM 22.95 73.31 0.236 7.17 63.14 8.38
8/26/2023 12:00:00 PM 23.14 73.652 0.236 7.21 57.9 8.52
8/26/2023 12:15:00 PM 23.35 74.03 0.237 7.25 63.47 8.63
8/26/2023 12:30:00 PM 23.52 74.336 0.237 7.28 69.87 8.77
8/26/2023 12:45:00 PM 23.67 74.606 0.237 7.3 80.91 8.87
8/26/2023 1:00:00 PM 23.79 74.82201 0.237 7.33 58.59 8.87
8/26/2023 1:15:00 PM 24.16 75.488 0.237 7.37 63.88 9.14
8/26/2023 1:30:00 PM 24.43 75.974 0.237 7.43 64.8 9.23
8/26/2023 1:45:00 PM 24.58 76.244 0.237 7.48 67.93 9.3
8/26/2023 2:00:00 PM 24.67 76.406 0.237 7.5 64.38 9.32
8/26/2023 2:15:00 PM 24.92 76.856 0.237 7.53 61.78 9.46
8/26/2023 2:30:00 PM 25.19 77.342 0.237 7.56 69.31 9.57
8/26/2023 2:45:00 PM 25.39 77.702 0.237 7.55 68.41 9.67
8/26/2023 3:00:00 PM 25.5 77.9 0.237 7.59 73.14 9.71
8/26/2023 3:15:00 PM 25.62 78.116 0.236 7.65 71.9 9.77
8/26/2023 3:30:00 PM 25.75 78.35 0.236 7.71 75.89 9.84
8/26/2023 3:45:00 PM 25.75 78.35 0.236 7.75 62.66 9.83
8/26/2023 4:00:00 PM 25.76 78.368 0.236 7.79 90.1 9.85
8/26/2023 4:15:00 PM 25.71 78.278 0.236 7.82 92.19 9.8
8/26/2023 4:30:00 PM 25.64 78.152 0.236 7.83 108.5 9.76
8/26/2023 4:45:00 PM 25.58 78.044 0.235 7.84 76.88 9.7
8/26/2023 5:00:00 PM 25.51 77.918 0.235 7.85 72.45 9.62
8/26/2023 5:15:00 PM 25.38 77.684 0.235 7.84 67.56 9.53
8/26/2023 5:30:00 PM 25.32 77.576 0.235 7.83 75.54 9.43
8/26/2023 5:45:00 PM 25.25 77.45 0.234 7.82 86.62 9.39
8/26/2023 6:00:00 PM 25.17 77.306 0.234 7.82 105.9 9.3
8/26/2023 6:15:00 PM 25.11 77.198 0.234 7.81 116 9.18
8/26/2023 6:30:00 PM 25.04 77.07201 0.234 7.79 113.7 9.1
8/26/2023 6:45:00 PM 24.98 76.964 0.233 7.77 113.9 9.04
8/26/2023 7:00:00 PM 24.89 76.802 0.233 7.75 78.91 8.93
8/26/2023 7:15:00 PM 24.82 76.676 0.233 7.74 107.3 8.84
8/26/2023 7:30:00 PM 24.74 76.532 0.232 7.71 115.8 8.75
8/26/2023 7:45:00 PM 24.66 76.388 0.232 7.69 78.39 8.64
8/26/2023 8:00:00 PM 24.59 76.262 0.232 7.65 84.67 8.52
8/26/2023 8:15:00 PM 24.51 76.118 0.231 7.63 79.44 8.44
8/26/2023 8:30:00 PM 24.44 75.992 0.231 7.6 86.26 8.34
8/26/2023 8:45:00 PM 24.37 75.866 0.231 7.58 89.43 8.24
8/26/2023 9:00:00 PM 24.3 75.74 0.23 7.55 82.25 8.16
8/26/2023 9:15:00 PM 24.23 75.614 0.23 7.53 98.92 8.07
8/26/2023 9:30:00 PM 24.17 75.506 0.229 7.5 83.5 8
8/26/2023 9:45:00 PM 24.11 75.398 0.229 7.48 87.86 7.95
8/26/2023 10:00:00 PM 24.06 75.308 0.229 7.46 82.14 7.87
8/26/2023 10:15:00 PM 23.98 75.164 0.228 7.42 100.1 7.8
8/26/2023 10:30:00 PM 23.92 75.056 0.228 7.41 99.71 7.76
8/26/2023 10:45:00 PM 23.86 74.948 0.228 7.39 90.07 7.7
8/26/2023 11:00:00 PM 23.81 74.858 0.227 7.36 84.42 7.61
8/26/2023 11:15:00 PM 23.74 74.732 0.227 7.35 74.43 7.57
8/26/2023 11:30:00 PM 23.71 74.67799 0.227 7.33 84.03 7.5
8/26/2023 11:45:00 PM 23.66 74.588 0.226 7.32 101.8 7.48
8/27/2023 12:00:00 AM 23.61 74.498 0.226 7.3 99.27 7.44
8/27/2023 12:15:00 AM 23.56 74.408 0.226 7.28 92.69 7.4
8/27/2023 12:30:00 AM 23.5 74.3 0.225 7.27 103.4 7.37
8/27/2023 12:45:00 AM 23.45 74.21 0.225 7.27 157 7.32
8/27/2023 1:00:00 AM 23.41 74.138 0.225 7.25 158.7 7.3
8/27/2023 1:15:00 AM 23.37 74.066 0.225 7.24 158.9 7.29
8/27/2023 1:30:00 AM 23.31 73.958 0.224 7.22 148.2 7.24
8/27/2023 1:45:00 AM 23.27 73.886 0.224 7.21 129.1 7.22
8/27/2023 2:00:00 AM 23.25 73.85 0.224 7.2 137.8 7.19
8/27/2023 2:15:00 AM 23.21 73.778 0.223 7.2 144.1 7.17
8/27/2023 2:30:00 AM 23.13 73.634 0.223 7.19 151.6 7.16
8/27/2023 2:45:00 AM 23.11 73.598 0.223 7.17 152.9 7.17
8/27/2023 3:00:00 AM 23.05 73.49 0.223 7.18 171 7.13
8/27/2023 3:15:00 AM 22.99 73.382 0.223 7.18 176.3 7.12
8/27/2023 3:30:00 AM 22.97 73.346 0.222 7.18 183.1 7.1
8/27/2023 3:45:00 AM 22.9 73.22 0.222 7.17 177.7 7.07
8/27/2023 4:00:00 AM 22.85 73.13 0.222 7.16 182 7.06
8/27/2023 4:15:00 AM 22.84 73.112 0.222 7.15 168.3 7.08
8/27/2023 4:30:00 AM 22.74 72.932 0.222 7.15 174.9 7.07
8/27/2023 4:45:00 AM 22.7 72.86 0.221 7.14 215.3 7.08
8/27/2023 5:00:00 AM 22.61 72.698 0.221 7.14 208.1 7.04
8/27/2023 5:15:00 AM 22.56 72.608 0.221 7.14 224.2 7.01
8/27/2023 5:30:00 AM 22.54 72.57201 0.221 7.1 200.5 6.99
8/27/2023 5:45:00 AM 22.45 72.41 0.221 7.09 232.6 6.98
8/27/2023 6:00:00 AM 22.43 72.374 0.221 7.1 214.7 6.97
8/27/2023 6:15:00 AM 22.37 72.266 0.221 7.12 256.4 7
8/27/2023 6:30:00 AM 22.29 72.122 0.221 7.1 273.6 6.95
8/27/2023 6:45:00 AM 22.25 72.05 0.221 7.11 272.2 6.93
8/27/2023 7:00:00 AM 22.18 71.924 0.22 7.09 482.3 6.8
8/27/2023 7:15:00 AM 22.18 71.924 0.22 7.08 537.1 6.73
8/27/2023 7:30:00 AM 22.15 71.87 0.22 7.08 221.2 6.78
8/27/2023 7:45:00 AM 22.14 71.852 0.22 7.08 240 6.96
8/27/2023 8:00:00 AM 22.06 71.708 0.22 7.06 208.8 6.95
8/27/2023 8:15:00 AM 22.02 71.636 0.22 7.05 294 6.93
8/27/2023 8:30:00 AM 22.04 71.672 0.22 7.05 313.6 5.36
8/27/2023 8:45:00 AM 22.02 71.636 0.22 7.06 337.2 4.91
8/27/2023 9:00:00 AM 22.03 71.654 0.22 7.05 423.5 5.2
8/27/2023 9:15:00 AM 22.05 71.69 0.219 7.04 396.5 5.5
8/27/2023 9:30:00 AM 22.11 71.798 0.219 7.05 249.4 5.37
8/27/2023 9:45:00 AM 22.09 71.762 0.219 7.05 333.2 7.12
8/27/2023 10:00:00 AM 22.15 71.87 0.219 7.06 336.5 7.19
8/27/2023 10:15:00 AM 22.16 71.888 0.219 7.06 369 7.23
8/27/2023 10:30:00 AM 22.21 71.978 0.218 7.07 312.4 7.34
8/27/2023 10:45:00 AM 22.31 72.158 0.218 7.09 321.4 7.47
8/27/2023 11:00:00 AM 22.43 72.374 0.218 7.09 326.5 7.57
8/27/2023 11:15:00 AM 22.53 72.554 0.218 7.1 335.8 7.77
8/27/2023 11:30:00 AM 22.74 72.932 0.218 7.12 393.4 7.94
8/27/2023 11:45:00 AM 22.96 73.328 0.217 7.14 371.3 8.11
8/27/2023 12:00:00 PM 23.15 73.67 0.217 7.13 292.9 8.33
8/27/2023 12:15:00 PM 23.49 74.282 0.217 7.17 227.7 8.54
8/27/2023 12:30:00 PM 23.92 75.056 0.217 7.22 228.5 8.77
8/27/2023 12:45:00 PM 24.31 75.758 0.217 7.24 190.1 8.99
8/27/2023 1:00:00 PM 24.68 76.424 0.217 7.31 228.1 9.18
8/27/2023 1:15:00 PM 24.85 76.73 0.217 7.35 242.1 9.3
8/27/2023 1:30:00 PM 24.82 76.676 0.217 7.4 249.7 9.38
8/27/2023 1:45:00 PM 24.86 76.748 0.217 7.43 252.2 9.42
8/27/2023 2:00:00 PM 25.19 77.342 0.216 7.5 266.8 9.55
8/27/2023 2:15:00 PM 25.48 77.864 0.216 7.55 278.5 9.72
8/27/2023 2:30:00 PM 25.71 78.278 0.216 7.59 153.5 9.82
8/27/2023 2:45:00 PM 25.93 78.674 0.216 7.66 153.9 9.92
8/27/2023 3:00:00 PM 26.14 79.052 0.216 7.72 159 9.99
8/27/2023 3:15:00 PM 26.29 79.32201 0.216 7.78 160.1 10.06
8/27/2023 3:30:00 PM 26.4 79.52 0.216 7.83 165.2 10.14
8/27/2023 3:45:00 PM 26.37 79.466 0.216 7.89 151.3 10.1
8/27/2023 4:00:00 PM 26.5 79.7 0.216 7.89 160.4 10.18
8/27/2023 4:15:00 PM 26.52 79.736 0.216 7.9 184.3 10.16
8/27/2023 4:30:00 PM 26.49 79.682 0.216 7.94 195.9 10.11
8/27/2023 4:45:00 PM 26.38 79.484 0.216 7.98 165.8 10
8/27/2023 5:00:00 PM 26.3 79.34 0.216 8.01 173.9 9.92
8/27/2023 5:15:00 PM 26.28 79.304 0.216 8.02 165.6 9.81
8/27/2023 5:30:00 PM 26.22 79.196 0.216 8 165.3 9.75
8/27/2023 5:45:00 PM 26.14 79.052 0.216 8.01 198.6 9.63
8/27/2023 6:00:00 PM 26.02 78.836 0.216 8.01 202 9.48
8/27/2023 6:15:00 PM 25.94 78.692 0.216 7.98 215.5 9.42
8/27/2023 6:30:00 PM 25.84 78.512 0.216 7.96 228.2 9.3
8/27/2023 6:45:00 PM 25.77 78.386 0.216 7.93 226.4 9.03
8/27/2023 7:00:00 PM 25.66 78.188 0.216 7.91 191.3 8.94
8/27/2023 7:15:00 PM 25.57 78.026 0.216 7.88 359.8 8.82
8/27/2023 7:30:00 PM 25.47 77.846 0.216 7.84 371.1 8.82
8/27/2023 7:45:00 PM 25.36 77.648 0.216 7.82 407.3 8.63
8/27/2023 8:00:00 PM 25.24 77.432 0.216 7.8 390.9 8.57
8/27/2023 8:15:00 PM 25.15 77.27 0.216 7.76 392.6 8.4
8/27/2023 8:30:00 PM 25.05 77.09 0.216 7.74 255.8 8.3
8/27/2023 8:45:00 PM 24.94 76.892 0.216 7.71 256.1 8.22
8/27/2023 9:00:00 PM 24.85 76.73 0.216 7.7 242.5 8.15
8/27/2023 9:15:00 PM 24.78 76.604 0.217 7.65 240.1 8.06
8/27/2023 9:30:00 PM 24.67 76.406 0.217 7.62 266.2 7.97
8/27/2023 9:45:00 PM 24.57 76.226 0.217 7.59 274 7.88
8/27/2023 10:00:00 PM 24.52 76.136 0.217 7.57 284.2 7.78
8/27/2023 10:15:00 PM 24.44 75.992 0.217 7.54 273.7 7.76
8/27/2023 10:30:00 PM 24.37 75.866 0.217 7.51 258 7.67
8/27/2023 10:45:00 PM 24.29 75.722 0.217 7.49 261.6 7.64
8/27/2023 11:00:00 PM 24.23 75.614 0.217 7.46 274.5 7.58
8/27/2023 11:15:00 PM 24.17 75.506 0.217 7.41 272.8 7.52
8/27/2023 11:30:00 PM 24.1 75.38 0.217 7.39 323.1 7.48
8/27/2023 11:45:00 PM 24.02 75.236 0.217 7.38 274.7 7.38
8/28/2023 12:00:00 AM 23.97 75.146 0.217 7.36 254.4 7.38
8/28/2023 12:15:00 AM 23.9 75.02 0.217 7.34 254.6 7.32
8/28/2023 12:30:00 AM 23.85 74.93 0.217 7.33 271.3 7.26
8/28/2023 12:45:00 AM 23.82 74.876 0.217 7.3 257.7 7.25
8/28/2023 1:00:00 AM 23.75 74.75 0.217 7.32 259 7.23
8/28/2023 1:15:00 AM 23.71 74.67799 0.217 7.27 299.3 7.17
8/28/2023 1:30:00 AM 23.67 74.606 0.217 7.3 279 7.16
8/28/2023 1:45:00 AM 23.65 74.57 0.217 7.29 287.1 7.13
8/28/2023 2:00:00 AM 23.65 74.57 0.216 7.28 293.8 7.12
8/28/2023 2:15:00 AM 23.59 74.462 0.216 7.27 314.8 7.1
8/28/2023 2:30:00 AM 23.59 74.462 0.216 7.25 304.3 7.08
8/28/2023 2:45:00 AM 23.54 74.372 0.216 7.24 334.1 7.05
8/28/2023 3:00:00 AM 23.52 74.336 0.216 7.24 342.9 7.01
8/28/2023 3:15:00 AM 23.53 74.354 0.216 7.24 324.9 7.04
8/28/2023 3:30:00 AM 23.48 74.264 0.216 7.22 332.1 7.04
8/28/2023 3:45:00 AM 23.44 74.192 0.216 7.23 336.5 6.99
8/28/2023 4:00:00 AM 23.41 74.138 0.216 7.21 338.8 6.98
8/28/2023 4:15:00 AM 23.37 74.066 0.216 7.19 330.6 6.97
8/28/2023 4:30:00 AM 23.37 74.066 0.216 7.18 332.4 6.97
8/28/2023 4:45:00 AM 23.33 73.994 0.216 7.18 339.5 6.96
8/28/2023 5:00:00 AM 23.28 73.904 0.215 7.18 323.7 6.94
8/28/2023 5:15:00 AM 23.29 73.922 0.215 7.18 342 6.95
8/28/2023 5:30:00 AM 23.21 73.778 0.215 7.16 369.8 6.93
8/28/2023 5:45:00 AM 23.22 73.796 0.215 7.16 373 6.92
8/28/2023 6:00:00 AM 23.15 73.67 0.215 7.15 391.9 6.91
8/28/2023 6:15:00 AM 23.14 73.652 0.215 7.16 379.7 6.9
8/28/2023 6:30:00 AM 23.09 73.562 0.215 7.14 407.7 6.86
8/28/2023 6:45:00 AM 23.05 73.49 0.215 7.12 407.3 6.86
8/28/2023 7:00:00 AM 23 73.4 0.215 7.13 482.6 6.83
8/28/2023 7:15:00 AM 22.96 73.328 0.214 7.13 421.3 6.84
8/28/2023 7:30:00 AM 22.95 73.31 0.214 7.12 378.5 6.86
8/28/2023 7:45:00 AM 22.93 73.274 0.214 7.11 351.4 6.85
8/28/2023 8:00:00 AM 22.9 73.22 0.214 7.1 340.2 6.9
8/28/2023 8:15:00 AM 22.9 73.22 0.214 7.13 407.7 6.91
8/28/2023 8:30:00 AM 22.86 73.148 0.214 7.12 378.1 6.93
8/28/2023 8:45:00 AM 22.86 73.148 0.214 7.12 533.4 6.96
8/28/2023 9:00:00 AM 22.85 73.13 0.213 7.12 407.3 7.03
8/28/2023 9:15:00 AM 22.88 73.184 0.213 7.11 365.5 7.13
8/28/2023 9:30:00 AM 22.9 73.22 0.213 7.11 332.7 7.21
8/28/2023 9:45:00 AM 22.94 73.292 0.213 7.12 408.6 7.3
8/28/2023 10:00:00 AM 22.98 73.364 0.213 7.13 440.4 7.46
8/28/2023 10:15:00 AM 23.05 73.49 0.213 7.13 438.5 7.63
8/28/2023 10:30:00 AM 23.11 73.598 0.213 7.14 421.5 7.77
8/28/2023 10:45:00 AM 23.15 73.67 0.213 7.15 483.4 7.81
8/28/2023 11:00:00 AM 23.16 73.688 0.213 7.16 424.6 7.9
8/28/2023 11:15:00 AM 23.2 73.76 0.213 7.17 432.6 8.01
8/28/2023 11:30:00 AM 23.28 73.904 0.212 7.18 521.6 8.17
8/28/2023 11:45:00 AM 23.32 73.976 0.212 7.21 400.3 8.31
8/28/2023 12:00:00 PM 23.38 74.084 0.212 7.21 493.3 8.47
8/28/2023 12:15:00 PM 23.46 74.228 0.212 7.23 502.7 8.61
8/28/2023 12:30:00 PM 23.59 74.462 0.212 7.27 438.8 8.8
8/28/2023 12:45:00 PM 23.66 74.588 0.212 7.29 535.8 8.92
8/28/2023 1:00:00 PM 23.82 74.876 0.212 7.31 395.1 9.12
8/28/2023 1:15:00 PM 23.93 75.074 0.212 7.35 1255 9.28
8/28/2023 1:30:00 PM 24.04 75.272 0.212 7.39 473 9.44
8/28/2023 1:45:00 PM 24.11 75.398 0.211 7.43 551.4 9.55
8/28/2023 2:00:00 PM 24.19 75.542 0.212 7.47 412.5 9.71
8/28/2023 2:15:00 PM 24.28 75.704 0.211 7.52 403.2 9.78
8/28/2023 2:30:00 PM 24.33 75.794 0.211 7.57 427 9.85
8/28/2023 2:45:00 PM 24.35 75.83 0.212 7.59 335.5 9.85
8/28/2023 3:00:00 PM 24.37 75.866 0.212 7.65 311.6 9.91
8/28/2023 3:15:00 PM 24.37 75.866 0.212 7.7 279.7 9.91
8/28/2023 3:30:00 PM 24.38 75.884 0.212 7.75 971.1 9.93
8/28/2023 3:45:00 PM 24.41 75.938 0.212 7.77 969.8 9.92
8/28/2023 4:00:00 PM 24.47 76.046 0.212 7.8 1026 10
8/28/2023 4:15:00 PM 24.5 76.1 0.212 7.83 1250 9.99
8/28/2023 4:30:00 PM 24.53 76.154 0.212 7.86 798.4 10.02
8/28/2023 4:45:00 PM 24.54 76.172 0.212 7.88 1089 9.97
8/28/2023 5:00:00 PM 24.55 76.19 0.212 7.92 896 9.97
8/28/2023 5:15:00 PM 24.57 76.226 0.212 7.94 1036 9.96
8/28/2023 5:30:00 PM 24.56 76.208 0.212 7.96 920.2 9.91
8/28/2023 5:45:00 PM 24.57 76.226 0.212 7.96 988.3 9.9
8/28/2023 6:00:00 PM 24.56 76.208 0.213 7.99 952.5 9.89
8/28/2023 6:15:00 PM 24.54 76.172 0.213 7.98 967.8 9.8
8/28/2023 6:30:00 PM 24.51 76.118 0.213 7.99 984.7 9.72
8/28/2023 6:45:00 PM 24.48 76.064 0.213 7.98 1156 9.6
8/28/2023 7:00:00 PM 24.44 75.992 0.213 7.97 1103 9.52
8/28/2023 7:15:00 PM 24.39 75.902 0.214 7.97 1017 9.39
8/28/2023 7:30:00 PM 24.32 75.776 0.214 7.95 1071 9.27
8/28/2023 7:45:00 PM 24.26 75.668 0.214 7.93 1090 9.14
8/28/2023 8:00:00 PM 24.2 75.56 0.214 7.91 1117 9.03
8/28/2023 8:15:00 PM 24.14 75.452 0.215 7.89 1057 8.92
8/28/2023 8:30:00 PM 24.08 75.344 0.215 7.85 1121 8.81
8/28/2023 8:45:00 PM 24.04 75.272 0.215 7.84 1193 8.73
8/28/2023 9:00:00 PM 23.98 75.164 0.215 7.8 1079 8.59
8/28/2023 9:15:00 PM 23.94 75.092 0.216 7.77 1184 8.52
8/28/2023 9:30:00 PM 23.87 74.966 0.216 7.73 1191 8.43
8/28/2023 9:45:00 PM 23.8 74.84 0.216 7.69 1165 8.3
8/28/2023 10:00:00 PM 23.77 74.786 0.216 7.67 1198 8.22
8/28/2023 10:15:00 PM 23.71 74.67799 0.216 7.65 1263 8.14
8/28/2023 10:30:00 PM 23.66 74.588 0.217 7.61 1218 8.07
8/28/2023 10:45:00 PM 23.58 74.444 0.217 7.58 1196 7.99
8/28/2023 11:00:00 PM 23.53 74.354 0.217 7.56 1209 7.89
8/28/2023 11:15:00 PM 23.47 74.246 0.217 7.53 1256 7.82
8/28/2023 11:30:00 PM 23.42 74.156 0.218 7.5 1251 7.76
8/28/2023 11:45:00 PM 23.36 74.048 0.218 7.48 1235 7.68
8/29/2023 12:00:00 AM 23.29 73.922 0.218 7.45 1213 7.62
8/29/2023 12:15:00 AM 23.25 73.85 0.218 7.44 1254 7.57
8/29/2023 12:30:00 AM 23.21 73.778 0.219 7.41 1238 7.51
8/29/2023 12:45:00 AM 23.11 73.598 0.219 7.39 1325 7.46
8/29/2023 1:00:00 AM 23.07 73.526 0.219 7.37 1285 7.41
8/29/2023 1:15:00 AM 23.01 73.418 0.219 7.36 1292 7.37
8/29/2023 1:30:00 AM 22.96 73.328 0.219 7.34 1148 7.34
8/29/2023 1:45:00 AM 22.92 73.256 0.219 7.33 1498 7.32
8/29/2023 2:00:00 AM 22.86 73.148 0.219 7.3 1422 7.28
8/29/2023 2:15:00 AM 22.83 73.094 0.219 7.29 1400 7.27
8/29/2023 2:30:00 AM 22.77 72.986 0.219 7.26 1324 7.25
8/29/2023 2:45:00 AM 22.73 72.914 0.22 7.25 1255 7.22
8/29/2023 3:00:00 AM 22.7 72.86 0.22 7.23 1328 7.22
8/29/2023 3:15:00 AM 22.64 72.752 0.22 7.21 1483 7.2
8/29/2023 3:30:00 AM 22.62 72.716 0.22 7.21 1377 7.17
8/29/2023 3:45:00 AM 22.57 72.626 0.22 7.2 1526 7.16
8/29/2023 4:00:00 AM 22.53 72.554 0.22 7.22 1317 7.15
8/29/2023 4:15:00 AM 22.49 72.482 0.22 7.2 1412 7.13
8/29/2023 4:30:00 AM 22.45 72.41 0.22 7.19 1367 7.12
8/29/2023 4:45:00 AM 22.43 72.374 0.22 7.19 1385 7.09
8/29/2023 5:00:00 AM 22.39 72.302 0.22 7.19 1383 7.11
8/29/2023 5:15:00 AM 22.37 72.266 0.22 7.19 1325 7.09
8/29/2023 5:30:00 AM 22.33 72.194 0.22 7.18 1451 7.08
8/29/2023 5:45:00 AM 22.31 72.158 0.221 7.17 1055 7.06
8/29/2023 6:00:00 AM 22.29 72.122 0.221 7.17 1513 7.05
8/29/2023 6:15:00 AM 22.28 72.104 0.221 7.18 1836 7.04
8/29/2023 6:30:00 AM 22.26 72.068 0.221 7.16 882.1 7.02
8/29/2023 6:45:00 AM 22.22 71.996 0.221 6.82 1002 7.05
8/29/2023 7:00:00 AM 22.21 71.978 0.221 6.82 953.2 7.03
8/29/2023 7:15:00 AM 22.19 71.942 0.221 6.82 923.4 7.04
8/29/2023 7:30:00 AM 22.17 71.906 0.221 6.82 907.3 7.05
8/29/2023 7:45:00 AM 22.15 71.87 0.221 6.82 888.9 7.06
8/29/2023 8:00:00 AM 22.14 71.852 0.221 6.82 882.7 7.05
8/29/2023 8:15:00 AM 22.13 71.834 0.221 6.82 839.6 7.08
8/29/2023 8:30:00 AM 22.13 71.834 0.221 6.81 885.1 7.11
8/29/2023 8:45:00 AM 22.13 71.834 0.221 6.8 863.2 7.14
8/29/2023 9:00:00 AM 22.14 71.852 0.221 6.79 815.1 7.21
8/29/2023 9:15:00 AM 22.14 71.852 0.221 6.81 945.6 7.24
8/29/2023 9:30:00 AM 22.15 71.87 0.222 6.8 198.3 7.32
8/29/2023 9:45:00 AM 22.18 71.924 0.222 6.8 206.4 7.41
8/29/2023 10:00:00 AM 22.2 71.96 0.222 6.82 189.3 7.51
8/29/2023 10:15:00 AM 22.21 71.978 0.222 6.84 197.2 7.55
8/29/2023 10:30:00 AM 22.23 72.014 0.222 6.84 192.6 7.64
8/29/2023 10:45:00 AM 22.24 72.032 0.222 6.85 205.8 7.68
8/29/2023 11:00:00 AM 22.26 72.068 0.222 6.85 200.5 7.76
8/29/2023 11:15:00 AM 22.27 72.086 0.222 6.85 191.4 7.79
8/29/2023 11:30:00 AM 22.28 72.104 0.222 6.86 234.6 7.86
8/29/2023 11:45:00 AM 22.3 72.14 0.222 6.87 225.6 7.92
8/29/2023 12:00:00 PM 22.32 72.176 0.222 6.86 225.9 8.01
8/29/2023 12:15:00 PM 22.35 72.23 0.222 6.87 232.4 8.13
8/29/2023 12:30:00 PM 22.4 72.32 0.222 6.9 181 8.31
8/29/2023 12:45:00 PM 22.43 72.374 0.222 6.9 195.3 8.41
8/29/2023 1:00:00 PM 22.48 72.464 0.222 6.93 226.5 8.53
8/29/2023 1:15:00 PM 22.55 72.59 0.222 6.95 188.7 8.72
8/29/2023 1:30:00 PM 22.62 72.716 0.222 7.22 198.1 8.84
8/29/2023 1:45:00 PM 22.69 72.842 0.222 7.23 235.3 9.02
8/29/2023 2:00:00 PM 22.76 72.968 0.222 7.26 165.9 9.16
8/29/2023 2:15:00 PM 22.81 73.058 0.222 7.28 171.3 9.25
8/29/2023 2:30:00 PM 22.84 73.112 0.222 7.32 173.7 9.28
8/29/2023 2:45:00 PM 23.04 73.472 0.222 7.36 160 9.5
8/29/2023 3:00:00 PM 23.06 73.508 0.222 7.37 171.7 9.6
8/29/2023 3:15:00 PM 23.13 73.634 0.222 7.42 171 9.71
8/29/2023 3:30:00 PM 23.16 73.688 0.222 7.45 168.1 9.75
8/29/2023 3:45:00 PM 23.25 73.85 0.222 7.5 174 9.9
8/29/2023 4:00:00 PM 23.3 73.94 0.222 7.51 187 9.97
8/29/2023 4:15:00 PM 23.29 73.922 0.222 7.56 177.6 9.94
8/29/2023 4:30:00 PM 23.34 74.012 0.222 7.57 257.8 9.93
8/29/2023 4:45:00 PM 23.39 74.102 0.222 7.61 260.5 10.01
8/29/2023 5:00:00 PM 23.41 74.138 0.222 7.66 280.3 9.97
8/29/2023 5:15:00 PM 23.4 74.12 0.222 7.69 285.1 9.89
8/29/2023 5:30:00 PM 23.4 74.12 0.222 7.71 283.3 9.86
8/29/2023 5:45:00 PM 23.4 74.12 0.222 7.74 241.5 9.84
8/29/2023 6:00:00 PM 23.38 74.084 0.223 7.74 250.6 9.75
8/29/2023 6:15:00 PM 23.37 74.066 0.223 7.75 259.2 9.65
8/29/2023 6:30:00 PM 23.35 74.03 0.223 7.75 270.8 9.59
8/29/2023 6:45:00 PM 23.34 74.012 0.223 7.74 264.6 9.52
8/29/2023 7:00:00 PM 23.33 73.994 0.223 7.74 269.8 9.42
8/29/2023 7:15:00 PM 23.32 73.976 0.223 7.74 267.8 9.32
8/29/2023 7:30:00 PM 23.3 73.94 0.223 7.72 300.6 9.26
8/29/2023 7:45:00 PM 23.29 73.922 0.223 7.73 269 9.11
8/29/2023 8:00:00 PM 23.27 73.886 0.223 7.71 290.5 9.04
8/29/2023 8:15:00 PM 23.26 73.868 0.224 7.69 273.7 8.96
8/29/2023 8:30:00 PM 23.23 73.814 0.224 7.66 291.9 8.84
8/29/2023 8:45:00 PM 23.21 73.778 0.224 7.65 305.1 8.75
8/29/2023 9:00:00 PM 23.19 73.742 0.224 7.62 308.9 8.67
8/29/2023 9:15:00 PM 23.16 73.688 0.224 7.59 292.4 8.54
8/29/2023 9:30:00 PM 23.14 73.652 0.224 7.57 298.4 8.46
8/29/2023 9:45:00 PM 23.12 73.616 0.224 7.54 303.1 8.39
8/29/2023 10:00:00 PM 23.09 73.562 0.224 7.5 324.8 8.29
8/29/2023 10:15:00 PM 23.06 73.508 0.224 7.49 343 8.19
8/29/2023 10:30:00 PM 23.04 73.472 0.224 7.46 309.1 8.12
8/29/2023 10:45:00 PM 23.01 73.418 0.224 7.43 323.7 8.04
8/29/2023 11:00:00 PM 22.99 73.382 0.224 7.41 359.2 7.99
8/29/2023 11:15:00 PM 22.96 73.328 0.224 7.39 346.9 7.9
8/29/2023 11:30:00 PM 22.94 73.292 0.223 7.37 365.2 7.84
8/29/2023 11:45:00 PM 22.92 73.256 0.223 7.35 343.7 7.75
8/30/2023 12:00:00 AM 22.9 73.22 0.223 7.32 363.6 7.68
8/30/2023 12:15:00 AM 22.89 73.202 0.223 7.31 348.8 7.63
8/30/2023 12:30:00 AM 22.86 73.148 0.223 7.3 358.8 7.56
8/30/2023 12:45:00 AM 22.84 73.112 0.223 7.26 361.7 7.5
8/30/2023 1:00:00 AM 22.82 73.076 0.223 7.25 357.8 7.47
8/30/2023 1:15:00 AM 22.79 73.022 0.223 7.23 354.7 7.4
8/30/2023 1:30:00 AM 22.78 73.004 0.223 7.23 377.5 7.36
8/30/2023 1:45:00 AM 22.76 72.968 0.223 7.21 363.6 7.32
8/30/2023 2:00:00 AM 22.74 72.932 0.223 7.19 375.8 7.27
8/30/2023 2:15:00 AM 22.72 72.896 0.223 7.19 405.1 7.25
8/30/2023 2:30:00 AM 22.71 72.878 0.223 7.16 417.4 7.21
8/30/2023 2:45:00 AM 22.69 72.842 0.222 7.16 402.3 7.21
8/30/2023 3:00:00 AM 22.67 72.806 0.222 7.15 403.9 7.18
8/30/2023 3:15:00 AM 22.67 72.806 0.222 7.15 427.2 7.15
8/30/2023 3:30:00 AM 22.65 72.77 0.222 7.13 442.1 7.12
8/30/2023 3:45:00 AM 22.64 72.752 0.222 7.12 441.6 7.11
8/30/2023 4:00:00 AM 22.62 72.716 0.222 7.1 487.6 7.1
8/30/2023 4:15:00 AM 22.62 72.716 0.222 7.1 434.8 7.06
8/30/2023 4:30:00 AM 22.6 72.68 0.222 7.09 461.9 7.06
8/30/2023 4:45:00 AM 22.59 72.662 0.222 7.09 437.5 7.04
8/30/2023 5:00:00 AM 22.54 72.57201 0.219 7.12 433.6 7.16
8/30/2023 5:15:00 AM 22.53 72.554 0.22 7.11 423.4 7.11
8/30/2023 5:30:00 AM 22.51 72.518 0.22 7.13 422.3 7.06
8/30/2023 5:45:00 AM 22.49 72.482 0.22 7.13 457.1 7.04
8/30/2023 6:00:00 AM 22.47 72.446 0.22 7.11 449.9 7.03
8/30/2023 6:15:00 AM 22.45 72.41 0.22 7.11 499.9 7.01
8/30/2023 6:30:00 AM 22.43 72.374 0.22 7.1 478 7
8/30/2023 6:45:00 AM 22.41 72.338 0.22 7.1 536.3 6.98
8/30/2023 7:00:00 AM 22.39 72.302 0.221 7.09 508.4 6.98
8/30/2023 7:15:00 AM 22.37 72.266 0.221 7.09 521.6 6.99
8/30/2023 7:30:00 AM 22.33 72.194 0.221 7.1 522 6.99
8/30/2023 7:45:00 AM 22.32 72.176 0.221 7.1 459.7 6.99
8/30/2023 8:00:00 AM 22.3 72.14 0.221 7.09 462 7.02
8/30/2023 8:15:00 AM 22.29 72.122 0.221 7.09 486.6 7.04
8/30/2023 8:30:00 AM 22.28 72.104 0.221 7.08 491.7 7.04
8/30/2023 8:45:00 AM 22.27 72.086 0.222 7.09 507.1 7.07
8/30/2023 9:00:00 AM 22.27 72.086 0.222 7.09 489.4 7.1
8/30/2023 9:15:00 AM 22.26 72.068 0.222 7.1 505.1 7.15
8/30/2023 9:30:00 AM 22.25 72.05 0.223 7.1 507.7 7.18
8/30/2023 9:45:00 AM 22.25 72.05 0.223 7.09 460.2 7.24
8/30/2023 10:00:00 AM 22.27 72.086 0.223 7.1 506.3 7.28
8/30/2023 10:15:00 AM 22.3 72.14 0.223 7.11 485.2 7.44
8/30/2023 10:30:00 AM 22.35 72.23 0.223 7.14 492.1 7.62
8/30/2023 10:45:00 AM 22.45 72.41 0.223 7.15 462.1 7.77
8/30/2023 11:00:00 AM 22.61 72.698 0.223 7.18 435.7 7.99
8/30/2023 11:15:00 AM 22.68 72.824 0.223 7.2 484.5 8.14
8/30/2023 11:30:00 AM 22.92 73.256 0.224 7.24 348.5 8.34
8/30/2023 11:45:00 AM 23.17 73.706 0.224 7.27 276.3 8.57
8/30/2023 12:00:00 PM 23.33 73.994 0.224 7.33 293.5 8.67
8/30/2023 12:15:00 PM 23.69 74.642 0.224 7.34 280.3 8.89
8/30/2023 12:30:00 PM 23.76 74.768 0.225 7.39 267.7 8.96
8/30/2023 12:45:00 PM 23.83 74.894 0.225 7.45 292.2 9.04
8/30/2023 1:00:00 PM 24.09 75.362 0.225 7.52 286.8 9.23
8/30/2023 1:15:00 PM 24.27 75.686 0.225 7.57 282.9 9.41
8/30/2023 1:30:00 PM 24.25 75.65 0.225 7.6 277.7 9.38
8/30/2023 1:45:00 PM 24.34 75.812 0.226 7.65 284.8 9.47
8/30/2023 2:00:00 PM 24.68 76.424 0.225 7.69 299.8 9.68
8/30/2023 2:15:00 PM 24.82 76.676 0.226 7.74 286.9 9.76
8/30/2023 2:30:00 PM 24.98 76.964 0.226 7.8 294.9 9.84
8/30/2023 2:45:00 PM 25.2 77.36 0.226 7.84 274.6 9.92
8/30/2023 3:00:00 PM 25.48 77.864 0.226 7.91 285.6 10.08
8/30/2023 3:15:00 PM 25.42 77.756 0.226 7.94 291.8 10.04
8/30/2023 3:30:00 PM 25.47 77.846 0.226 8.01 292.1 10.1
8/30/2023 3:45:00 PM 25.49 77.882 0.226 8.04 310.3 10.1
8/30/2023 4:00:00 PM 25.59 78.062 0.226 8.08 288.1 10.2
8/30/2023 4:15:00 PM 25.56 78.008 0.226 8.12 284.7 10.22
8/30/2023 4:30:00 PM 25.56 78.008 0.226 8.17 288.1 10.19
8/30/2023 4:45:00 PM 25.55 77.99 0.226 8.19 297.3 10.17
8/30/2023 5:00:00 PM 25.5 77.9 0.226 8.2 299.7 10.13
8/30/2023 5:15:00 PM 25.5 77.9 0.226 8.23 299.4 10.09
8/30/2023 5:30:00 PM 25.48 77.864 0.226 8.21 301.7 9.99
8/30/2023 5:45:00 PM 25.45 77.81 0.226 8.24 211.6 9.95
8/30/2023 6:00:00 PM 25.43 77.774 0.226 8.26 210.1 9.92
8/30/2023 6:15:00 PM 25.36 77.648 0.226 8.25 259.1 9.82
8/30/2023 6:30:00 PM 25.31 77.558 0.226 8.24 251.6 9.73
8/30/2023 6:45:00 PM 25.33 77.594 0.227 8.25 219.3 9.64
8/30/2023 7:00:00 PM 25.23 77.414 0.227 8.23 229.9 9.52
8/30/2023 7:15:00 PM 25.16 77.288 0.227 8.21 234.3 9.4
8/30/2023 7:30:00 PM 25.11 77.198 0.227 8.2 225.8 9.3
8/30/2023 7:45:00 PM 24.98 76.964 0.227 8.17 222.6 9.16
8/30/2023 8:00:00 PM 24.88 76.784 0.227 8.14 223.4 9.06
8/30/2023 8:15:00 PM 24.8 76.64 0.228 8.11 224.9 8.99
8/30/2023 8:30:00 PM 24.67 76.406 0.228 8.07 223.6 8.83
8/30/2023 8:45:00 PM 24.57 76.226 0.228 8.04 411.5 8.69
8/30/2023 9:00:00 PM 24.48 76.064 0.228 8 233.3 8.59
8/30/2023 9:15:00 PM 24.36 75.848 0.228 7.96 246.7 8.46
8/30/2023 9:30:00 PM 24.25 75.65 0.229 7.91 242.5 8.36
8/30/2023 9:45:00 PM 24.15 75.47 0.229 7.87 247.2 8.28
8/30/2023 10:00:00 PM 24.05 75.29 0.229 7.83 261.2 8.16
8/30/2023 10:15:00 PM 23.97 75.146 0.229 7.8 267.5 8.08
8/30/2023 10:30:00 PM 23.9 75.02 0.229 7.75 281.2 7.99
8/30/2023 10:45:00 PM 23.83 74.894 0.23 7.73 256.8 7.9
8/30/2023 11:00:00 PM 23.73 74.714 0.23 7.7 253.4 7.81
8/30/2023 11:15:00 PM 23.65 74.57 0.23 7.67 269.6 7.72
8/30/2023 11:30:00 PM 23.56 74.408 0.23 7.64 254.6 7.66
8/30/2023 11:45:00 PM 23.44 74.192 0.23 7.62 253 7.58
8/31/2023 12:00:00 AM 23.37 74.066 0.23 7.6 256 7.52
8/31/2023 12:15:00 AM 23.33 73.994 0.231 7.58 267.3 7.45
8/31/2023 12:30:00 AM 23.25 73.85 0.231 7.55 260.3 7.41
8/31/2023 12:45:00 AM 23.19 73.742 0.231 7.53 268.6 7.35
8/31/2023 1:00:00 AM 23.09 73.562 0.231 7.51 312.6 7.31
8/31/2023 1:15:00 AM 23.03 73.454 0.231 7.5 275.1 7.29
8/31/2023 1:30:00 AM 22.99 73.382 0.232 7.49 292.6 7.26
8/31/2023 1:45:00 AM 22.92 73.256 0.232 7.47 275.8 7.23
8/31/2023 2:00:00 AM 22.84 73.112 0.232 7.46 294.3 7.22
8/31/2023 2:15:00 AM 22.76 72.968 0.232 7.44 307 7.17
8/31/2023 2:30:00 AM 22.72 72.896 0.232 7.43 310.7 7.16
8/31/2023 2:45:00 AM 22.66 72.788 0.232 7.42 305.5 7.15
8/31/2023 3:00:00 AM 22.64 72.752 0.232 7.41 304.8 7.13
8/31/2023 3:15:00 AM 22.54 72.57201 0.232 7.09 302.2 7.11
8/31/2023 3:30:00 AM 22.51 72.518 0.233 7.09 310.9 7.09
8/31/2023 3:45:00 AM 22.43 72.374 0.233 7.06 307.9 7.07
8/31/2023 4:00:00 AM 22.4 72.32 0.233 7.07 310 7.08
8/31/2023 4:15:00 AM 22.37 72.266 0.233 7.06 314.1 7.08
8/31/2023 4:30:00 AM 22.29 72.122 0.233 7.06 316.3 7.06
8/31/2023 4:45:00 AM 22.24 72.032 0.233 7.04 314.9 7.05
8/31/2023 5:00:00 AM 22.17 71.906 0.233 7.02 315.9 7.03
8/31/2023 5:15:00 AM 22.11 71.798 0.233 7.02 310.9 7.05
8/31/2023 5:30:00 AM 22.07 71.726 0.234 6.99 326.8 7.05
8/31/2023 5:45:00 AM 22.02 71.636 0.234 6.99 328.1 7.06
8/31/2023 6:00:00 AM 21.96 71.528 0.234 6.99 345.5 7.03
8/31/2023 6:15:00 AM 21.95 71.51 0.234 6.97 317.6 7.06
8/31/2023 6:30:00 AM 21.92 71.456 0.234 6.97 350.5 7.03
8/31/2023 6:45:00 AM 21.8 71.24 0.234 6.94 358.2 7.01
8/31/2023 7:00:00 AM 21.75 71.15 0.234 6.91 344.5 6.98
8/31/2023 7:15:00 AM 21.7 71.06 0.234 6.9 339.3 7.02
8/31/2023 7:30:00 AM 21.66 70.988 0.235 6.91 316.3 7.04
8/31/2023 7:45:00 AM 21.59 70.862 0.235 6.91 337.5 7.05
8/31/2023 8:00:00 AM 21.55 70.79 0.235 6.9 345.6 7.04
8/31/2023 8:15:00 AM 21.48 70.664 0.235 6.9 353.6 7.07
8/31/2023 8:30:00 AM 21.44 70.592 0.235 6.86 366.6 7.1
8/31/2023 8:45:00 AM 21.37 70.466 0.235 6.86 333.3 7.11
8/31/2023 9:00:00 AM 21.36 70.448 0.235 6.86 272 7.15
8/31/2023 9:15:00 AM 21.32 70.376 0.235 6.85 276.4 7.19
8/31/2023 9:30:00 AM 21.23 70.214 0.235 6.85 279 7.21
8/31/2023 9:45:00 AM 21.24 70.232 0.235 6.89 317.9 7.28
8/31/2023 10:00:00 AM 21.18 70.124 0.235 6.89 347.6 7.32
8/31/2023 10:15:00 AM 21.23 70.214 0.235 6.89 346.7 7.39
8/31/2023 10:30:00 AM 21.15 70.07 0.235 6.9 366.8 7.51
8/31/2023 10:45:00 AM 21.27 70.286 0.235 6.89 165.9 7.61
8/31/2023 11:00:00 AM 21.29 70.32201 0.235 6.93 184.6 7.74
8/31/2023 11:15:00 AM 21.49 70.682 0.235 6.95 169.5 7.86
8/31/2023 11:30:00 AM 21.64 70.952 0.235 6.99 196.5 8.06
8/31/2023 11:45:00 AM 21.88 71.384 0.235 7 202.7 8.24
8/31/2023 12:00:00 PM 22.06 71.708 0.235 7.02 184.2 8.38
8/31/2023 12:15:00 PM 22.4 72.32 0.235 7.07 188.1 8.6
8/31/2023 12:30:00 PM 22.74 72.932 0.235 7.12 189.4 8.81
8/31/2023 12:45:00 PM 23.09 73.562 0.234 7.16 191.8 9.01
8/31/2023 1:00:00 PM 23.45 74.21 0.234 7.22 196.4 9.14
8/31/2023 1:15:00 PM 23.72 74.696 0.235 7.53 196.1 9.32
8/31/2023 1:30:00 PM 23.91 75.038 0.235 7.58 191.4 9.39
8/31/2023 1:45:00 PM 24.13 75.434 0.235 7.62 187.9 9.49
8/31/2023 2:00:00 PM 24.37 75.866 0.235 7.69 195.8 9.64
8/31/2023 2:15:00 PM 24.54 76.172 0.235 7.74 196.4 9.77
8/31/2023 2:30:00 PM 24.72 76.496 0.235 7.8 185.5 9.85
8/31/2023 2:45:00 PM 24.89 76.802 0.236 7.85 188 9.97
8/31/2023 3:00:00 PM 25.06 77.108 0.236 7.91 182.6 10.07
8/31/2023 3:15:00 PM 25.17 77.306 0.236 7.95 188.6 10.15
8/31/2023 3:30:00 PM 25.25 77.45 0.237 7.97 186.1 10.19
8/31/2023 3:45:00 PM 25.32 77.576 0.237 8.03 225.3 10.24
8/31/2023 4:00:00 PM 25.32 77.576 0.238 8.06 211.3 10.23
8/31/2023 4:15:00 PM 25.35 77.63 0.238 8.1 201.9 10.18
8/31/2023 4:30:00 PM 25.21 77.378 0.238 8.13 215.5 10.11
8/31/2023 4:45:00 PM 25.12 77.216 0.239 8.15 234.6 10.08
8/31/2023 5:00:00 PM 24.99 76.982 0.239 8.15 250.1 9.96
8/31/2023 5:15:00 PM 24.86 76.748 0.24 8.15 246.9 9.84
8/31/2023 5:30:00 PM 24.71 76.478 0.24 8.12 226.2 9.77
8/31/2023 5:45:00 PM 24.62 76.316 0.24 8.12 215.3 9.72
8/31/2023 6:00:00 PM 24.5 76.1 0.241 8.14 216.5 9.56
8/31/2023 6:15:00 PM 24.38 75.884 0.241 8.13 227.7 9.46
8/31/2023 6:30:00 PM 24.24 75.632 0.242 8.11 223.2 9.36
8/31/2023 6:45:00 PM 24.12 75.416 0.243 8.09 250.7 9.3
8/31/2023 7:00:00 PM 24.03 75.254 0.244 8.06 238.2 9.21
8/31/2023 7:15:00 PM 23.9 75.02 0.244 8.03 255.7 9.09
8/31/2023 7:30:00 PM 23.79 74.82201 0.244 8.02 245.6 9.03
8/31/2023 7:45:00 PM 23.66 74.588 0.244 8 263.4 8.92
8/31/2023 8:00:00 PM 23.53 74.354 0.245 7.98 256.8 8.81
8/31/2023 8:15:00 PM 23.43 74.174 0.246 7.97 266 8.72
8/31/2023 8:30:00 PM 23.31 73.958 0.246 7.95 256.7 8.64
8/31/2023 8:45:00 PM 23.19 73.742 0.247 7.65 280.1 8.51
8/31/2023 9:00:00 PM 23.07 73.526 0.247 7.61 259.5 8.43
8/31/2023 9:15:00 PM 22.96 73.328 0.248 7.58 290.9 8.34
8/31/2023 9:30:00 PM 22.79 73.022 0.248 7.55 288.9 8.24
8/31/2023 9:45:00 PM 22.73 72.914 0.249 7.5 282.4 8.15
8/31/2023 10:00:00 PM 22.57 72.626 0.249 7.48 309.9 8.07
8/31/2023 10:15:00 PM 22.49 72.482 0.249 7.46 294.5 7.99
8/31/2023 10:30:00 PM 22.37 72.266 0.249 7.43 305.2 7.93
8/31/2023 10:45:00 PM 22.29 72.122 0.25 7.69 314.2 7.85
8/31/2023 11:00:00 PM 22.2 71.96 0.25 7.66 324.9 7.82
8/31/2023 11:15:00 PM 22.09 71.762 0.251 7.65 320.2 7.77
8/31/2023 11:30:00 PM 22.04 71.672 0.251 7.62 338.4 7.7
8/31/2023 11:45:00 PM 21.9 71.42 0.251 7.6 347.3 7.66
9/1/2023 12:00:00 AM 21.83 71.294 0.251 7.22 360.3 7.61
9/1/2023 12:15:00 AM 21.75 71.15 0.251 7.22 342.3 7.57
9/1/2023 12:30:00 AM 21.69 71.042 0.251 7.2 350.2 7.55
9/1/2023 12:45:00 AM 21.57 70.826 0.251 7.18 352.6 7.52
9/1/2023 1:00:00 AM 21.46 70.628 0.251 7.15 377.4 7.48
9/1/2023 1:15:00 AM 21.41 70.538 0.251 7.14 396.3 7.48
9/1/2023 1:30:00 AM 21.35 70.43 0.251 7.45 387.6 7.47
9/1/2023 1:45:00 AM 21.23 70.214 0.251 7.45 369 7.44
9/1/2023 2:00:00 AM 21.15 70.07 0.251 7.42 368.6 7.43
9/1/2023 2:15:00 AM 21.06 69.908 0.251 7.4 386.3 7.42
9/1/2023 2:30:00 AM 21.03 69.854 0.25 7.38 400.2 7.42
9/1/2023 2:45:00 AM 20.96 69.728 0.25 7.38 394.8 7.4
9/1/2023 3:00:00 AM 20.9 69.62 0.25 7.4 411.6 7.38
9/1/2023 3:15:00 AM 20.8 69.44 0.25 7.36 423.9 7.4
9/1/2023 3:30:00 AM 20.79 69.422 0.249 7.37 432.2 7.39
9/1/2023 3:45:00 AM 20.71 69.278 0.249 7.35 448.8 7.41
9/1/2023 4:00:00 AM 20.63 69.134 0.249 7.33 439.5 7.38
9/1/2023 4:15:00 AM 20.58 69.044 0.248 7.33 464.5 7.39
9/1/2023 4:30:00 AM 20.5 68.9 0.248 7.31 483 7.39
9/1/2023 4:45:00 AM 20.43 68.774 0.248 7.31 485 7.39
9/1/2023 5:00:00 AM 20.35 68.63 0.247 7.3 481 7.4
9/1/2023 5:15:00 AM 20.31 68.558 0.247 7.34 488.8 7.4
9/1/2023 5:30:00 AM 20.27 68.486 0.246 7.3 506.7 7.39
9/1/2023 5:45:00 AM 20.18 68.324 0.246 7.29 530.7 7.39
9/1/2023 6:00:00 AM 20.08 68.144 0.246 7.27 543.2 7.39
9/1/2023 6:15:00 AM 20.03 68.054 0.245 7.27 518.8 7.39
9/1/2023 6:30:00 AM 19.96 67.92799 0.245 7.25 509.9 7.39
9/1/2023 6:45:00 AM 19.88 67.784 0.244 7.25 554.9 7.4
9/1/2023 7:00:00 AM 19.79 67.622 0.244 7.25 477.9 7.4
9/1/2023 7:15:00 AM 19.71 67.478 0.244 7.23 469.4 7.41
9/1/2023 7:30:00 AM 19.65 67.37 0.243 7.22 483.8 7.44
9/1/2023 7:45:00 AM 19.59 67.262 0.243 7.21 792.5 7.46
9/1/2023 8:00:00 AM 19.57 67.226 0.242 7.21 826.2 7.49
9/1/2023 8:15:00 AM 19.49 67.082 0.242 7.2 808.8 7.49
9/1/2023 8:30:00 AM 19.47 67.046 0.242 7.19 779.3 7.51
9/1/2023 8:45:00 AM 19.48 67.064 0.241 7.18 775.9 7.55
9/1/2023 9:00:00 AM 19.46 67.028 0.241 7.15 694 7.59
9/1/2023 9:15:00 AM 19.46 67.028 0.241 7.14 692.6 7.65
9/1/2023 9:30:00 AM 19.46 67.028 0.24 7.14 685.7 7.72
9/1/2023 9:45:00 AM 19.45 67.01 0.24 7.2 698.5 7.77
9/1/2023 10:00:00 AM 19.47 67.046 0.239 7.19 691.5 7.84
9/1/2023 10:15:00 AM 19.5 67.1 0.239 7.19 650.9 7.94
9/1/2023 10:30:00 AM 19.55 67.19 0.239 7.2 668.9 8.08
9/1/2023 10:45:00 AM 19.68 67.424 0.238 7.22 667 8.27
9/1/2023 11:00:00 AM 19.83 67.694 0.238 7.22 664.6 8.42
9/1/2023 11:15:00 AM 19.98 67.964 0.238 7.23 656.2 8.58
9/1/2023 11:30:00 AM 20.27 68.486 0.238 7.25 654.8 8.77
9/1/2023 11:45:00 AM 20.52 68.936 0.238 6.87 643.4 8.98
9/1/2023 12:00:00 PM 20.83 69.494 0.237 6.9 658 9.17
9/1/2023 12:15:00 PM 21.22 70.196 0.237 6.91 633.3 9.4
9/1/2023 12:30:00 PM 21.57 70.826 0.237 7.1 642.6 9.59
9/1/2023 12:45:00 PM 21.82 71.276 0.237 7.04 622.9 9.75
9/1/2023 1:00:00 PM 22.11 71.798 0.237 7.11 670.6 9.93
9/1/2023 1:15:00 PM 22.37 72.266 0.237 7.22 609.2 10.08
9/1/2023 1:30:00 PM 22.71 72.878 0.237 7.26 606.8 10.23
9/1/2023 1:45:00 PM 22.86 73.148 0.237 7.32 622.6 10.33
9/1/2023 2:00:00 PM 23.14 73.652 0.237 7.38 603.6 10.45
9/1/2023 2:15:00 PM 23.34 74.012 0.237 7.45 609.3 10.55
9/1/2023 2:30:00 PM 23.53 74.354 0.237 7.49 611 10.67
9/1/2023 2:45:00 PM 23.77 74.786 0.237 7.56 614.6 10.81
9/1/2023 3:00:00 PM 23.91 75.038 0.237 7.64 582.7 10.88
9/1/2023 3:15:00 PM 23.99 75.182 0.237 7.72 578.3 10.93
9/1/2023 3:30:00 PM 24.14 75.452 0.237 7.93 587.1 11
9/1/2023 3:45:00 PM 24.28 75.704 0.237 7.98 625.4 11.05
9/1/2023 4:00:00 PM 24.22 75.596 0.237 7.99 612.9 11.07
9/1/2023 4:15:00 PM 24.24 75.632 0.237 8.04 505.4 11.08
9/1/2023 4:30:00 PM 24.21 75.578 0.237 8.14 560.3 10.96
9/1/2023 4:45:00 PM 24.15 75.47 0.237 8.18 556.6 10.89
9/1/2023 5:00:00 PM 24.03 75.254 0.237 8.18 566.4 10.79
9/1/2023 5:15:00 PM 23.98 75.164 0.237 8.21 577.2 10.72
9/1/2023 5:30:00 PM 23.91 75.038 0.238 8.17 566.3 10.59
9/1/2023 5:45:00 PM 23.85 74.93 0.238 8.19 568.8 10.54
9/1/2023 6:00:00 PM 23.75 74.75 0.238 8.23 605.9 10.39
9/1/2023 6:15:00 PM 23.68 74.624 0.238 8.24 533.3 10.29
9/1/2023 6:30:00 PM 23.61 74.498 0.238 8.23 525.2 10.17
9/1/2023 6:45:00 PM 23.56 74.408 0.238 8.24 551.8 10.1
9/1/2023 7:00:00 PM 23.5 74.3 0.239 8.23 574.6 10
9/1/2023 7:15:00 PM 23.41 74.138 0.239 8.01 557.6 9.9
9/1/2023 7:30:00 PM 23.33 73.994 0.239 8 547.4 9.76
9/1/2023 7:45:00 PM 23.24 73.832 0.239 7.98 557.4 9.68
9/1/2023 8:00:00 PM 23.13 73.634 0.239 7.95 542.2 9.57
9/1/2023 8:15:00 PM 23 73.4 0.239 7.93 550.5 9.44
9/1/2023 8:30:00 PM 22.9 73.22 0.24 7.88 565.9 9.32
9/1/2023 8:45:00 PM 22.77 72.986 0.24 7.84 592.5 9.19
9/1/2023 9:00:00 PM 22.65 72.77 0.24 7.78 601.5 9.08
9/1/2023 9:15:00 PM 22.52 72.536 0.237 7.75 586.8 8.98
9/1/2023 9:30:00 PM 22.39 72.302 0.239 7.7 630.4 8.86
9/1/2023 9:45:00 PM 22.28 72.104 0.24 7.65 632.6 8.74
9/1/2023 10:00:00 PM 22.14 71.852 0.234 7.58 588.6 8.62
9/1/2023 10:15:00 PM 22.03 71.654 0.24 7.56 625.5 8.55
9/1/2023 10:30:00 PM 21.92 71.456 0.24 7.51 599.7 8.46
9/1/2023 10:45:00 PM 21.81 71.258 0.24 7.47 590.8 8.38
9/1/2023 11:00:00 PM 21.69 71.042 0.24 7.43 614.7 8.3
9/1/2023 11:15:00 PM 21.58 70.844 0.24 7.38 636 8.23
9/1/2023 11:30:00 PM 21.49 70.682 0.24 7.65 615.2 8.17
9/1/2023 11:45:00 PM 21.41 70.538 0.24 7.64 607.8 8.09
9/2/2023 12:00:00 AM 21.29 70.32201 0.24 7.59 635.6 8.04
9/2/2023 12:15:00 AM 21.2 70.16 0.24 7.58 659.4 7.98
9/2/2023 12:30:00 AM 21.12 70.016 0.24 7.55 663.4 7.93
9/2/2023 12:45:00 AM 21.03 69.854 0.24 7.51 710 7.89
9/2/2023 1:00:00 AM 20.94 69.692 0.24 7.49 782.1 7.83
9/2/2023 1:15:00 AM 20.84 69.512 0.24 7.47 753.6 7.77
9/2/2023 1:30:00 AM 20.75 69.35 0.24 7.45 790.3 7.74
9/2/2023 1:45:00 AM 20.67 69.206 0.24 7.44 729.5 7.71
9/2/2023 2:00:00 AM 20.57 69.026 0.24 7.42 713.9 7.7
9/2/2023 2:15:00 AM 20.48 68.864 0.24 7.4 679.2 7.66
9/2/2023 2:30:00 AM 20.41 68.738 0.24 7.38 689.1 7.64
9/2/2023 2:45:00 AM 20.32 68.576 0.24 7.36 688.4 7.61
9/2/2023 3:00:00 AM 20.23 68.414 0.24 7.34 660.5 7.6
9/2/2023 3:15:00 AM 20.16 68.288 0.24 7.33 709.8 7.58
9/2/2023 3:30:00 AM 20.08 68.144 0.239 7.32 683.6 7.58
9/2/2023 3:45:00 AM 20.01 68.018 0.239 7.3 672.4 7.55
9/2/2023 4:00:00 AM 19.94 67.892 0.239 7.29 689.2 7.56
9/2/2023 4:15:00 AM 19.87 67.766 0.239 7.3 682.9 7.55
9/2/2023 4:30:00 AM 19.81 67.658 0.239 7.3 708.2 7.55
9/2/2023 4:45:00 AM 19.75 67.55 0.239 7.28 684 7.54
9/2/2023 5:00:00 AM 19.67 67.406 0.239 7.28 719.2 7.54
9/2/2023 5:15:00 AM 19.6 67.28 0.238 7.25 701.8 7.55
9/2/2023 5:30:00 AM 19.56 67.208 0.238 7.27 740.2 7.51
9/2/2023 5:45:00 AM 19.49 67.082 0.238 7.25 715.7 7.51
9/2/2023 6:00:00 AM 19.43 66.974 0.238 7.25 685.1 7.52
9/2/2023 6:15:00 AM 19.41 66.938 0.238 7.23 715.1 7.53
9/2/2023 6:30:00 AM 19.33 66.794 0.238 7.23 708.7 7.54
9/2/2023 6:45:00 AM 19.24 66.632 0.238 7.2 772.3 7.54
9/2/2023 7:00:00 AM 19.21 66.578 0.237 7.2 828.2 7.55
9/2/2023 7:15:00 AM 19.16 66.488 0.237 7.19 826.4 7.56
9/2/2023 7:30:00 AM 19.13 66.434 0.237 7.18 841.5 7.58
9/2/2023 7:45:00 AM 19.11 66.398 0.237 7.2 795.5 7.6
9/2/2023 8:00:00 AM 19.06 66.308 0.237 7.19 880.3 7.63
9/2/2023 8:15:00 AM 19.08 66.344 0.237 7.19 979.6 7.65
9/2/2023 8:30:00 AM 19.06 66.308 0.237 7.17 891.7 7.68
9/2/2023 8:45:00 AM 19.06 66.308 0.237 7.17 924.6 7.7
9/2/2023 9:00:00 AM 19.08 66.344 0.237 7.17 958.6 7.74
9/2/2023 9:15:00 AM 19.09 66.362 0.237 7.16 900 7.77
9/2/2023 9:30:00 AM 19.08 66.344 0.237 7.13 957.6 7.82
9/2/2023 9:45:00 AM 19.11 66.398 0.237 7.14 897.1 7.91
9/2/2023 10:00:00 AM 19.13 66.434 0.237 7.11 983.4 7.99
9/2/2023 10:15:00 AM 19.19 66.542 0.237 7.13 955.3 8.1
9/2/2023 10:30:00 AM 19.29 66.722 0.237 7.12 998.9 8.25
9/2/2023 10:45:00 AM 19.42 66.956 0.237 7.16 955.6 8.41
9/2/2023 11:00:00 AM 19.58 67.244 0.237 7.15 1001 8.61
9/2/2023 11:15:00 AM 19.83 67.694 0.237 7.14 948.5 8.83
9/2/2023 11:30:00 AM 20.12 68.216 0.237 7.16 978.7 9.06
9/2/2023 11:45:00 AM 20.42 68.756 0.237 7.15 939.5 9.28
9/2/2023 12:00:00 PM 20.79 69.422 0.237 7.15 966.7 9.51
9/2/2023 12:15:00 PM 21.22 70.196 0.237 7.15 913.6 9.73
9/2/2023 12:30:00 PM 21.69 71.042 0.237 7.19 884.5 10
9/2/2023 12:45:00 PM 21.99 71.582 0.238 7.25 827.3 10.15
9/2/2023 1:00:00 PM 22.25 72.05 0.238 7.35 789 10.31
9/2/2023 1:15:00 PM 22.47 72.446 0.238 7.39 818.1 10.41
9/2/2023 1:30:00 PM 22.76 72.968 0.238 7.48 804.3 10.6
9/2/2023 1:45:00 PM 22.85 73.13 0.238 7.52 798.5 10.66
9/2/2023 2:00:00 PM 23.15 73.67 0.238 7.6 797.5 10.82
9/2/2023 2:15:00 PM 23.37 74.066 0.239 7.67 779.3 10.95
9/2/2023 2:30:00 PM 23.53 74.354 0.239 7.75 795 11.05
9/2/2023 2:45:00 PM 23.78 74.804 0.239 7.8 923.8 11.16
9/2/2023 3:00:00 PM 24 75.2 0.239 7.87 927.5 11.23
9/2/2023 3:15:00 PM 24.13 75.434 0.239 7.93 962 11.29
9/2/2023 3:30:00 PM 24.2 75.56 0.239 8.04 991.6 11.3
9/2/2023 3:45:00 PM 24.25 75.65 0.24 8.11 1024 11.36
9/2/2023 4:00:00 PM 24.32 75.776 0.24 8.15 979.2 11.34
9/2/2023 4:15:00 PM 24.21 75.578 0.24 8.2 960 11.32
9/2/2023 4:30:00 PM 24.2 75.56 0.24 8.3 967.2 11.21
9/2/2023 4:45:00 PM 24.14 75.452 0.24 8.31 943.7 11.14
9/2/2023 5:00:00 PM 24.09 75.362 0.241 8.32 962 11.06
9/2/2023 5:15:00 PM 24.05 75.29 0.241 8.32 975.4 10.89
9/2/2023 5:30:00 PM 24.04 75.272 0.241 8.28 965.2 10.83
9/2/2023 5:45:00 PM 24.01 75.218 0.241 8.3 955.6 10.74
9/2/2023 6:00:00 PM 23.98 75.164 0.241 8.36 979.7 10.56
9/2/2023 6:15:00 PM 23.94 75.092 0.242 8.35 933.8 10.56
9/2/2023 6:30:00 PM 23.92 75.056 0.242 8.33 931.9 10.43
9/2/2023 6:45:00 PM 23.89 75.002 0.242 8.31 936.1 10.29
9/2/2023 7:00:00 PM 23.89 75.002 0.242 8.29 897 10.24
9/2/2023 7:15:00 PM 23.85 74.93 0.243 8.28 1211 10.13
9/2/2023 7:30:00 PM 23.8 74.84 0.243 8.26 1084 10
9/2/2023 7:45:00 PM 23.74 74.732 0.243 8.23 976.7 9.85
9/2/2023 8:00:00 PM 23.68 74.624 0.243 8.2 1064 9.74
9/2/2023 8:15:00 PM 23.61 74.498 0.244 8.19 1008 9.64
9/2/2023 8:30:00 PM 23.51 74.318 0.244 8.18 944 9.53
9/2/2023 8:45:00 PM 23.43 74.174 0.244 8.13 922.4 9.42
9/2/2023 9:00:00 PM 23.33 73.994 0.244 8.1 931.7 9.22
9/2/2023 9:15:00 PM 23.23 73.814 0.245 8.05 977.6 9.12
9/2/2023 9:30:00 PM 23.13 73.634 0.245 8 997 8.98
9/2/2023 9:45:00 PM 23.02 73.436 0.245 7.95 939.4 8.87
9/2/2023 10:00:00 PM 22.92 73.256 0.245 7.89 913.6 8.73
9/2/2023 10:15:00 PM 22.84 73.112 0.245 7.84 908.6 8.61
9/2/2023 10:30:00 PM 22.75 72.95 0.246 7.78 899 8.5
9/2/2023 10:45:00 PM 22.67 72.806 0.246 7.76 930.1 8.38
9/2/2023 11:00:00 PM 22.59 72.662 0.246 7.72 919.1 8.3
9/2/2023 11:15:00 PM 22.51 72.518 0.246 7.66 943.1 8.23
9/2/2023 11:30:00 PM 22.45 72.41 0.246 7.63 957.1 8.14
9/2/2023 11:45:00 PM 22.39 72.302 0.246 7.58 948.1 8.05
9/3/2023 12:00:00 AM 22.31 72.158 0.246 7.56 981.9 7.97
9/3/2023 12:15:00 AM 22.26 72.068 0.246 7.5 967.9 7.88
9/3/2023 12:30:00 AM 22.22 71.996 0.247 7.46 1016 7.83
9/3/2023 12:45:00 AM 22.17 71.906 0.247 7.42 981.2 7.78
9/3/2023 1:00:00 AM 22.11 71.798 0.247 7.39 1032 7.71
9/3/2023 1:15:00 AM 22.05 71.69 0.247 7.38 1022 7.65
9/3/2023 1:30:00 AM 22 71.6 0.247 7.37 1026 7.6
9/3/2023 1:45:00 AM 21.95 71.51 0.247 7.36 1052 7.52
9/3/2023 2:00:00 AM 21.9 71.42 0.247 7.35 1059 7.48
9/3/2023 2:15:00 AM 21.85 71.33 0.247 7.35 1071 7.43
9/3/2023 2:30:00 AM 21.81 71.258 0.247 7.34 1098 7.41
9/3/2023 2:45:00 AM 21.75 71.15 0.247 7.32 1098 7.36
9/3/2023 3:00:00 AM 21.7 71.06 0.247 7.31 1135 7.33
9/3/2023 3:15:00 AM 21.65 70.97 0.247 7.31 1124 7.31
9/3/2023 3:30:00 AM 21.6 70.88 0.247 7.3 1132 7.28
9/3/2023 3:45:00 AM 21.55 70.79 0.248 7.28 1146 7.24
9/3/2023 4:00:00 AM 21.51 70.718 0.247 7.28 1143 7.24
9/3/2023 4:15:00 AM 21.45 70.61 0.247 7.26 1357 7.2
9/3/2023 4:30:00 AM 21.42 70.556 0.248 7.25 1271 7.21
9/3/2023 4:45:00 AM 21.37 70.466 0.248 7.25 1206 7.17
9/3/2023 5:00:00 AM 21.32 70.376 0.247 7.25 1183 7.16
9/3/2023 5:15:00 AM 21.3 70.34 0.248 7.24 1250 7.14
9/3/2023 5:30:00 AM 21.25 70.25 0.247 7.23 1239 7.14
9/3/2023 5:45:00 AM 21.2 70.16 0.247 7.23 1219 7.12
9/3/2023 6:00:00 AM 21.16 70.088 0.247 7.2 1196 7.12
9/3/2023 6:15:00 AM 21.12 70.016 0.247 7.19 1262 7.1
9/3/2023 6:30:00 AM 21.06 69.908 0.247 7.18 1179 7.05
9/3/2023 6:45:00 AM 21.03 69.854 0.247 7.18 1199 7.06
9/3/2023 7:00:00 AM 20.96 69.728 0.248 7.17 1175 7.07
9/3/2023 7:15:00 AM 20.97 69.746 0.248 7.17 1122 7.12
9/3/2023 7:30:00 AM 20.94 69.692 0.248 7.17 1121 7.1
9/3/2023 7:45:00 AM 20.9 69.62 0.248 7.17 1115 7.12
9/3/2023 8:00:00 AM 20.89 69.602 0.248 7.15 1215 7.15
9/3/2023 8:15:00 AM 20.9 69.62 0.248 7.13 1253 7.17
9/3/2023 8:30:00 AM 20.9 69.62 0.248 7.12 1160 7.21
9/3/2023 8:45:00 AM 20.91 69.638 0.248 7.09 1159 7.25
9/3/2023 9:00:00 AM 20.92 69.656 0.248 7.06 1132 7.29
9/3/2023 9:15:00 AM 20.95 69.71 0.247 7.05 1130 7.33
9/3/2023 9:30:00 AM 20.98 69.764 0.247 7.03 1144 7.41
9/3/2023 9:45:00 AM 21.02 69.836 0.247 7 1158 7.47
9/3/2023 10:00:00 AM 21.06 69.908 0.247 6.97 1155 7.58
9/3/2023 10:15:00 AM 21.12 70.016 0.247 6.95 1170 7.68
9/3/2023 10:30:00 AM 21.23 70.214 0.247 6.94 1196 7.86
9/3/2023 10:45:00 AM 21.38 70.484 0.247 6.94 1220 8.05
9/3/2023 11:00:00 AM 21.57 70.826 0.247 6.94 1172 8.26
9/3/2023 11:15:00 AM 21.81 71.258 0.247 6.97 1163 8.54
9/3/2023 11:30:00 AM 22.05 71.69 0.247 2.16 1165 8.79
9/3/2023 11:45:00 AM 22.35 72.23 0.247 2.61 1113 8.95
9/3/2023 12:00:00 PM 22.73 72.914 0.247 6.08 1095 9.26
9/3/2023 12:15:00 PM 23.17 73.706 0.246 5.18 1125 9.54
9/3/2023 12:30:00 PM 23.52 74.336 0.246 6.4 1125 9.75
9/3/2023 12:45:00 PM 23.85 74.93 0.247 6.42 1147 9.96
9/3/2023 1:00:00 PM 24.08 75.344 0.246 6.63 1105 10.05
9/3/2023 1:15:00 PM 24.26 75.668 0.246 6.36 1337 10.17
9/3/2023 1:30:00 PM 24.45 76.01 0.246 6.26 1272 10.31
9/3/2023 1:45:00 PM 24.65 76.37 0.246 5.82 1184 10.44
9/3/2023 2:00:00 PM 24.9 76.82 0.246 6.31 1179 10.62
9/3/2023 2:15:00 PM 25.1 77.18 0.246 6.78 1061 10.67
9/3/2023 2:30:00 PM 25.25 77.45 0.246 7.24 1108 10.82
9/3/2023 2:45:00 PM 25.4 77.72 0.246 7.59 922 10.94
9/3/2023 3:00:00 PM 25.63 78.134 0.246 7.86 928.8 11.03
9/3/2023 3:15:00 PM 25.69 78.242 0.245 8 908.2 11.12
9/3/2023 3:30:00 PM 25.81 78.458 0.245 8.12 959.2 11.21
9/3/2023 3:45:00 PM 25.88 78.584 0.245 8.21 883.2 11.2
9/3/2023 4:00:00 PM 25.84 78.512 0.245 8.24 903.4 11.26
9/3/2023 4:15:00 PM 25.86 78.548 0.245 8.28 876.7 11.25
9/3/2023 4:30:00 PM 25.78 78.404 0.245 8.34 1158 11.12
9/3/2023 4:45:00 PM 25.76 78.368 0.244 8.38 928.3 11.08
9/3/2023 5:00:00 PM 25.71 78.278 0.244 8.39 1111 10.95
9/3/2023 5:15:00 PM 25.71 78.278 0.244 8.4 1108 10.91
9/3/2023 5:30:00 PM 25.7 78.26 0.244 8.38 835.4 10.8
9/3/2023 5:45:00 PM 25.65 78.17 0.244 8.39 732.3 10.67
9/3/2023 6:00:00 PM 25.65 78.17 0.244 8.45 782.2 10.55
9/3/2023 6:15:00 PM 25.65 78.17 0.244 8.47 869 10.49
9/3/2023 6:30:00 PM 25.63 78.134 0.244 8.47 831.5 10.38
9/3/2023 6:45:00 PM 25.63 78.134 0.244 8.45 788.1 10.21
9/3/2023 7:00:00 PM 25.63 78.134 0.244 8.42 872.4 10.13
9/3/2023 7:15:00 PM 25.61 78.098 0.244 8.41 997.9 10.02
9/3/2023 7:30:00 PM 25.58 78.044 0.244 8.37 1021 9.83
9/3/2023 7:45:00 PM 25.55 77.99 0.244 8.34 943.1 9.7
9/3/2023 8:00:00 PM 25.5 77.9 0.244 8.31 977.7 9.56
9/3/2023 8:15:00 PM 25.44 77.792 0.244 8.28 1003 9.44
9/3/2023 8:30:00 PM 25.36 77.648 0.244 8.25 1035 9.31
9/3/2023 8:45:00 PM 25.27 77.486 0.244 8.21 1024 9.12
9/3/2023 9:00:00 PM 25.19 77.342 0.244 8.16 876.9 9
9/3/2023 9:15:00 PM 25.08 77.144 0.244 8.1 864.9 8.83
9/3/2023 9:30:00 PM 24.98 76.964 0.244 8.05 1010 8.7
9/3/2023 9:45:00 PM 24.88 76.784 0.244 8.01 974.5 8.57
9/3/2023 10:00:00 PM 24.78 76.604 0.244 7.95 965.9 8.4
9/3/2023 10:15:00 PM 24.68 76.424 0.244 7.9 1022 8.28
9/3/2023 10:30:00 PM 24.58 76.244 0.244 7.86 995.9 8.13
9/3/2023 10:45:00 PM 24.48 76.064 0.244 7.82 983.6 8.05
9/3/2023 11:00:00 PM 24.39 75.902 0.244 7.77 1018 7.92
9/3/2023 11:15:00 PM 24.32 75.776 0.244 7.72 1029 7.83
9/3/2023 11:30:00 PM 24.23 75.614 0.243 7.67 1028 7.74
9/3/2023 11:45:00 PM 24.15 75.47 0.243 7.63 1031 7.64
9/4/2023 12:00:00 AM 24.08 75.344 0.243 7.58 1029 7.55
9/4/2023 12:15:00 AM 24.02 75.236 0.243 7.54 1071 7.46
9/4/2023 12:30:00 AM 23.94 75.092 0.244 7.51 1069 7.38
9/4/2023 12:45:00 AM 23.87 74.966 0.243 7.47 1098 7.31
9/4/2023 1:00:00 AM 23.81 74.858 0.243 7.43 1094 7.22
9/4/2023 1:15:00 AM 23.75 74.75 0.243 7.41 1095 7.15
9/4/2023 1:30:00 AM 23.7 74.66 0.243 7.38 1070 7.09
9/4/2023 1:45:00 AM 23.66 74.588 0.243 7.36 1109 7.02
9/4/2023 2:00:00 AM 23.6 74.48 0.243 7.33 1095 6.99
9/4/2023 2:15:00 AM 23.56 74.408 0.243 7.32 1163 6.93
9/4/2023 2:30:00 AM 23.52 74.336 0.241 7.31 1149 6.9
9/4/2023 2:45:00 AM 23.46 74.228 0.243 7.28 1191 6.86
9/4/2023 3:00:00 AM 23.4 74.12 0.242 7.27 1240 6.82
9/4/2023 3:15:00 AM 23.38 74.084 0.243 7.25 1203 6.8
9/4/2023 3:30:00 AM 23.31 73.958 0.243 7.22 1238 6.77
9/4/2023 3:45:00 AM 23.27 73.886 0.242 7.22 1209 6.72
9/4/2023 4:00:00 AM 23.23 73.814 0.243 7.21 1213 6.69
9/4/2023 4:15:00 AM 23.19 73.742 0.243 7.18 1232 6.68
9/4/2023 4:30:00 AM 23.17 73.706 0.243 7.17 1229 6.66
9/4/2023 4:45:00 AM 23.12 73.616 0.243 7.15 1210 6.64
9/4/2023 5:00:00 AM 23.09 73.562 0.242 7.13 1210 6.62
9/4/2023 5:15:00 AM 23.05 73.49 0.241 7.12 1211 6.61
9/4/2023 5:30:00 AM 23.02 73.436 0.242 7.11 1242 6.6
9/4/2023 5:45:00 AM 22.98 73.364 0.242 7.11 1211 6.59
9/4/2023 6:00:00 AM 22.95 73.31 0.242 7.11 1284 6.57
9/4/2023 6:15:00 AM 22.93 73.274 0.242 7.09 1363 6.57
9/4/2023 6:30:00 AM 22.9 73.22 0.242 7.07 1336 6.58
9/4/2023 6:45:00 AM 22.88 73.184 0.242 7.07 1273 6.55
9/4/2023 7:00:00 AM 22.85 73.13 0.243 7.05 1322 6.52
9/4/2023 7:15:00 AM 22.84 73.112 0.242 7.06 1302 6.53
9/4/2023 7:30:00 AM 22.84 73.112 0.243 7.05 1202 6.51
9/4/2023 7:45:00 AM 22.84 73.112 0.243 7.04 1270 6.54
9/4/2023 8:00:00 AM 22.82 73.076 0.243 7.04 1221 6.56
9/4/2023 8:15:00 AM 22.84 73.112 0.243 7.01 1361 6.55
9/4/2023 8:30:00 AM 22.86 73.148 0.242 7 1369 6.61
9/4/2023 8:45:00 AM 22.88 73.184 0.243 6.97 1044 6.7
9/4/2023 9:00:00 AM 22.91 73.238 0.243 6.96 1186 6.74
9/4/2023 9:15:00 AM 22.96 73.328 0.243 6.94 1037 6.88
9/4/2023 9:30:00 AM 23 73.4 0.243 6.91 1056 6.99
9/4/2023 9:45:00 AM 23.07 73.526 0.243 6.91 1284 7.1
9/4/2023 10:00:00 AM 23.16 73.688 0.243 6.92 1318 7.27
9/4/2023 10:15:00 AM 23.23 73.814 0.243 6.94 1101 7.41
9/4/2023 10:30:00 AM 23.33 73.994 0.244 6.93 1013 7.56
9/4/2023 10:45:00 AM 23.45 74.21 0.244 6.94 1169 7.73
9/4/2023 11:00:00 AM 23.6 74.48 0.244 6.89 1078 7.89
9/4/2023 11:15:00 AM 23.71 74.67799 0.244 6.86 485.7 8.18
9/4/2023 11:30:00 AM 24 75.2 0.244 6.94 520.8 8.38
9/4/2023 11:45:00 AM 24.31 75.758 0.245 3.46 439.8 8.63
9/4/2023 12:00:00 PM 24.67 76.406 0.245 6.92 448.7 8.96
9/4/2023 12:15:00 PM 25.11 77.198 0.245 7.02 423.6 9.2
9/4/2023 12:30:00 PM 25.47 77.846 0.245 7.16 406.4 9.52
9/4/2023 12:45:00 PM 25.7 78.26 0.245 7.29 393.5 9.67
9/4/2023 1:00:00 PM 25.99 78.782 0.246 7.39 398.5 9.89
9/4/2023 1:15:00 PM 26.11 78.998 0.246 7.48 428.4 10.06
9/4/2023 1:30:00 PM 26.31 79.358 0.246 7.56 467.1 10.15
9/4/2023 1:45:00 PM 26.46 79.628 0.247 7.65 587.9 10.23
9/4/2023 2:00:00 PM 26.74 80.132 0.247 7.74 527.9 10.31
9/4/2023 2:15:00 PM 26.87 80.366 0.247 7.83 572.7 10.37
9/4/2023 2:30:00 PM 27.14 80.852 0.247 7.91 549.7 10.46
9/4/2023 2:45:00 PM 27.26 81.068 0.247 7.95 448.3 10.56
9/4/2023 3:00:00 PM 27.54 81.57201 0.248 8 450.8 10.66
9/4/2023 3:15:00 PM 27.73 81.914 0.248 8.06 485.3 10.73
9/4/2023 3:30:00 PM 27.79 82.022 0.248 8.15 477.9 10.8
9/4/2023 3:45:00 PM 27.81 82.058 0.248 8.24 547.8 10.85
9/4/2023 4:00:00 PM 27.7 81.86 0.248 8.29 514.2 10.76
9/4/2023 4:15:00 PM 27.63 81.734 0.248 8.34 541.9 10.78
9/4/2023 4:30:00 PM 27.59 81.662 0.249 8.4 470.8 10.74
9/4/2023 4:45:00 PM 27.57 81.626 0.249 8.42 474 10.65
9/4/2023 5:00:00 PM 27.53 81.554 0.249 8.43 273.2 10.59
9/4/2023 5:15:00 PM 27.52 81.536 0.249 8.44 320 10.43
9/4/2023 5:30:00 PM 27.46 81.42799 0.25 8.41 369.6 10.34
9/4/2023 5:45:00 PM 27.45 81.41 0.25 8.47 282.6 10.24
9/4/2023 6:00:00 PM 27.42 81.356 0.25 8.5 213.5 10.08
9/4/2023 6:15:00 PM 27.4 81.32 0.25 8.53 165.2 10
9/4/2023 6:30:00 PM 27.37 81.266 0.25 8.46 399.3 9.91
9/4/2023 6:45:00 PM 27.35 81.23 0.25 8.47 380.3 9.78
9/4/2023 7:00:00 PM 27.33 81.194 0.251 8.43 294.6 9.6
9/4/2023 7:15:00 PM 27.31 81.158 0.251 8.36 348.9 9.5
9/4/2023 7:30:00 PM 27.27 81.086 0.251 8.39 402.7 9.39
9/4/2023 7:45:00 PM 27.21 80.978 0.251 8.36 422.2 9.25
9/4/2023 8:00:00 PM 27.15 80.87 0.251 8.28 429 9.04
9/4/2023 8:15:00 PM 27.07 80.726 0.252 8.28 381.2 8.9
9/4/2023 8:30:00 PM 26.99 80.582 0.252 8.23 402.7 8.75
9/4/2023 8:45:00 PM 26.9 80.42 0.252 8.18 413.4 8.62
9/4/2023 9:00:00 PM 26.81 80.258 0.252 8.11 399.7 8.45
9/4/2023 9:15:00 PM 26.71 80.078 0.252 8.07 365.1 8.29
9/4/2023 9:30:00 PM 26.61 79.898 0.252 8.02 379.7 8.14
9/4/2023 9:45:00 PM 26.51 79.718 0.252 7.97 370.5 7.99
9/4/2023 10:00:00 PM 26.4 79.52 0.252 7.91 369.7 7.83
9/4/2023 10:15:00 PM 26.29 79.32201 0.252 7.85 341.2 7.7
9/4/2023 10:30:00 PM 26.19 79.142 0.253 7.81 266.4 7.58
9/4/2023 10:45:00 PM 26.1 78.98 0.253 7.73 334 7.43
9/4/2023 11:00:00 PM 26.02 78.836 0.252 7.68 249.5 7.32
9/4/2023 11:15:00 PM 25.94 78.692 0.252 7.63 277.1 7.21
9/4/2023 11:30:00 PM 25.86 78.548 0.252 7.58 230.6 7.13
9/4/2023 11:45:00 PM 25.79 78.422 0.252 7.53 209.5 7.04
9/5/2023 12:00:00 AM 25.7 78.26 0.252 7.47 245.2 6.92
9/5/2023 12:15:00 AM 25.63 78.134 0.252 7.45 297.5 6.85
9/5/2023 12:30:00 AM 25.56 78.008 0.252 7.41 276 6.78
9/5/2023 12:45:00 AM 25.49 77.882 0.252 7.37 235.2 6.71
9/5/2023 1:00:00 AM 25.45 77.81 0.251 7.35 246.6 6.62
9/5/2023 1:15:00 AM 25.41 77.738 0.251 7.28 240.1 6.55
9/5/2023 1:30:00 AM 25.36 77.648 0.251 7.25 211.2 6.47
9/5/2023 1:45:00 AM 25.3 77.54 0.251 7.24 218.2 6.44
9/5/2023 2:00:00 AM 25.26 77.468 0.25 7.11 268.2 6.38
9/5/2023 2:15:00 AM 25.21 77.378 0.25 7.13 219.1 6.35
9/5/2023 2:30:00 AM 25.16 77.288 0.25 7.16 221.4 6.29
9/5/2023 2:45:00 AM 25.08 77.144 0.25 7.16 232.8 6.29
9/5/2023 3:00:00 AM 25.03 77.054 0.249 7.05 220 6.26
9/5/2023 3:15:00 AM 24.98 76.964 0.249 7.05 209.2 6.22
9/5/2023 3:30:00 AM 24.93 76.874 0.249 7.04 210.4 6.2
9/5/2023 3:45:00 AM 24.85 76.73 0.248 7.04 214.1 6.16
9/5/2023 4:00:00 AM 24.79 76.622 0.248 7.08 204.7 6.13
9/5/2023 4:15:00 AM 24.75 76.55 0.248 7.1 220 6.12
9/5/2023 4:30:00 AM 24.68 76.424 0.247 7.05 219.2 6.09
9/5/2023 4:45:00 AM 24.61 76.298 0.247 7.07 233.5 6.1
9/5/2023 5:00:00 AM 24.55 76.19 0.246 7.1 229.3 6.06
9/5/2023 5:15:00 AM 24.5 76.1 0.246 7.04 204.5 6.05
9/5/2023 5:30:00 AM 24.43 75.974 0.246 7.09 247.1 6.07
9/5/2023 5:45:00 AM 24.37 75.866 0.245 7.08 250.8 6.03
9/5/2023 6:00:00 AM 24.34 75.812 0.245 7.07 249.5 6.01
9/5/2023 6:15:00 AM 24.29 75.722 0.245 7.06 288.1 6.03
9/5/2023 6:30:00 AM 24.25 75.65 0.244 6.99 265.6 6.03
9/5/2023 6:45:00 AM 24.21 75.578 0.244 7.04 272.8 6
9/5/2023 7:00:00 AM 24.16 75.488 0.244 7.03 260.3 5.97
9/5/2023 7:15:00 AM 24.14 75.452 0.243 6.96 275.1 6.01
9/5/2023 7:30:00 AM 24.13 75.434 0.243 6.96 263.8 6.02
9/5/2023 7:45:00 AM 24.11 75.398 0.243 6.94 267.5 6.06
9/5/2023 8:00:00 AM 24.13 75.434 0.243 6.96 260.8 6.09
9/5/2023 8:15:00 AM 24.14 75.452 0.242 6.86 235.1 6.14
9/5/2023 8:30:00 AM 24.14 75.452 0.242 6.93 226.4 6.21
9/5/2023 8:45:00 AM 24.15 75.47 0.242 6.89 246 6.24
9/5/2023 9:00:00 AM 24.14 75.452 0.242 6.86 1183 6.23
9/5/2023 9:15:00 AM 24.16 75.488 0.241 6.83 137.5 6.31
9/5/2023 9:30:00 AM 24.19 75.542 0.241 6.87 755.3 6.4
9/5/2023 9:45:00 AM 24.22 75.596 0.241 6.88 764 6.51
9/5/2023 10:00:00 AM 24.24 75.632 0.241 6.86 799 6.64
9/5/2023 10:15:00 AM 24.29 75.722 0.24 6.82 222.2 6.74
9/5/2023 10:30:00 AM 24.38 75.884 0.24 6.85 629.4 6.87
9/5/2023 10:45:00 AM 24.49 76.082 0.24 6.89 1152 7.11
9/5/2023 11:00:00 AM 24.65 76.37 0.24 6.93 1.9 7.34
9/5/2023 11:15:00 AM 24.91 76.838 0.24 7 1.72 7.65
9/5/2023 11:30:00 AM 25.15 77.27 0.239 7.05 2.12 7.91
9/5/2023 11:45:00 AM 25.46 77.828 0.239 7.07 2.52 8.19
9/5/2023 12:00:00 PM 25.86 78.548 0.239 7.18 2.21 8.49
9/5/2023 12:15:00 PM 26.29 79.32201 0.239 7.2 2.51 8.8
9/5/2023 12:30:00 PM 26.74 80.132 0.239 7.35 2.75 9.06
9/5/2023 12:45:00 PM 26.9 80.42 0.239 7.44 2.44 9.24
9/5/2023 1:00:00 PM 27.19 80.942 0.239 7.54 2.24 9.47
9/5/2023 1:15:00 PM 27.51 81.518 0.239 7.62 2.15 9.65
9/5/2023 1:30:00 PM 27.5 81.5 0.239 7.67 2.39 9.77
9/5/2023 1:45:00 PM 27.75 81.95 0.238 7.76 2.29 9.87
9/5/2023 2:00:00 PM 27.74 81.932 0.238 7.82 3.24 10.01
9/5/2023 2:15:00 PM 27.74 81.932 0.238 7.89 2.93 9.98
9/5/2023 2:30:00 PM 27.8 82.04 0.238 7.95 3.86 10.03
9/5/2023 2:45:00 PM 28.06 82.508 0.238 7.99 2.34 10.27
9/5/2023 3:00:00 PM 28.25 82.85 0.238 8.07 1.97 10.41
9/5/2023 3:15:00 PM 28.41 83.138 0.238 8.18 2.51 10.51
9/5/2023 3:30:00 PM 28.52 83.336 0.238 8.24 2.41 10.57
9/5/2023 3:45:00 PM 28.68 83.624 0.237 8.3 2.56 10.62
9/5/2023 4:00:00 PM 28.62 83.51601 0.237 8.35 2.82 10.62
9/5/2023 4:15:00 PM 28.54 83.372 0.237 8.42 3.06 10.52
9/5/2023 4:30:00 PM 28.47 83.24599 0.237 8.47 2.62 10.52
9/5/2023 4:45:00 PM 28.44 83.192 0.237 8.49 4.54 10.41
9/5/2023 5:00:00 PM 28.32 82.976 0.237 8.5 2.37 10.29
9/5/2023 5:15:00 PM 28.27 82.886 0.237 8.5 2.59 10.24
9/5/2023 5:30:00 PM 28.24 82.832 0.237 8.5 2.42 10.15
9/5/2023 5:45:00 PM 28.22 82.796 0.237 8.5 3.33 10.06
9/5/2023 6:00:00 PM 28.22 82.796 0.237 8.53 2.72 9.96
9/5/2023 6:15:00 PM 28.23 82.814 0.236 8.54 2.83 9.91
9/5/2023 6:30:00 PM 28.2 82.76 0.237 8.52 2.91 9.76
9/5/2023 6:45:00 PM 28.19 82.742 0.236 8.51 2.54 9.62
9/5/2023 7:00:00 PM 28.18 82.724 0.236 8.51 2.79 9.52
9/5/2023 7:15:00 PM 28.16 82.688 0.236 8.48 2.79 9.34
9/5/2023 7:30:00 PM 28.11 82.598 0.237 8.45 3.65 9.15
9/5/2023 7:45:00 PM 28.05 82.49 0.237 8.43 3.73 9.01
9/5/2023 8:00:00 PM 28.01 82.418 0.237 8.41 3.18 8.84
9/5/2023 8:15:00 PM 27.97 82.346 0.237 8.38 3.41 8.69
9/5/2023 8:30:00 PM 27.9 82.22 0.237 8.33 3.09 8.56
9/5/2023 8:45:00 PM 27.82 82.076 0.237 8.29 3.24 8.37
9/5/2023 9:00:00 PM 27.73 81.914 0.237 8.24 3.54 8.25
9/5/2023 9:15:00 PM 27.64 81.752 0.237 8.2 3.26 8.08
9/5/2023 9:30:00 PM 27.54 81.57201 0.237 8.14 3.41 7.97
9/5/2023 9:45:00 PM 27.44 81.392 0.237 8.08 4.08 7.8
9/5/2023 10:00:00 PM 27.35 81.23 0.237 8.03 4.8 7.64
9/5/2023 10:15:00 PM 27.25 81.05 0.237 7.97 3.67 7.51
9/5/2023 10:30:00 PM 27.15 80.87 0.237 7.91 4.66 7.37
9/5/2023 10:45:00 PM 27.04 80.672 0.237 7.86 4.5 7.25
9/5/2023 11:00:00 PM 26.94 80.492 0.237 7.8 4.53 7.11
9/5/2023 11:15:00 PM 26.84 80.312 0.237 7.75 4.54 7.02
9/5/2023 11:30:00 PM 26.74 80.132 0.237 7.71 4.5 6.92
9/5/2023 11:45:00 PM 26.66 79.988 0.237 7.67 4.62 6.85
9/6/2023 12:00:00 AM 26.57 79.826 0.237 7.63 4.87 6.75
9/6/2023 12:15:00 AM 26.49 79.682 0.237 7.6 5.5 6.65
9/6/2023 12:30:00 AM 26.42 79.556 0.236 7.56 5.26 6.58
9/6/2023 12:45:00 AM 26.32 79.376 0.237 7.53 5.29 6.49
9/6/2023 1:00:00 AM 26.25 79.25 0.237 7.49 5.42 6.42
9/6/2023 1:15:00 AM 26.18 79.124 0.236 7.44 5.5 6.37
9/6/2023 1:30:00 AM 26.09 78.962 0.236 7.42 5.73 6.3
9/6/2023 1:45:00 AM 26.02 78.836 0.236 7.4 5.96 6.24
9/6/2023 2:00:00 AM 25.95 78.71 0.236 7.4 6.42 6.22
9/6/2023 2:15:00 AM 25.87 78.566 0.236 7.37 6.09 6.14
9/6/2023 2:30:00 AM 25.8 78.44 0.236 7.34 5.97 6.1
9/6/2023 2:45:00 AM 25.74 78.332 0.235 7.33 6.28 6.07
9/6/2023 3:00:00 AM 25.67 78.206 0.235 7.32 6.62 6.05
9/6/2023 3:15:00 AM 25.6 78.08 0.236 7.3 7.09 6.03
9/6/2023 3:30:00 AM 25.54 77.972 0.236 7.29 7.03 6
9/6/2023 3:45:00 AM 25.47 77.846 0.235 7.28 7.43 5.96
9/6/2023 4:00:00 AM 25.42 77.756 0.235 7.27 7.46 5.92
9/6/2023 4:15:00 AM 25.38 77.684 0.235 7.25 7.69 5.93
9/6/2023 4:30:00 AM 25.3 77.54 0.235 7.25 7.23 5.9
9/6/2023 4:45:00 AM 25.21 77.378 0.235 7.25 8.67 5.88
9/6/2023 5:00:00 AM 25.15 77.27 0.235 7.23 7.95 5.87
9/6/2023 5:15:00 AM 25.09 77.162 0.235 7.22 8.42 5.84
9/6/2023 5:30:00 AM 25.02 77.036 0.234 7.22 9.01 5.86
9/6/2023 5:45:00 AM 24.96 76.92799 0.234 7.21 8.63 5.82
9/6/2023 6:00:00 AM 24.94 76.892 0.233 7.2 9.3 5.82
9/6/2023 6:15:00 AM 24.86 76.748 0.234 7.18 8.84 5.84
9/6/2023 6:30:00 AM 24.82 76.676 0.234 7.16 8.55 5.84
9/6/2023 6:45:00 AM 24.75 76.55 0.234 7.16 8.42 5.83
9/6/2023 7:00:00 AM 24.7 76.46 0.234 7.15 7.63 5.83
9/6/2023 7:15:00 AM 24.65 76.37 0.234 7.15 7.36 5.81
9/6/2023 7:30:00 AM 24.64 76.352 0.234 7.14 8.35 5.81
9/6/2023 7:45:00 AM 24.59 76.262 0.234 7.12 7.5 5.85
9/6/2023 8:00:00 AM 24.6 76.28 0.233 7.11 9.14 5.87
9/6/2023 8:15:00 AM 24.59 76.262 0.233 7.11 8.78 5.89
9/6/2023 8:30:00 AM 24.58 76.244 0.233 7.11 43.52 5.93
9/6/2023 8:45:00 AM 24.59 76.262 0.233 7.07 7.82 5.97
9/6/2023 9:00:00 AM 24.6 76.28 0.233 7.05 7.15 6.01
9/6/2023 9:15:00 AM 24.65 76.37 0.233 7.05 9.9 6.12
9/6/2023 9:30:00 AM 24.72 76.496 0.233 7.05 8.63 6.25
9/6/2023 9:45:00 AM 24.8 76.64 0.232 7.06 7.8 6.41
9/6/2023 10:00:00 AM 24.84 76.712 0.233 7.05 9.27 6.52
9/6/2023 10:15:00 AM 24.89 76.802 0.233 7.05 9.39 6.58
9/6/2023 10:30:00 AM 25.01 77.018 0.233 7.04 10.26 6.74
9/6/2023 10:45:00 AM 25.13 77.234 0.233 7.06 15.01 7.04
9/6/2023 11:00:00 AM 25.24 77.432 0.233 7.12 15.98 7.27
9/6/2023 11:15:00 AM 25.42 77.756 0.233 7.12 15.43 7.51
9/6/2023 11:30:00 AM 25.68 78.224 0.233 7.14 13.93 7.74
9/6/2023 11:45:00 AM 25.97 78.746 0.233 7.18 13.24 8.12
9/6/2023 12:00:00 PM 26.19 79.142 0.233 7.22 13.27 8.3
9/6/2023 12:15:00 PM 26.7 80.06 0.233 7.25 14.97 8.59
9/6/2023 12:30:00 PM 27.16 80.888 0.233 7.33 12.67 8.89
9/6/2023 12:45:00 PM 26.93 80.474 0.233 7.42 15.26 8.89
9/6/2023 1:00:00 PM 27.25 81.05 0.233 7.49 16.04 9.09
9/6/2023 1:15:00 PM 27.27 81.086 0.233 7.55 18.28 9.18
9/6/2023 1:30:00 PM 27.6 81.68 0.233 7.64 18.94 9.52
9/6/2023 1:45:00 PM 27.83 82.094 0.233 7.73 12.98 9.68
9/6/2023 2:00:00 PM 28.14 82.652 0.233 7.83 12.99 9.82
9/6/2023 2:15:00 PM 28.43 83.174 0.234 7.92 13.97 10.01
9/6/2023 2:30:00 PM 28.31 82.958 0.234 7.96 18.38 9.99
9/6/2023 2:45:00 PM 28.43 83.174 0.234 8.03 16.64 10.04
9/6/2023 3:00:00 PM 28.56 83.408 0.234 8.05 23.12 10.2
9/6/2023 3:15:00 PM 28.72 83.696 0.234 8.17 27.9 10.31
9/6/2023 3:30:00 PM 28.66 83.588 0.234 8.24 38 10.25
9/6/2023 3:45:00 PM 28.76 83.768 0.234 8.28 23.2 10.45
9/6/2023 4:00:00 PM 28.82 83.876 0.234 8.35 38.95 10.33
9/6/2023 4:15:00 PM 28.71 83.67799 0.234 8.41 27.38 10.28
9/6/2023 4:30:00 PM 28.57 83.426 0.234 8.42 39.27 10.29
9/6/2023 4:45:00 PM 28.59 83.462 0.234 8.44 40.13 10.21
9/6/2023 5:00:00 PM 28.55 83.39 0.234 8.45 36.63 10.11
9/6/2023 5:15:00 PM 28.52 83.336 0.234 8.47 42.48 10.09
9/6/2023 5:30:00 PM 28.49 83.282 0.234 8.47 40.69 9.98
9/6/2023 5:45:00 PM 28.45 83.21001 0.235 8.49 28.28 9.87
9/6/2023 6:00:00 PM 28.41 83.138 0.235 8.51 30.63 9.72
9/6/2023 6:15:00 PM 28.37 83.066 0.235 8.48 30.05 9.56
9/6/2023 6:30:00 PM 28.34 83.012 0.235 8.48 26.9 9.46
9/6/2023 6:45:00 PM 28.31 82.958 0.235 8.47 29.33 9.36
9/6/2023 7:00:00 PM 28.29 82.922 0.235 8.44 29.89 9.19
9/6/2023 7:15:00 PM 28.27 82.886 0.235 8.42 30.55 9.04
9/6/2023 7:30:00 PM 28.21 82.778 0.236 8.39 31.09 8.89
9/6/2023 7:45:00 PM 28.18 82.724 0.236 8.38 30.1 8.79
9/6/2023 8:00:00 PM 28.12 82.616 0.236 8.35 33.69 8.61
9/6/2023 8:15:00 PM 28.05 82.49 0.236 8.31 34.82 8.49
9/6/2023 8:30:00 PM 27.96 82.328 0.236 8.27 37.16 8.32
9/6/2023 8:45:00 PM 27.88 82.184 0.237 8.23 36.84 8.15
9/6/2023 9:00:00 PM 27.78 82.004 0.237 8.19 37.84 8.03
9/6/2023 9:15:00 PM 27.68 81.824 0.237 8.13 37.44 7.88
9/6/2023 9:30:00 PM 27.58 81.644 0.237 8.08 39.37 7.74
9/6/2023 9:45:00 PM 27.45 81.41 0.237 8.02 41.39 7.59
9/6/2023 10:00:00 PM 27.34 81.212 0.237 7.98 47.32 7.44
9/6/2023 10:15:00 PM 27.24 81.032 0.237 7.92 73.7 7.3
9/6/2023 10:30:00 PM 27.11 80.798 0.238 7.86 45.63 7.17
9/6/2023 10:45:00 PM 27 80.6 0.238 7.79 46.88 7.06
9/6/2023 11:00:00 PM 26.92 80.456 0.238 7.76 26.95 6.97
9/6/2023 11:15:00 PM 26.79 80.222 0.238 7.71 32.99 6.85
9/6/2023 11:30:00 PM 26.71 80.078 0.238 7.67 39.55 6.75
9/6/2023 11:45:00 PM 26.63 79.934 0.237 7.64 14.52 6.68
9/7/2023 12:00:00 AM 26.53 79.754 0.238 7.6 14.66 6.58
9/7/2023 12:15:00 AM 26.44 79.592 0.238 7.57 14.21 6.52
9/7/2023 12:30:00 AM 26.36 79.448 0.235 7.52 15.03 6.46
9/7/2023 12:45:00 AM 26.29 79.32201 0.236 7.5 15.06 6.39
9/7/2023 1:00:00 AM 26.21 79.17799 0.236 7.48 15.88 6.31
9/7/2023 1:15:00 AM 26.14 79.052 0.238 7.45 16.02 6.26
9/7/2023 1:30:00 AM 26.07 78.926 0.239 7.45 17.77 6.2
9/7/2023 1:45:00 AM 25.99 78.782 0.239 7.41 16.25 6.14
9/7/2023 2:00:00 AM 25.92 78.656 0.238 7.4 19.7 6.12
9/7/2023 2:15:00 AM 25.87 78.566 0.239 7.37 24.47 6.08
9/7/2023 2:30:00 AM 25.8 78.44 0.236 7.35 21.06 6.05
9/7/2023 2:45:00 AM 25.73 78.314 0.237 7.34 31.61 6
9/7/2023 3:00:00 AM 25.67 78.206 0.239 7.32 18.34 5.99
9/7/2023 3:15:00 AM 25.62 78.116 0.236 7.31 17.78 5.97
9/7/2023 3:30:00 AM 25.55 77.99 0.239 7.29 18.03 5.94
9/7/2023 3:45:00 AM 25.49 77.882 0.239 7.27 18.97 5.94
9/7/2023 4:00:00 AM 25.44 77.792 0.239 7.27 24.84 5.9
9/7/2023 4:15:00 AM 25.4 77.72 0.239 7.25 26.29 5.9
9/7/2023 4:30:00 AM 25.32 77.576 0.239 7.24 30.35 5.88
9/7/2023 4:45:00 AM 25.25 77.45 0.239 7.23 39.87 5.84
9/7/2023 5:00:00 AM 25.21 77.378 0.239 7.22 39.4 5.84
9/7/2023 5:15:00 AM 25.17 77.306 0.239 7.22 111.7 5.83
9/7/2023 5:30:00 AM 25.1 77.18 0.239 7.2 103 5.81
9/7/2023 5:45:00 AM 25.07 77.126 0.24 7.2 115 5.81
9/7/2023 6:00:00 AM 25 77 0.239 7.19 127.7 5.79
9/7/2023 6:15:00 AM 24.96 76.92799 0.239 7.18 123.1 5.76
9/7/2023 6:30:00 AM 24.93 76.874 0.24 7.18 63.87 5.77
9/7/2023 6:45:00 AM 24.85 76.73 0.24 7.16 64.94 5.76
9/7/2023 7:00:00 AM 24.8 76.64 0.24 7.16 106.4 5.7
9/7/2023 7:15:00 AM 24.78 76.604 0.24 7.15 116.7 5.74
9/7/2023 7:30:00 AM 24.75 76.55 0.24 7.14 79.61 5.72
9/7/2023 7:45:00 AM 24.73 76.514 0.24 7.13 104.5 5.8
9/7/2023 8:00:00 AM 24.74 76.532 0.24 7.11 45.45 5.88
9/7/2023 8:15:00 AM 24.76 76.568 0.24 7.1 155.1 5.99
9/7/2023 8:30:00 AM 24.76 76.568 0.24 7.09 174.2 6.01
9/7/2023 8:45:00 AM 24.77 76.586 0.24 7.08 24.97 6.03
9/7/2023 9:00:00 AM 24.81 76.658 0.24 7.08 52.46 6.14
9/7/2023 9:15:00 AM 24.86 76.748 0.241 7.06 27.86 6.23
9/7/2023 9:30:00 AM 24.9 76.82 0.241 7.07 20.15 6.32
9/7/2023 9:45:00 AM 24.99 76.982 0.241 7.07 20.71 6.55
9/7/2023 10:00:00 AM 25.06 77.108 0.241 7.1 17.88 6.7
9/7/2023 10:15:00 AM 25.13 77.234 0.241 7.09 23.77 6.84
9/7/2023 10:30:00 AM 25.22 77.396 0.241 7.08 20.45 6.95
9/7/2023 10:45:00 AM 25.32 77.576 0.242 7.09 22.3 7.15
9/7/2023 11:00:00 AM 25.46 77.828 0.242 7.12 21.73 7.34
9/7/2023 11:15:00 AM 25.72 78.296 0.242 7.17 35.62 7.65
9/7/2023 11:30:00 AM 25.95 78.71 0.242 7.21 25.65 7.89
9/7/2023 11:45:00 AM 26.21 79.17799 0.242 7.24 24.7 8.14
9/7/2023 12:00:00 PM 26.54 79.772 0.242 7.26 20.91 8.43
9/7/2023 12:15:00 PM 27 80.6 0.242 7.31 26.19 8.78
9/7/2023 12:30:00 PM 27.41 81.338 0.242 7.26 22.68 9.04
9/7/2023 12:45:00 PM 27.54 81.57201 0.243 7.46 33.07 9.12
9/7/2023 1:00:00 PM 27.84 82.112 0.243 7.58 25.95 9.37
9/7/2023 1:15:00 PM 27.96 82.328 0.243 7.68 31.33 9.58
9/7/2023 1:30:00 PM 28.16 82.688 0.243 7.78 37.43 9.72
9/7/2023 1:45:00 PM 28.33 82.994 0.244 7.86 49.4 9.82
9/7/2023 2:00:00 PM 28.42 83.156 0.244 7.92 34.51 9.9
9/7/2023 2:15:00 PM 28.4 83.12 0.244 7.98 34.31 9.88
9/7/2023 2:30:00 PM 28.48 83.264 0.244 8.04 34.32 9.97
9/7/2023 2:45:00 PM 28.26 82.868 0.245 8.08 36.32 9.84
9/7/2023 3:00:00 PM 28.15 82.67 0.245 8.1 36.7 9.76
9/7/2023 3:15:00 PM 27.93 82.274 0.245 8.11 28.75 9.67
9/7/2023 3:30:00 PM 27.78 82.004 0.245 8.18 22.69 9.52
9/7/2023 3:45:00 PM 27.69 81.842 0.245 8.24 21.04 9.51
9/7/2023 4:00:00 PM 27.34 81.212 0.239 8.34 40.58 9.19
9/7/2023 4:15:00 PM 26.83 80.294 0.23 8.34 51.22 8.69
9/7/2023 4:30:00 PM 26.1 78.98 0.213 8.19 92.07 8.4
9/7/2023 4:45:00 PM 26.23 79.214 0.213 8.17 66.55 8.41
9/7/2023 5:00:00 PM 26.36 79.448 0.219 8.13 60.42 8.41
9/7/2023 5:15:00 PM 26.46 79.628 0.225 8.07 55.65 8.33
9/7/2023 5:30:00 PM 26.41 79.538 0.227 8.05 55.33 8.18
9/7/2023 5:45:00 PM 26.42 79.556 0.23 8 59.57 8.07
9/7/2023 6:00:00 PM 26.42 79.556 0.232 7.99 51.52 8.02
9/7/2023 6:15:00 PM 26.37 79.466 0.233 7.95 66.52 7.89
9/7/2023 6:30:00 PM 26.35 79.43 0.234 7.92 70.01 7.77
9/7/2023 6:45:00 PM 26.24 79.232 0.234 7.88 67.92 7.63
9/7/2023 7:00:00 PM 26.15 79.07 0.233 7.84 67.88 7.6
9/7/2023 7:15:00 PM 26.14 79.052 0.234 7.8 69.91 7.49
9/7/2023 7:30:00 PM 26.08 78.944 0.234 7.76 78.11 7.35
9/7/2023 7:45:00 PM 26.04 78.872 0.235 7.74 47.83 7.22
9/7/2023 8:00:00 PM 25.98 78.764 0.236 7.69 47.87 7.1
9/7/2023 8:15:00 PM 25.88 78.584 0.236 7.66 43.11 6.97
9/7/2023 8:30:00 PM 25.81 78.458 0.237 7.64 48.05 6.86
9/7/2023 8:45:00 PM 25.71 78.278 0.237 7.6 47.55 6.76
9/7/2023 9:00:00 PM 25.61 78.098 0.237 7.56 46.71 6.64
9/7/2023 9:15:00 PM 25.5 77.9 0.237 7.53 44.96 6.57
9/7/2023 9:30:00 PM 25.4 77.72 0.237 7.49 44.52 6.45
9/7/2023 9:45:00 PM 25.3 77.54 0.236 7.46 52.77 6.3
9/7/2023 10:00:00 PM 25.23 77.414 0.237 7.43 47.19 6.25
9/7/2023 10:15:00 PM 25.14 77.252 0.237 7.4 49.06 6
9/7/2023 10:30:00 PM 25.07 77.126 0.237 7.38 54.44 5.98
9/7/2023 10:45:00 PM 25 77 0.237 7.36 45.14 5.98
9/7/2023 11:00:00 PM 24.94 76.892 0.237 7.36 48.09 5.83
9/7/2023 11:15:00 PM 24.9 76.82 0.232 7.34 53.19 5.92
9/7/2023 11:30:00 PM 24.92 76.856 0.238 7.33 47.3 5.84
9/7/2023 11:45:00 PM 24.84 76.712 0.238 7.32 48 5.87
9/8/2023 12:00:00 AM 24.81 76.658 0.239 7.31 54.71 5.81
9/8/2023 12:15:00 AM 24.82 76.676 0.239 7.31 50.51 5.81
9/8/2023 12:30:00 AM 24.73 76.514 0.239 7.29 49.17 5.71
9/8/2023 12:45:00 AM 24.69 76.442 0.238 7.29 51.99 5.8
9/8/2023 1:00:00 AM 24.62 76.316 0.238 7.28 45.78 5.76
9/8/2023 1:15:00 AM 24.53 76.154 0.236 7.27 45.28 5.63
9/8/2023 1:30:00 AM 24.47 76.046 0.235 7.25 41.97 5.65
9/8/2023 1:45:00 AM 24.38 75.884 0.233 7.24 47.48 5.69
9/8/2023 2:00:00 AM 24.28 75.704 0.231 7.23 47.35 5.63
9/8/2023 2:15:00 AM 24.2 75.56 0.229 7.23 47.62 5.58
9/8/2023 2:30:00 AM 24.12 75.416 0.228 7.22 49.72 5.61
9/8/2023 2:45:00 AM 24.04 75.272 0.227 7.21 51.79 5.59
9/8/2023 3:00:00 AM 23.96 75.128 0.226 7.21 57.15 5.54
9/8/2023 3:15:00 AM 23.89 75.002 0.225 7.2 59.26 5.6
9/8/2023 3:30:00 AM 23.82 74.876 0.224 7.19 53.78 5.65
9/8/2023 3:45:00 AM 23.75 74.75 0.223 7.18 56.5 5.62
9/8/2023 4:00:00 AM 23.69 74.642 0.223 7.17 54.78 5.6
9/8/2023 4:15:00 AM 23.62 74.516 0.222 7.17 58.95 5.65
9/8/2023 4:30:00 AM 23.58 74.444 0.222 7.16 59.35 5.65
9/8/2023 4:45:00 AM 23.52 74.336 0.222 7.15 62.55 5.63
9/8/2023 5:00:00 AM 23.48 74.264 0.222 7.15 64.06 5.66
9/8/2023 5:15:00 AM 23.42 74.156 0.223 7.14 65.86 5.64
9/8/2023 5:30:00 AM 23.36 74.048 0.223 7.15 72.03 5.63
9/8/2023 5:45:00 AM 23.32 73.976 0.223 7.14 69.66 5.62
9/8/2023 6:00:00 AM 23.27 73.886 0.223 7.15 67.07 5.64
9/8/2023 6:15:00 AM 23.21 73.778 0.224 7.15 66.82 5.63
9/8/2023 6:30:00 AM 23.17 73.706 0.224 7.14 71.32 5.58
9/8/2023 6:45:00 AM 23.14 73.652 0.225 7.14 71.32 5.61
9/8/2023 7:00:00 AM 23.1 73.58 0.225 7.14 72.92 5.6
9/8/2023 7:15:00 AM 23.08 73.544 0.225 7.12 68.42 5.63
9/8/2023 7:30:00 AM 23.06 73.508 0.225 7.11 63.66 5.62
9/8/2023 7:45:00 AM 23.05 73.49 0.225 7.12 36.06 5.61
9/8/2023 8:00:00 AM 23.04 73.472 0.226 7.11 35.7 5.66
9/8/2023 8:15:00 AM 23.04 73.472 0.226 7.1 35.71 5.7
9/8/2023 8:30:00 AM 23.04 73.472 0.226 7.11 37.46 5.71
9/8/2023 8:45:00 AM 23.03 73.454 0.226 7.09 36.29 5.68
9/8/2023 9:00:00 AM 23.04 73.472 0.225 7.09 36.85 5.79
9/8/2023 9:15:00 AM 23.04 73.472 0.224 7.09 33.27 5.82
9/8/2023 9:30:00 AM 23.07 73.526 0.226 7.09 33.04 5.85
9/8/2023 9:45:00 AM 23.08 73.544 0.225 7.09 33.42 5.95
9/8/2023 10:00:00 AM 23.12 73.616 0.225 7.09 50.5 6.02
9/8/2023 10:15:00 AM 23.15 73.67 0.225 7.09 35.87 6.11
9/8/2023 10:30:00 AM 23.24 73.832 0.225 7.08 41.28 6.14
9/8/2023 10:45:00 AM 23.35 74.03 0.225 7.08 37.78 6.35
9/8/2023 11:00:00 AM 23.46 74.228 0.225 7.09 37.57 6.51
9/8/2023 11:15:00 AM 23.67 74.606 0.226 7.08 37.5 6.71
9/8/2023 11:30:00 AM 23.73 74.714 0.226 7.04 37.24 6.83
9/8/2023 11:45:00 AM 23.83 74.894 0.226 7.07 39.07 6.94
9/8/2023 12:00:00 PM 23.94 75.092 0.227 7.08 37.42 7.13
9/8/2023 12:15:00 PM 24.03 75.254 0.227 7.09 36.96 7.24
9/8/2023 12:30:00 PM 24.08 75.344 0.228 7.08 59.9 7.31
9/8/2023 12:45:00 PM 24.1 75.38 0.229 7.08 58.98 7.28
9/8/2023 1:00:00 PM 24.12 75.416 0.229 7.1 61.16 7.38
9/8/2023 1:15:00 PM 24.15 75.47 0.23 7.13 67.1 7.46
9/8/2023 1:30:00 PM 24.2 75.56 0.229 7.11 31.11 7.45
9/8/2023 1:45:00 PM 24.3 75.74 0.231 7.11 16.64 7.76
9/8/2023 2:00:00 PM 24.4 75.92 0.231 7.16 11.08 7.89
9/8/2023 2:15:00 PM 24.46 76.028 0.232 7.18 10.79 7.92
9/8/2023 2:30:00 PM 24.65 76.37 0.231 7.2 11.1 8.09
9/8/2023 2:45:00 PM 24.8 76.64 0.232 7.18 12.33 8.18
9/8/2023 3:00:00 PM 25.08 77.144 0.233 7.24 10.74 8.37
9/8/2023 3:15:00 PM 25.29 77.522 0.234 7.24 10.6 8.23
9/8/2023 3:30:00 PM 25.42 77.756 0.235 7.28 11.3 8.41
9/8/2023 3:45:00 PM 25.55 77.99 0.235 7.31 10.66 8.54
9/8/2023 4:00:00 PM 25.54 77.972 0.236 7.34 10.63 8.57
9/8/2023 4:15:00 PM 25.58 78.044 0.236 7.37 10.58 8.72
9/8/2023 4:30:00 PM 25.62 78.116 0.237 7.39 10.05 8.71
9/8/2023 4:45:00 PM 25.64 78.152 0.238 7.41 11.51 8.57
9/8/2023 5:00:00 PM 25.65 78.17 0.238 7.41 10.86 8.53
9/8/2023 5:15:00 PM 25.67 78.206 0.239 7.42 11.87 8.6
9/8/2023 5:30:00 PM 25.64 78.152 0.239 7.45 12.68 8.58
9/8/2023 5:45:00 PM 25.61 78.098 0.24 7.43 11.67 8.47
9/8/2023 6:00:00 PM 25.61 78.098 0.24 7.47 19.57 8.44
9/8/2023 6:15:00 PM 25.58 78.044 0.241 7.41 18.39 8.29
9/8/2023 6:30:00 PM 25.54 77.972 0.241 6.57 24.75 8.29
9/8/2023 6:45:00 PM 25.51 77.918 0.241 7.36 29.69 8.21
9/8/2023 7:00:00 PM 25.47 77.846 0.242 7.36 23.32 8.16
9/8/2023 7:15:00 PM 25.42 77.756 0.242 7.36 24.04 8.09
9/8/2023 7:30:00 PM 25.35 77.63 0.242 7.34 16.46 7.98
9/8/2023 7:45:00 PM 25.31 77.558 0.244 7.34 19.81 7.97
9/8/2023 8:00:00 PM 25.24 77.432 0.244 7.31 17.12 7.83
9/8/2023 8:15:00 PM 25.21 77.378 0.245 7.34 17.85 7.76
9/8/2023 8:30:00 PM 25.15 77.27 0.245 7.33 17.35 7.65
9/8/2023 8:45:00 PM 25.09 77.162 0.245 7.3 18.09 7.5
9/8/2023 9:00:00 PM 25.04 77.07201 0.246 7.28 17.63 7.39
9/8/2023 9:15:00 PM 24.98 76.964 0.246 7.26 17.23 7.25
9/8/2023 9:30:00 PM 24.93 76.874 0.247 7.26 14.85 7.15
9/8/2023 9:45:00 PM 24.87 76.766 0.248 7.24 15.2 7.08
9/8/2023 10:00:00 PM 24.83 76.694 0.248 7.22 15.3 7.02
9/8/2023 10:15:00 PM 24.77 76.586 0.248 7.2 15.55 6.94
9/8/2023 10:30:00 PM 24.73 76.514 0.249 7.19 17.46 6.87
9/8/2023 10:45:00 PM 24.68 76.424 0.249 7.18 18.9 6.82
9/8/2023 11:00:00 PM 24.64 76.352 0.25 7.17 17.08 6.75
9/8/2023 11:15:00 PM 24.59 76.262 0.25 7.15 20.32 6.7
9/8/2023 11:30:00 PM 24.56 76.208 0.25 7.12 16.62 6.65
9/8/2023 11:45:00 PM 24.52 76.136 0.25 7.12 16.1 6.66
9/9/2023 12:00:00 AM 24.49 76.082 0.25 7.1 15.89 6.62
9/9/2023 12:15:00 AM 24.46 76.028 0.251 7.08 15.46 6.59
9/9/2023 12:30:00 AM 24.43 75.974 0.251 7.09 16.28 6.55
9/9/2023 12:45:00 AM 24.39 75.902 0.251 7.06 16.19 6.5
9/9/2023 1:00:00 AM 24.36 75.848 0.251 7.06 16.15 6.52
9/9/2023 1:15:00 AM 24.34 75.812 0.252 7.05 16.77 6.5
9/9/2023 1:30:00 AM 24.31 75.758 0.252 7.05 17.41 6.45
9/9/2023 1:45:00 AM 24.27 75.686 0.252 7.03 16.29 6.43
9/9/2023 2:00:00 AM 24.25 75.65 0.252 7.04 15.34 6.4
9/9/2023 2:15:00 AM 24.21 75.578 0.252 7.05 15.89 6.4
9/9/2023 2:30:00 AM 24.19 75.542 0.253 7.03 16 6.4
9/9/2023 2:45:00 AM 24.15 75.47 0.253 7.03 17.03 6.36
9/9/2023 3:00:00 AM 24.12 75.416 0.254 7.03 17.65 6.36
9/9/2023 3:15:00 AM 24.09 75.362 0.254 7.02 18.13 6.33
9/9/2023 3:30:00 AM 24.06 75.308 0.255 7.01 16.67 6.33
9/9/2023 3:45:00 AM 24.02 75.236 0.255 7.01 19.47 6.31
9/9/2023 4:00:00 AM 23.98 75.164 0.256 7.01 21.42 6.29
9/9/2023 4:15:00 AM 23.93 75.074 0.256 7 18.46 6.15
9/9/2023 4:30:00 AM 23.89 75.002 0.256 7 20.35 6.23
9/9/2023 4:45:00 AM 23.83 74.894 0.257 6.99 19.86 6.2
9/9/2023 5:00:00 AM 23.8 74.84 0.257 6.98 20.46 6.18
9/9/2023 5:15:00 AM 23.75 74.75 0.258 6.99 22.04 6.17
9/9/2023 5:30:00 AM 23.72 74.696 0.258 7.01 22.86 6.22
9/9/2023 5:45:00 AM 23.67 74.606 0.255 7.01 23.08 6.17
9/9/2023 6:00:00 AM 23.64 74.552 0.259 7 26.31 6.15
9/9/2023 6:15:00 AM 23.6 74.48 0.259 6.99 25.94 6.19
9/9/2023 6:30:00 AM 23.59 74.462 0.259 7.01 26.23 6.15
9/9/2023 6:45:00 AM 23.54 74.372 0.259 7.02 28.08 6.13
9/9/2023 7:00:00 AM 23.5 74.3 0.259 7.01 26.4 6.11
9/9/2023 7:15:00 AM 23.47 74.246 0.259 7.02 21.47 6.09
9/9/2023 7:30:00 AM 23.44 74.192 0.26 7.01 21.18 6.03
9/9/2023 7:45:00 AM 23.43 74.174 0.259 7.03 21.16 6.08
9/9/2023 8:00:00 AM 23.41 74.138 0.258 7.02 19.44 6.09
9/9/2023 8:15:00 AM 23.43 74.174 0.257 7.03 26.72 6.16
9/9/2023 8:30:00 AM 23.43 74.174 0.259 7.03 24.72 6.2
9/9/2023 8:45:00 AM 23.44 74.192 0.258 7.03 20.67 6.17
9/9/2023 9:00:00 AM 23.44 74.192 0.256 7.02 22.93 6.27
9/9/2023 9:15:00 AM 23.46 74.228 0.257 7.04 71.7 6.29
9/9/2023 9:30:00 AM 23.5 74.3 0.256 7.04 19.16 6.39
9/9/2023 9:45:00 AM 23.52 74.336 0.256 7.03 19.99 6.46
9/9/2023 10:00:00 AM 23.54 74.372 0.256 7.05 20.32 6.58
9/9/2023 10:15:00 AM 23.56 74.408 0.256 7.05 22.02 6.66
9/9/2023 10:30:00 AM 23.63 74.534 0.255 7.05 20.13 6.82
9/9/2023 10:45:00 AM 23.7 74.66 0.255 7.04 63.65 6.93
9/9/2023 11:00:00 AM 23.78 74.804 0.254 7.06 25.11 7.06
9/9/2023 11:15:00 AM 23.86 74.948 0.253 7.07 151.3 7.15
9/9/2023 11:30:00 AM 24.03 75.254 0.252 7.1 53.78 7.4
9/9/2023 11:45:00 AM 24.19 75.542 0.252 7.11 20.44 7.46
9/9/2023 12:00:00 PM 24.45 76.01 0.251 7.12 19.9 7.61
9/9/2023 12:15:00 PM 24.71 76.478 0.251 7.15 22.03 7.85
9/9/2023 12:30:00 PM 24.92 76.856 0.248 7.16 20.58 8.11
9/9/2023 12:45:00 PM 25.11 77.198 0.247 7.14 22.38 8.31
9/9/2023 1:00:00 PM 25.15 77.27 0.247 7.19 20.96 8.3
9/9/2023 1:15:00 PM 25.25 77.45 0.247 7.24 20.41 8.41
9/9/2023 1:30:00 PM 25.29 77.522 0.246 7.29 20.34 8.61
9/9/2023 1:45:00 PM 25.52 77.936 0.248 7.3 20.01 8.74
9/9/2023 2:00:00 PM 25.6 78.08 0.248 7.34 20.75 8.86
9/9/2023 2:15:00 PM 25.67 78.206 0.245 7.36 20.87 8.91
9/9/2023 2:30:00 PM 25.89 78.602 0.244 7.41 22.45 9.01
9/9/2023 2:45:00 PM 26.07 78.926 0.245 7.44 20.09 9.14
9/9/2023 3:00:00 PM 26.34 79.412 0.247 7.49 19.84 9.31
9/9/2023 3:15:00 PM 26.45 79.61 0.246 7.54 19.31 9.35
9/9/2023 3:30:00 PM 26.49 79.682 0.246 7.61 11.83 9.32
9/9/2023 3:45:00 PM 26.52 79.736 0.244 7.62 10.06 9.35
9/9/2023 4:00:00 PM 26.53 79.754 0.243 7.69 10.01 9.38
9/9/2023 4:15:00 PM 26.57 79.826 0.244 7.71 10.23 9.45
9/9/2023 4:30:00 PM 26.58 79.844 0.243 7.75 10.93 9.47
9/9/2023 4:45:00 PM 26.51 79.718 0.241 7.77 11.84 9.22
9/9/2023 5:00:00 PM 26.43 79.574 0.244 7.78 23.28 9.3
9/9/2023 5:15:00 PM 26.42 79.556 0.245 7.8 21.58 9.25
9/9/2023 5:30:00 PM 26.38 79.484 0.244 7.84 12 9.19
9/9/2023 5:45:00 PM 26.31 79.358 0.238 7.85 11.29 9.07
9/9/2023 6:00:00 PM 26.25 79.25 0.245 7.85 11.91 8.98
9/9/2023 6:15:00 PM 26.19 79.142 0.245 7.83 11.31 8.92
9/9/2023 6:30:00 PM 26.15 79.07 0.245 7.8 23.9 8.72
9/9/2023 6:45:00 PM 26.1 78.98 0.245 7.81 13.14 8.73
9/9/2023 7:00:00 PM 26.03 78.854 0.244 7.82 15.02 8.58
9/9/2023 7:15:00 PM 25.96 78.728 0.243 7.83 15.05 8.47
9/9/2023 7:30:00 PM 25.88 78.584 0.243 7.84 14.76 8.36
9/9/2023 7:45:00 PM 25.78 78.404 0.245 7.8 16.92 8.3
9/9/2023 8:00:00 PM 25.71 78.278 0.245 7.78 17.81 8.19
9/9/2023 8:15:00 PM 25.64 78.152 0.242 7.76 17.94 8.12
9/9/2023 8:30:00 PM 25.57 78.026 0.245 7.73 18.98 8.01
9/9/2023 8:45:00 PM 25.51 77.918 0.246 7.7 18.75 7.93
9/9/2023 9:00:00 PM 25.43 77.774 0.246 7.67 47.65 7.76
9/9/2023 9:15:00 PM 25.35 77.63 0.246 7.66 16.07 7.67
9/9/2023 9:30:00 PM 25.3 77.54 0.246 7.62 16.53 7.57
9/9/2023 9:45:00 PM 25.24 77.432 0.246 7.58 15.29 7.47
9/9/2023 10:00:00 PM 25.21 77.378 0.246 7.57 17.5 7.39
9/9/2023 10:15:00 PM 25.14 77.252 0.246 7.55 17.81 7.3
9/9/2023 10:30:00 PM 25.08 77.144 0.246 7.51 19 7.22
9/9/2023 10:45:00 PM 25.02 77.036 0.246 7.5 18.81 7.1
9/9/2023 11:00:00 PM 24.96 76.92799 0.246 7.48 17.9 7.03
9/9/2023 11:15:00 PM 24.91 76.838 0.246 7.46 19.44 6.94
9/9/2023 11:30:00 PM 24.86 76.748 0.246 7.43 19.97 6.88
9/9/2023 11:45:00 PM 24.79 76.622 0.246 7.43 23.66 6.81
9/10/2023 12:00:00 AM 24.74 76.532 0.247 7.41 19.59 6.76
9/10/2023 12:15:00 AM 24.67 76.406 0.247 7.39 20.25 6.7
9/10/2023 12:30:00 AM 24.61 76.298 0.247 7.36 20.42 6.66
9/10/2023 12:45:00 AM 24.56 76.208 0.247 7.35 22.08 6.64
9/10/2023 1:00:00 AM 24.5 76.1 0.247 7.34 23.05 6.6
9/10/2023 1:15:00 AM 24.43 75.974 0.247 7.34 22.92 6.57
9/10/2023 1:30:00 AM 24.39 75.902 0.247 7.33 22.82 6.53
9/10/2023 1:45:00 AM 24.35 75.83 0.247 7.32 21.16 6.52
9/10/2023 2:00:00 AM 24.3 75.74 0.247 7.32 24.66 6.49
9/10/2023 2:15:00 AM 24.26 75.668 0.247 7.29 21.79 6.48
9/10/2023 2:30:00 AM 24.2 75.56 0.247 7.29 21.84 6.48
9/10/2023 2:45:00 AM 24.16 75.488 0.247 7.28 23.83 6.45
9/10/2023 3:00:00 AM 24.12 75.416 0.247 7.27 24.51 6.43
9/10/2023 3:15:00 AM 24.07 75.326 0.247 7.27 23.54 6.43
9/10/2023 3:30:00 AM 24.03 75.254 0.247 7.29 22.54 6.41
9/10/2023 3:45:00 AM 23.99 75.182 0.247 7.28 24.03 6.39
9/10/2023 4:00:00 AM 23.94 75.092 0.247 7.25 24.13 6.39
9/10/2023 4:15:00 AM 23.93 75.074 0.247 7.25 24.38 6.38
9/10/2023 4:30:00 AM 23.89 75.002 0.247 7.24 26.85 6.36
9/10/2023 4:45:00 AM 23.87 74.966 0.247 7.24 25.91 6.36
9/10/2023 5:00:00 AM 23.85 74.93 0.247 7.24 26.57 6.38
9/10/2023 5:15:00 AM 23.81 74.858 0.247 7.24 26.32 6.35
9/10/2023 5:30:00 AM 23.79 74.82201 0.247 7.24 27.39 6.33
9/10/2023 5:45:00 AM 23.76 74.768 0.247 7.23 27.08 6.33
9/10/2023 6:00:00 AM 23.75 74.75 0.248 7.22 30.4 6.32
9/10/2023 6:15:00 AM 23.71 74.67799 0.248 7.23 34.26 6.28
9/10/2023 6:30:00 AM 23.69 74.642 0.247 7.23 29.78 6.28
9/10/2023 6:45:00 AM 23.65 74.57 0.244 7.22 30.26 6.27
9/10/2023 7:00:00 AM 23.64 74.552 0.246 7.22 32.01 6.25
9/10/2023 7:15:00 AM 23.61 74.498 0.245 7.21 33.51 6.26
9/10/2023 7:30:00 AM 23.59 74.462 0.245 7.22 36.71 6.22
9/10/2023 7:45:00 AM 23.56 74.408 0.248 7.23 31.78 6.18
9/10/2023 8:00:00 AM 23.54 74.372 0.248 7.2 35.86 6.19
9/10/2023 8:15:00 AM 23.53 74.354 0.248 7.18 34.92 6.22
9/10/2023 8:30:00 AM 23.51 74.318 0.248 7.2 32.91 6.23
9/10/2023 8:45:00 AM 23.51 74.318 0.248 7.17 28.38 6.26
9/10/2023 9:00:00 AM 23.51 74.318 0.248 7.18 37 6.29
9/10/2023 9:15:00 AM 23.52 74.336 0.248 7.18 29.67 6.34
9/10/2023 9:30:00 AM 23.54 74.372 0.249 7.18 33.58 6.4
9/10/2023 9:45:00 AM 23.55 74.39 0.249 7.17 39.97 6.43
9/10/2023 10:00:00 AM 23.56 74.408 0.249 7.17 38.96 6.5
9/10/2023 10:15:00 AM 23.6 74.48 0.248 7.17 34.66 6.61
9/10/2023 10:30:00 AM 23.66 74.588 0.249 7.16 32.03 6.77
9/10/2023 10:45:00 AM 23.72 74.696 0.245 7.15 34.5 6.93
9/10/2023 11:00:00 AM 23.81 74.858 0.249 7.16 30.55 7.08
9/10/2023 11:15:00 AM 23.86 74.948 0.249 7.16 40.75 7.18
9/10/2023 11:30:00 AM 23.9 75.02 0.245 7.15 37.63 7.26
9/10/2023 11:45:00 AM 23.98 75.164 0.249 7.17 35.28 7.46
9/10/2023 12:00:00 PM 24.02 75.236 0.249 7.16 42.71 7.57
9/10/2023 12:15:00 PM 24.16 75.488 0.249 7.17 38.06 7.69
9/10/2023 12:30:00 PM 24.25 75.65 0.249 7.21 44.76 7.93
9/10/2023 12:45:00 PM 24.25 75.65 0.249 7.24 52.96 8.08
9/10/2023 1:00:00 PM 24.32 75.776 0.249 7.27 58.85 8.26
9/10/2023 1:15:00 PM 24.54 76.172 0.249 4.87 42.54 8.46
9/10/2023 1:30:00 PM 24.56 76.208 0.249 6.33 43 8.47
9/10/2023 1:45:00 PM 24.55 76.19 0.247 6.67 40.38 8.53
9/10/2023 2:00:00 PM 24.51 76.118 0.249 6.86 44.46 8.5
9/10/2023 2:15:00 PM 24.35 75.83 0.24 7.21 40.39 8.44
9/10/2023 2:30:00 PM 24.17 75.506 0.23 7.41 59.44 8.33
9/10/2023 2:45:00 PM 24.08 75.344 0.22 7.5 55.29 8.23
9/10/2023 3:00:00 PM 24.13 75.434 0.22 7.52 39.95 8.28
9/10/2023 3:15:00 PM 24.14 75.452 0.218 7.49 89.33 8.21
9/10/2023 3:30:00 PM 24.34 75.812 0.223 7.5 98.82 8.32
9/10/2023 3:45:00 PM 24.52 76.136 0.226 7.49 85.02 8.44
9/10/2023 4:00:00 PM 24.38 75.884 0.223 7.5 88.41 8.44
9/10/2023 4:15:00 PM 24.34 75.812 0.217 7.51 96.76 8.32
9/10/2023 4:30:00 PM 24.3 75.74 0.219 7.5 113.9 8.26
9/10/2023 4:45:00 PM 24.29 75.722 0.217 7.5 103.4 8.25
9/10/2023 5:00:00 PM 24.24 75.632 0.217 7.48 116.3 8.22
9/10/2023 5:15:00 PM 24.2 75.56 0.216 7.47 122.9 8.15
9/10/2023 5:30:00 PM 24.19 75.542 0.216 7.46 132.3 8.12
9/10/2023 5:45:00 PM 24.14 75.452 0.205 7.44 126.2 8.02
9/10/2023 6:00:00 PM 24.08 75.344 0.211 7.42 129.6 7.89
9/10/2023 6:15:00 PM 23.98 75.164 0.208 7.28 127 7.68
9/10/2023 6:30:00 PM 23.9 75.02 0.205 7.37 139.4 7.55
9/10/2023 6:45:00 PM 23.85 74.93 0.204 7.32 134.5 7.49
9/10/2023 7:00:00 PM 23.83 74.894 0.203 7.29 127.5 7.43
9/10/2023 7:15:00 PM 23.82 74.876 0.204 7.27 129.7 7.43
9/10/2023 7:30:00 PM 23.8 74.84 0.205 7.24 153.7 7.39
9/10/2023 7:45:00 PM 23.79 74.82201 0.206 7.22 156.7 7.37
9/10/2023 8:00:00 PM 23.78 74.804 0.207 7.19 139.7 7.34
9/10/2023 8:15:00 PM 23.75 74.75 0.208 7.19 123.2 7.3
9/10/2023 8:30:00 PM 23.72 74.696 0.209 7.13 88.06 7.26
9/10/2023 8:45:00 PM 23.72 74.696 0.21 7.13 129 7.23
9/10/2023 9:00:00 PM 23.69 74.642 0.21 7.11 87.94 7.17
9/10/2023 9:15:00 PM 23.65 74.57 0.21 7.13 72.16 7.15
9/10/2023 9:30:00 PM 23.62 74.516 0.21 7.14 52.64 7.12
9/10/2023 9:45:00 PM 23.57 74.426 0.21 7.14 75.27 7.1
9/10/2023 10:00:00 PM 23.52 74.336 0.21 7.13 92.63 7.06
9/10/2023 10:15:00 PM 23.46 74.228 0.21 7.13 135.7 7.01
9/10/2023 10:30:00 PM 23.39 74.102 0.21 7.12 103.2 6.95
9/10/2023 10:45:00 PM 23.33 73.994 0.21 7.11 105.9 6.86
9/10/2023 11:00:00 PM 23.26 73.868 0.209 7.11 182.5 6.81
9/10/2023 11:15:00 PM 23.21 73.778 0.208 7.08 110.6 6.78
9/10/2023 11:30:00 PM 23.16 73.688 0.205 7.04 198.1 6.77
9/10/2023 11:45:00 PM 23.12 73.616 0.204 7.04 186.1 6.77
9/11/2023 12:00:00 AM 23.1 73.58 0.207 7.05 74.16 6.78
9/11/2023 12:15:00 AM 23.07 73.526 0.206 7.05 72.4 6.76
9/11/2023 12:30:00 AM 23.05 73.49 0.206 7.05 77.67 6.81
9/11/2023 12:45:00 AM 23.03 73.454 0.206 7.04 85.46 6.82
9/11/2023 1:00:00 AM 23.01 73.418 0.206 7.02 136 6.87
9/11/2023 1:15:00 AM 23 73.4 0.206 7.04 56.51 6.88
9/11/2023 1:30:00 AM 22.97 73.346 0.207 7.03 89.78 6.91
9/11/2023 1:45:00 AM 22.96 73.328 0.208 7.01 91.41 6.95
9/11/2023 2:00:00 AM 22.95 73.31 0.209 7.01 65.64 6.97
9/11/2023 2:15:00 AM 22.93 73.274 0.21 7.03 87.65 7.01
9/11/2023 2:30:00 AM 22.92 73.256 0.211 7.04 63.4 7.03
9/11/2023 2:45:00 AM 22.9 73.22 0.212 7.03 71.83 7.06
9/11/2023 3:00:00 AM 22.88 73.184 0.213 7.04 87.81 7.05
9/11/2023 3:15:00 AM 22.86 73.148 0.214 7.02 71.24 7.08
9/11/2023 3:30:00 AM 22.85 73.13 0.215 7.05 54.55 7.08
9/11/2023 3:45:00 AM 22.82 73.076 0.215 7.05 72.91 7.08
9/11/2023 4:00:00 AM 22.8 73.04 0.214 7.05 36.87 7.11
9/11/2023 4:15:00 AM 22.78 73.004 0.214 7.05 37.3 7.09
9/11/2023 4:30:00 AM 22.75 72.95 0.214 7.04 42.92 7.07
9/11/2023 4:45:00 AM 22.72 72.896 0.213 6.58 101.9 7.09
9/11/2023 5:00:00 AM 22.7 72.86 0.211 7.02 60.95 7.09
9/11/2023 5:15:00 AM 22.64 72.752 0.21 7.02 89.64 7.13
9/11/2023 5:30:00 AM 22.62 72.716 0.209 7.02 76.14 7.11
9/11/2023 5:45:00 AM 22.59 72.662 0.209 7.02 78.12 7.11
9/11/2023 6:00:00 AM 22.56 72.608 0.207 7.03 39.43 7.13
9/11/2023 6:15:00 AM 22.52 72.536 0.206 7.02 37.17 7.13
9/11/2023 6:30:00 AM 22.49 72.482 0.208 7.02 28.87 7.1
9/11/2023 6:45:00 AM 22.46 72.42799 0.211 7.03 41.54 7.11
9/11/2023 7:00:00 AM 22.43 72.374 0.212 7.04 47.34 7.11
9/11/2023 7:15:00 AM 22.4 72.32 0.211 7.03 40.34 7.13
9/11/2023 7:30:00 AM 22.37 72.266 0.213 7.02 40.25 7.12
9/11/2023 7:45:00 AM 22.33 72.194 0.217 7.03 39.99 7.13
9/11/2023 8:00:00 AM 22.29 72.122 0.218 7.02 35.9 7.14
9/11/2023 8:15:00 AM 22.26 72.068 0.22 7.04 42.63 7.14
9/11/2023 8:30:00 AM 22.23 72.014 0.222 7.04 32.06 7.14
9/11/2023 8:45:00 AM 22.21 71.978 0.224 7.04 32.59 7.15
9/11/2023 9:00:00 AM 22.19 71.942 0.227 7.04 90.76 7.13
9/11/2023 9:15:00 AM 22.17 71.906 0.23 7.04 31.48 7.17
9/11/2023 9:30:00 AM 22.16 71.888 0.233 7.06 30.23 7.19
9/11/2023 9:45:00 AM 22.14 71.852 0.236 7.07 33.15 7.18
9/11/2023 10:00:00 AM 22.15 71.87 0.24 7.07 32.56 7.2
9/11/2023 10:15:00 AM 22.17 71.906 0.241 7.09 43.82 7.23
9/11/2023 10:30:00 AM 22.19 71.942 0.245 7.1 31.51 7.24
9/11/2023 10:45:00 AM 22.23 72.014 0.247 7.11 45.18 7.26
9/11/2023 11:00:00 AM 22.25 72.05 0.249 7.12 43.79 7.26
9/11/2023 11:15:00 AM 22.29 72.122 0.249 7.15 101.4 7.29
9/11/2023 11:30:00 AM 22.33 72.194 0.249 7.16 37.72 7.3
9/11/2023 11:45:00 AM 22.4 72.32 0.248 7.17 54.23 7.33
9/11/2023 12:00:00 PM 22.51 72.518 0.246 7.18 67.63 7.35
9/11/2023 12:15:00 PM 22.64 72.752 0.244 7.18 74.96 7.37
9/11/2023 12:30:00 PM 22.78 73.004 0.241 7.2 71.76 7.39
9/11/2023 12:45:00 PM 22.76 72.968 0.238 7.21 96.01 7.38
9/11/2023 1:00:00 PM 22.83 73.094 0.231 7.22 79.45 7.39
9/11/2023 1:15:00 PM 22.88 73.184 0.229 7.23 54.25 7.39
9/11/2023 1:30:00 PM 22.91 73.238 0.226 7.22 73.11 7.38
9/11/2023 1:45:00 PM 22.95 73.31 0.222 7.22 57.37 7.41
9/11/2023 2:00:00 PM 23.02 73.436 0.219 7.23 49.7 7.43
9/11/2023 2:15:00 PM 23.04 73.472 0.216 7.22 70.39 7.4
9/11/2023 2:30:00 PM 23.07 73.526 0.214 7.2 115.8 7.41
9/11/2023 2:45:00 PM 23.19 73.742 0.213 7.21 184.2 7.42
9/11/2023 3:00:00 PM 23.33 73.994 0.21 7.21 261.9 7.44
9/11/2023 3:15:00 PM 23.35 74.03 0.208 7.2 66.67 7.4
9/11/2023 3:30:00 PM 23.32 73.976 0.207 7.2 58.16 7.36
9/11/2023 3:45:00 PM 23.3 73.94 0.206 7.19 70.13 7.33
9/11/2023 4:00:00 PM 23.35 74.03 0.204 7.18 50.77 7.32
9/11/2023 4:15:00 PM 23.32 73.976 0.203 7.16 45.77 7.3
9/11/2023 4:30:00 PM 23.34 74.012 0.203 7.15 55.62 7.29
9/11/2023 4:45:00 PM 23.34 74.012 0.202 7.15 44.26 7.3
9/11/2023 5:00:00 PM 23.37 74.066 0.201 7.15 51.15 7.31
9/11/2023 5:15:00 PM 23.35 74.03 0.2 7.14 67.94 7.31
9/11/2023 5:30:00 PM 23.3 73.94 0.2 7.14 149.2 7.27
9/11/2023 5:45:00 PM 23.26 73.868 0.199 7.13 44.64 7.26
9/11/2023 6:00:00 PM 23.24 73.832 0.198 7.13 45.83 7.23
9/11/2023 6:15:00 PM 23.22 73.796 0.195 7.14 55.48 7.2
9/11/2023 6:30:00 PM 23.2 73.76 0.197 7.12 41.27 7.18
9/11/2023 6:45:00 PM 23.17 73.706 0.196 7.13 39.31 7.14
9/11/2023 7:00:00 PM 23.14 73.652 0.195 7.12 44.97 7.13

These are provisional data and have not been subject to a quality assurance process, but rather are the raw data reported by the instrument.
H: value is above sensor operating range
L: value is below sensor operating range
Offline: station is not reporting data
NC: parameter is not collected at site

Data Availability & Limitations

Uncertainty and potential for error can be associated with environmental monitoring data. Provisional data have not been subject to a quality assurance process, but rather are the raw data reported by the instrument. Data users are cautioned to consider carefully the provisional nature of the information before using it for decisions that concern personal or public safety or the conduct of business that involves substantial monetary or operational consequences.

Approved data are currently available by request by emailing: [email protected]. Approved data have been subject to a quality assurance process to correct for equipment or fouling drift. Data recorded during equipment malfunctions have been removed.

View Historical Stations that have been discontinued.